<?xml version="1.0" encoding="UTF-8" standalone="no" ?>
<gpx xmlns="http://www.topografix.com/GPX/1/1" xmlns:xsi="http://www.w3.org/2001/XMLSchema-instance" xsi:schemaLocation="http://www.topografix.com/GPX/1/1 http://www.topografix.com/GPX/1/1/gpx.xsd" version="1.1" creator="VisuGPX - https://www.visugpx.com">
  <metadata>
    <name>Retour Taf</name>
    <desc><![CDATA[Retour de Cadarache jusqu?à Jouques]]></desc>
  </metadata>
  <trk>
    <name><![CDATA[VTT - Jouques]]></name>
    <trkseg>
      <trkpt lat="43.66859" lon="5.73569">
        <ele>290.20001220703</ele>
        <time>2013-05-04T09:07:27.000Z</time>
      </trkpt>
      <trkpt lat="43.66857" lon="5.73576">
        <ele>290</ele>
        <time>2013-05-04T09:07:28.000Z</time>
      </trkpt>
      <trkpt lat="43.66855" lon="5.73582">
        <ele>289.60000610352</ele>
        <time>2013-05-04T09:07:29.000Z</time>
      </trkpt>
      <trkpt lat="43.66845" lon="5.73606">
        <ele>288.79998779297</ele>
        <time>2013-05-04T09:07:33.000Z</time>
      </trkpt>
      <trkpt lat="43.66837" lon="5.7362">
        <ele>288.60000610352</ele>
        <time>2013-05-04T09:07:36.000Z</time>
      </trkpt>
      <trkpt lat="43.66835" lon="5.73624">
        <ele>288.39999389648</ele>
        <time>2013-05-04T09:07:37.000Z</time>
      </trkpt>
      <trkpt lat="43.66835" lon="5.73629">
        <ele>288.20001220703</ele>
        <time>2013-05-04T09:07:38.000Z</time>
      </trkpt>
      <trkpt lat="43.66835" lon="5.73646">
        <ele>287.60000610352</ele>
        <time>2013-05-04T09:07:44.000Z</time>
      </trkpt>
      <trkpt lat="43.66835" lon="5.73647">
        <ele>287.60000610352</ele>
        <time>2013-05-04T09:07:45.000Z</time>
      </trkpt>
      <trkpt lat="43.66836" lon="5.73648">
        <ele>287.60000610352</ele>
        <time>2013-05-04T09:07:46.000Z</time>
      </trkpt>
      <trkpt lat="43.66836" lon="5.73651">
        <ele>287.39999389648</ele>
        <time>2013-05-04T09:07:48.000Z</time>
      </trkpt>
      <trkpt lat="43.66835" lon="5.73652">
        <ele>287.39999389648</ele>
        <time>2013-05-04T09:07:49.000Z</time>
      </trkpt>
      <trkpt lat="43.66833" lon="5.73652">
        <ele>287.39999389648</ele>
        <time>2013-05-04T09:07:59.000Z</time>
      </trkpt>
      <trkpt lat="43.66832" lon="5.73653">
        <ele>287.39999389648</ele>
        <time>2013-05-04T09:08:24.000Z</time>
      </trkpt>
      <trkpt lat="43.66832" lon="5.73654">
        <ele>287.39999389648</ele>
        <time>2013-05-04T09:08:27.000Z</time>
      </trkpt>
      <trkpt lat="43.66833" lon="5.73656">
        <ele>287.20001220703</ele>
        <time>2013-05-04T09:08:28.000Z</time>
      </trkpt>
      <trkpt lat="43.66834" lon="5.73658">
        <ele>287.20001220703</ele>
        <time>2013-05-04T09:08:29.000Z</time>
      </trkpt>
      <trkpt lat="43.66833" lon="5.7366">
        <ele>287.20001220703</ele>
        <time>2013-05-04T09:08:30.000Z</time>
      </trkpt>
      <trkpt lat="43.66831" lon="5.73663">
        <ele>287.20001220703</ele>
        <time>2013-05-04T09:08:31.000Z</time>
      </trkpt>
      <trkpt lat="43.66829" lon="5.73663">
        <ele>287.20001220703</ele>
        <time>2013-05-04T09:08:32.000Z</time>
      </trkpt>
      <trkpt lat="43.66826" lon="5.73663">
        <ele>287.20001220703</ele>
        <time>2013-05-04T09:08:33.000Z</time>
      </trkpt>
      <trkpt lat="43.66823" lon="5.73664">
        <ele>287.39999389648</ele>
        <time>2013-05-04T09:08:34.000Z</time>
      </trkpt>
      <trkpt lat="43.66821" lon="5.73665">
        <ele>287.39999389648</ele>
        <time>2013-05-04T09:08:35.000Z</time>
      </trkpt>
      <trkpt lat="43.66818" lon="5.73665">
        <ele>287.39999389648</ele>
        <time>2013-05-04T09:08:36.000Z</time>
      </trkpt>
      <trkpt lat="43.66783" lon="5.73679">
        <ele>288.39999389648</ele>
        <time>2013-05-04T09:08:46.000Z</time>
      </trkpt>
      <trkpt lat="43.66734" lon="5.73704">
        <ele>289.60000610352</ele>
        <time>2013-05-04T09:08:56.000Z</time>
      </trkpt>
      <trkpt lat="43.66693" lon="5.73732">
        <ele>290.60000610352</ele>
        <time>2013-05-04T09:09:05.000Z</time>
      </trkpt>
      <trkpt lat="43.66656" lon="5.7376">
        <ele>291.79998779297</ele>
        <time>2013-05-04T09:09:14.000Z</time>
      </trkpt>
      <trkpt lat="43.66611" lon="5.73792">
        <ele>293.60000610352</ele>
        <time>2013-05-04T09:09:26.000Z</time>
      </trkpt>
      <trkpt lat="43.66573" lon="5.73819">
        <ele>293.39999389648</ele>
        <time>2013-05-04T09:09:37.000Z</time>
      </trkpt>
      <trkpt lat="43.66541" lon="5.73839">
        <ele>295</ele>
        <time>2013-05-04T09:09:46.000Z</time>
      </trkpt>
      <trkpt lat="43.66524" lon="5.73852">
        <ele>296.20001220703</ele>
        <time>2013-05-04T09:09:51.000Z</time>
      </trkpt>
      <trkpt lat="43.66497" lon="5.73867">
        <ele>297.39999389648</ele>
        <time>2013-05-04T09:09:58.000Z</time>
      </trkpt>
      <trkpt lat="43.66458" lon="5.73882">
        <ele>299.20001220703</ele>
        <time>2013-05-04T09:10:08.000Z</time>
      </trkpt>
      <trkpt lat="43.66417" lon="5.73901">
        <ele>301.20001220703</ele>
        <time>2013-05-04T09:10:19.000Z</time>
      </trkpt>
      <trkpt lat="43.66376" lon="5.73925">
        <ele>301.79998779297</ele>
        <time>2013-05-04T09:10:30.000Z</time>
      </trkpt>
      <trkpt lat="43.66346" lon="5.73956">
        <ele>301.60000610352</ele>
        <time>2013-05-04T09:10:40.000Z</time>
      </trkpt>
      <trkpt lat="43.66314" lon="5.73996">
        <ele>301</ele>
        <time>2013-05-04T09:10:51.000Z</time>
      </trkpt>
      <trkpt lat="43.6628" lon="5.74018">
        <ele>304.79998779297</ele>
        <time>2013-05-04T09:11:01.000Z</time>
      </trkpt>
      <trkpt lat="43.66241" lon="5.74021">
        <ele>306.79998779297</ele>
        <time>2013-05-04T09:11:12.000Z</time>
      </trkpt>
      <trkpt lat="43.66198" lon="5.74015">
        <ele>307.39999389648</ele>
        <time>2013-05-04T09:11:23.000Z</time>
      </trkpt>
      <trkpt lat="43.66153" lon="5.7402">
        <ele>309.20001220703</ele>
        <time>2013-05-04T09:11:35.000Z</time>
      </trkpt>
      <trkpt lat="43.66114" lon="5.74022">
        <ele>310.20001220703</ele>
        <time>2013-05-04T09:11:45.000Z</time>
      </trkpt>
      <trkpt lat="43.66075" lon="5.74025">
        <ele>311.60000610352</ele>
        <time>2013-05-04T09:11:54.000Z</time>
      </trkpt>
      <trkpt lat="43.66071" lon="5.74025">
        <ele>311.79998779297</ele>
        <time>2013-05-04T09:11:55.000Z</time>
      </trkpt>
      <trkpt lat="43.66046" lon="5.74027">
        <ele>313</ele>
        <time>2013-05-04T09:12:01.000Z</time>
      </trkpt>
      <trkpt lat="43.66042" lon="5.74027">
        <ele>313.20001220703</ele>
        <time>2013-05-04T09:12:02.000Z</time>
      </trkpt>
      <trkpt lat="43.66025" lon="5.74031">
        <ele>314</ele>
        <time>2013-05-04T09:12:06.000Z</time>
      </trkpt>
      <trkpt lat="43.65989" lon="5.74053">
        <ele>316.20001220703</ele>
        <time>2013-05-04T09:12:16.000Z</time>
      </trkpt>
      <trkpt lat="43.65954" lon="5.74067">
        <ele>317.39999389648</ele>
        <time>2013-05-04T09:12:26.000Z</time>
      </trkpt>
      <trkpt lat="43.6591" lon="5.74073">
        <ele>318.20001220703</ele>
        <time>2013-05-04T09:12:38.000Z</time>
      </trkpt>
      <trkpt lat="43.65873" lon="5.74099">
        <ele>321</ele>
        <time>2013-05-04T09:12:49.000Z</time>
      </trkpt>
      <trkpt lat="43.65858" lon="5.74129">
        <ele>322.39999389648</ele>
        <time>2013-05-04T09:12:57.000Z</time>
      </trkpt>
      <trkpt lat="43.65839" lon="5.74154">
        <ele>321.60000610352</ele>
        <time>2013-05-04T09:13:05.000Z</time>
      </trkpt>
      <trkpt lat="43.65835" lon="5.74155">
        <ele>321.39999389648</ele>
        <time>2013-05-04T09:13:06.000Z</time>
      </trkpt>
      <trkpt lat="43.65832" lon="5.74153">
        <ele>321.39999389648</ele>
        <time>2013-05-04T09:13:07.000Z</time>
      </trkpt>
      <trkpt lat="43.65829" lon="5.7415">
        <ele>321.79998779297</ele>
        <time>2013-05-04T09:13:08.000Z</time>
      </trkpt>
      <trkpt lat="43.65826" lon="5.74147">
        <ele>322.20001220703</ele>
        <time>2013-05-04T09:13:09.000Z</time>
      </trkpt>
      <trkpt lat="43.65823" lon="5.74144">
        <ele>322.60000610352</ele>
        <time>2013-05-04T09:13:10.000Z</time>
      </trkpt>
      <trkpt lat="43.6579" lon="5.74106">
        <ele>325.60000610352</ele>
        <time>2013-05-04T09:13:21.000Z</time>
      </trkpt>
      <trkpt lat="43.65771" lon="5.74094">
        <ele>326.79998779297</ele>
        <time>2013-05-04T09:13:26.000Z</time>
      </trkpt>
      <trkpt lat="43.65767" lon="5.7409">
        <ele>327</ele>
        <time>2013-05-04T09:13:27.000Z</time>
      </trkpt>
      <trkpt lat="43.65765" lon="5.74084">
        <ele>327</ele>
        <time>2013-05-04T09:13:28.000Z</time>
      </trkpt>
      <trkpt lat="43.65765" lon="5.74078">
        <ele>327.60000610352</ele>
        <time>2013-05-04T09:13:29.000Z</time>
      </trkpt>
      <trkpt lat="43.65765" lon="5.74071">
        <ele>328.20001220703</ele>
        <time>2013-05-04T09:13:30.000Z</time>
      </trkpt>
      <trkpt lat="43.65765" lon="5.74065">
        <ele>328.79998779297</ele>
        <time>2013-05-04T09:13:31.000Z</time>
      </trkpt>
      <trkpt lat="43.65765" lon="5.74059">
        <ele>329.39999389648</ele>
        <time>2013-05-04T09:13:32.000Z</time>
      </trkpt>
      <trkpt lat="43.65763" lon="5.74054">
        <ele>330</ele>
        <time>2013-05-04T09:13:33.000Z</time>
      </trkpt>
      <trkpt lat="43.65761" lon="5.74049">
        <ele>330.39999389648</ele>
        <time>2013-05-04T09:13:34.000Z</time>
      </trkpt>
      <trkpt lat="43.65757" lon="5.74046">
        <ele>330.79998779297</ele>
        <time>2013-05-04T09:13:35.000Z</time>
      </trkpt>
      <trkpt lat="43.65754" lon="5.74043">
        <ele>331.20001220703</ele>
        <time>2013-05-04T09:13:36.000Z</time>
      </trkpt>
      <trkpt lat="43.6575" lon="5.74041">
        <ele>331.60000610352</ele>
        <time>2013-05-04T09:13:37.000Z</time>
      </trkpt>
      <trkpt lat="43.65745" lon="5.74038">
        <ele>332.20001220703</ele>
        <time>2013-05-04T09:13:38.000Z</time>
      </trkpt>
      <trkpt lat="43.65737" lon="5.74032">
        <ele>333.20001220703</ele>
        <time>2013-05-04T09:13:40.000Z</time>
      </trkpt>
      <trkpt lat="43.65733" lon="5.74029">
        <ele>333.60000610352</ele>
        <time>2013-05-04T09:13:41.000Z</time>
      </trkpt>
      <trkpt lat="43.65729" lon="5.74025">
        <ele>333.79998779297</ele>
        <time>2013-05-04T09:13:42.000Z</time>
      </trkpt>
      <trkpt lat="43.65719" lon="5.74013">
        <ele>334.20001220703</ele>
        <time>2013-05-04T09:13:45.000Z</time>
      </trkpt>
      <trkpt lat="43.65716" lon="5.7401">
        <ele>334.20001220703</ele>
        <time>2013-05-04T09:13:46.000Z</time>
      </trkpt>
      <trkpt lat="43.65712" lon="5.74009">
        <ele>334.20001220703</ele>
        <time>2013-05-04T09:13:47.000Z</time>
      </trkpt>
      <trkpt lat="43.65709" lon="5.74007">
        <ele>334.20001220703</ele>
        <time>2013-05-04T09:13:48.000Z</time>
      </trkpt>
      <trkpt lat="43.65705" lon="5.74007">
        <ele>334.20001220703</ele>
        <time>2013-05-04T09:13:49.000Z</time>
      </trkpt>
      <trkpt lat="43.65662" lon="5.73995">
        <ele>333.60000610352</ele>
        <time>2013-05-04T09:14:00.000Z</time>
      </trkpt>
      <trkpt lat="43.6564" lon="5.7397">
        <ele>336.20001220703</ele>
        <time>2013-05-04T09:14:08.000Z</time>
      </trkpt>
      <trkpt lat="43.65638" lon="5.73959">
        <ele>336.60000610352</ele>
        <time>2013-05-04T09:14:10.000Z</time>
      </trkpt>
      <trkpt lat="43.65632" lon="5.73926">
        <ele>338</ele>
        <time>2013-05-04T09:14:16.000Z</time>
      </trkpt>
      <trkpt lat="43.65629" lon="5.73921">
        <ele>338</ele>
        <time>2013-05-04T09:14:17.000Z</time>
      </trkpt>
      <trkpt lat="43.65626" lon="5.73917">
        <ele>338</ele>
        <time>2013-05-04T09:14:18.000Z</time>
      </trkpt>
      <trkpt lat="43.65623" lon="5.73913">
        <ele>338</ele>
        <time>2013-05-04T09:14:19.000Z</time>
      </trkpt>
      <trkpt lat="43.6562" lon="5.7391">
        <ele>338.20001220703</ele>
        <time>2013-05-04T09:14:20.000Z</time>
      </trkpt>
      <trkpt lat="43.65616" lon="5.73907">
        <ele>338.20001220703</ele>
        <time>2013-05-04T09:14:21.000Z</time>
      </trkpt>
      <trkpt lat="43.65582" lon="5.73874">
        <ele>336.39999389648</ele>
        <time>2013-05-04T09:14:32.000Z</time>
      </trkpt>
      <trkpt lat="43.65554" lon="5.73833">
        <ele>337.20001220703</ele>
        <time>2013-05-04T09:14:45.000Z</time>
      </trkpt>
      <trkpt lat="43.65545" lon="5.73817">
        <ele>338.39999389648</ele>
        <time>2013-05-04T09:14:52.000Z</time>
      </trkpt>
      <trkpt lat="43.65544" lon="5.73816">
        <ele>338.60000610352</ele>
        <time>2013-05-04T09:14:53.000Z</time>
      </trkpt>
      <trkpt lat="43.65543" lon="5.73814">
        <ele>338.60000610352</ele>
        <time>2013-05-04T09:14:54.000Z</time>
      </trkpt>
      <trkpt lat="43.65542" lon="5.73813">
        <ele>338.79998779297</ele>
        <time>2013-05-04T09:14:55.000Z</time>
      </trkpt>
      <trkpt lat="43.65541" lon="5.73813">
        <ele>338.79998779297</ele>
        <time>2013-05-04T09:14:56.000Z</time>
      </trkpt>
      <trkpt lat="43.65538" lon="5.73812">
        <ele>338.79998779297</ele>
        <time>2013-05-04T09:15:08.000Z</time>
      </trkpt>
      <trkpt lat="43.65536" lon="5.73812">
        <ele>338.79998779297</ele>
        <time>2013-05-04T09:15:33.000Z</time>
      </trkpt>
      <trkpt lat="43.65538" lon="5.73813">
        <ele>338.79998779297</ele>
        <time>2013-05-04T09:15:56.000Z</time>
      </trkpt>
      <trkpt lat="43.65538" lon="5.73812">
        <ele>338.79998779297</ele>
        <time>2013-05-04T09:16:11.000Z</time>
      </trkpt>
      <trkpt lat="43.65535" lon="5.73812">
        <ele>338.79998779297</ele>
        <time>2013-05-04T09:16:26.000Z</time>
      </trkpt>
      <trkpt lat="43.65516" lon="5.73816">
        <ele>338.79998779297</ele>
        <time>2013-05-04T09:16:34.000Z</time>
      </trkpt>
      <trkpt lat="43.65482" lon="5.73821">
        <ele>339</ele>
        <time>2013-05-04T09:16:45.000Z</time>
      </trkpt>
      <trkpt lat="43.65455" lon="5.73833">
        <ele>338.39999389648</ele>
        <time>2013-05-04T09:16:55.000Z</time>
      </trkpt>
      <trkpt lat="43.65417" lon="5.73837">
        <ele>339.39999389648</ele>
        <time>2013-05-04T09:17:07.000Z</time>
      </trkpt>
      <trkpt lat="43.65384" lon="5.73837">
        <ele>340.60000610352</ele>
        <time>2013-05-04T09:17:19.000Z</time>
      </trkpt>
      <trkpt lat="43.65355" lon="5.73858">
        <ele>343.60000610352</ele>
        <time>2013-05-04T09:17:30.000Z</time>
      </trkpt>
      <trkpt lat="43.65324" lon="5.73882">
        <ele>346.39999389648</ele>
        <time>2013-05-04T09:17:42.000Z</time>
      </trkpt>
      <trkpt lat="43.65303" lon="5.73912">
        <ele>348.39999389648</ele>
        <time>2013-05-04T09:17:52.000Z</time>
      </trkpt>
      <trkpt lat="43.65286" lon="5.73951">
        <ele>352.20001220703</ele>
        <time>2013-05-04T09:18:04.000Z</time>
      </trkpt>
      <trkpt lat="43.65263" lon="5.73961">
        <ele>351.60000610352</ele>
        <time>2013-05-04T09:18:14.000Z</time>
      </trkpt>
      <trkpt lat="43.65237" lon="5.73959">
        <ele>350.79998779297</ele>
        <time>2013-05-04T09:18:25.000Z</time>
      </trkpt>
      <trkpt lat="43.65217" lon="5.73968">
        <ele>352</ele>
        <time>2013-05-04T09:18:35.000Z</time>
      </trkpt>
      <trkpt lat="43.65199" lon="5.73988">
        <ele>354</ele>
        <time>2013-05-04T09:18:43.000Z</time>
      </trkpt>
      <trkpt lat="43.65187" lon="5.74009">
        <ele>357</ele>
        <time>2013-05-04T09:18:48.000Z</time>
      </trkpt>
      <trkpt lat="43.65181" lon="5.74022">
        <ele>360</ele>
        <time>2013-05-04T09:18:52.000Z</time>
      </trkpt>
      <trkpt lat="43.65177" lon="5.74027">
        <ele>361</ele>
        <time>2013-05-04T09:18:55.000Z</time>
      </trkpt>
      <trkpt lat="43.65164" lon="5.74035">
        <ele>363.20001220703</ele>
        <time>2013-05-04T09:19:05.000Z</time>
      </trkpt>
      <trkpt lat="43.65155" lon="5.74037">
        <ele>364</ele>
        <time>2013-05-04T09:19:12.000Z</time>
      </trkpt>
      <trkpt lat="43.65153" lon="5.74039">
        <ele>364.39999389648</ele>
        <time>2013-05-04T09:19:13.000Z</time>
      </trkpt>
      <trkpt lat="43.65152" lon="5.7404">
        <ele>364.60000610352</ele>
        <time>2013-05-04T09:19:14.000Z</time>
      </trkpt>
      <trkpt lat="43.65151" lon="5.7404">
        <ele>364.79998779297</ele>
        <time>2013-05-04T09:19:15.000Z</time>
      </trkpt>
      <trkpt lat="43.6515" lon="5.7404">
        <ele>364.79998779297</ele>
        <time>2013-05-04T09:19:16.000Z</time>
      </trkpt>
      <trkpt lat="43.65147" lon="5.74041">
        <ele>365</ele>
        <time>2013-05-04T09:19:18.000Z</time>
      </trkpt>
      <trkpt lat="43.65136" lon="5.74047">
        <ele>366.60000610352</ele>
        <time>2013-05-04T09:19:27.000Z</time>
      </trkpt>
      <trkpt lat="43.65125" lon="5.74058">
        <ele>369</ele>
        <time>2013-05-04T09:19:36.000Z</time>
      </trkpt>
      <trkpt lat="43.6511" lon="5.74078">
        <ele>372.60000610352</ele>
        <time>2013-05-04T09:19:48.000Z</time>
      </trkpt>
      <trkpt lat="43.65099" lon="5.74105">
        <ele>377.60000610352</ele>
        <time>2013-05-04T09:20:00.000Z</time>
      </trkpt>
      <trkpt lat="43.6509" lon="5.74124">
        <ele>381.20001220703</ele>
        <time>2013-05-04T09:20:09.000Z</time>
      </trkpt>
      <trkpt lat="43.65079" lon="5.74143">
        <ele>385</ele>
        <time>2013-05-04T09:20:19.000Z</time>
      </trkpt>
      <trkpt lat="43.65062" lon="5.74168">
        <ele>390</ele>
        <time>2013-05-04T09:20:31.000Z</time>
      </trkpt>
      <trkpt lat="43.65056" lon="5.74194">
        <ele>394</ele>
        <time>2013-05-04T09:20:42.000Z</time>
      </trkpt>
      <trkpt lat="43.65047" lon="5.74223">
        <ele>398</ele>
        <time>2013-05-04T09:20:52.000Z</time>
      </trkpt>
      <trkpt lat="43.6504" lon="5.74243">
        <ele>400.60000610352</ele>
        <time>2013-05-04T09:21:00.000Z</time>
      </trkpt>
      <trkpt lat="43.65024" lon="5.74255">
        <ele>400.79998779297</ele>
        <time>2013-05-04T09:21:09.000Z</time>
      </trkpt>
      <trkpt lat="43.64991" lon="5.74261">
        <ele>400.20001220703</ele>
        <time>2013-05-04T09:21:20.000Z</time>
      </trkpt>
      <trkpt lat="43.64953" lon="5.74266">
        <ele>401.20001220703</ele>
        <time>2013-05-04T09:21:32.000Z</time>
      </trkpt>
      <trkpt lat="43.64929" lon="5.74271">
        <ele>401.60000610352</ele>
        <time>2013-05-04T09:21:39.000Z</time>
      </trkpt>
      <trkpt lat="43.64888" lon="5.74273">
        <ele>402.39999389648</ele>
        <time>2013-05-04T09:21:50.000Z</time>
      </trkpt>
      <trkpt lat="43.6484" lon="5.74283">
        <ele>403</ele>
        <time>2013-05-04T09:22:04.000Z</time>
      </trkpt>
      <trkpt lat="43.64785" lon="5.74287">
        <ele>407.39999389648</ele>
        <time>2013-05-04T09:22:17.000Z</time>
      </trkpt>
      <trkpt lat="43.6478" lon="5.74288">
        <ele>407.79998779297</ele>
        <time>2013-05-04T09:22:18.000Z</time>
      </trkpt>
      <trkpt lat="43.64753" lon="5.74296">
        <ele>410</ele>
        <time>2013-05-04T09:22:24.000Z</time>
      </trkpt>
      <trkpt lat="43.64748" lon="5.74297">
        <ele>410.20001220703</ele>
        <time>2013-05-04T09:22:25.000Z</time>
      </trkpt>
      <trkpt lat="43.64744" lon="5.74298">
        <ele>410.39999389648</ele>
        <time>2013-05-04T09:22:26.000Z</time>
      </trkpt>
      <trkpt lat="43.64711" lon="5.74304">
        <ele>412</ele>
        <time>2013-05-04T09:22:36.000Z</time>
      </trkpt>
      <trkpt lat="43.64679" lon="5.74309">
        <ele>413.79998779297</ele>
        <time>2013-05-04T09:22:47.000Z</time>
      </trkpt>
      <trkpt lat="43.64648" lon="5.7431">
        <ele>414.79998779297</ele>
        <time>2013-05-04T09:22:57.000Z</time>
      </trkpt>
      <trkpt lat="43.64608" lon="5.7431">
        <ele>414.79998779297</ele>
        <time>2013-05-04T09:23:09.000Z</time>
      </trkpt>
      <trkpt lat="43.64566" lon="5.74312">
        <ele>416</ele>
        <time>2013-05-04T09:23:21.000Z</time>
      </trkpt>
      <trkpt lat="43.64523" lon="5.74314">
        <ele>418.60000610352</ele>
        <time>2013-05-04T09:23:33.000Z</time>
      </trkpt>
      <trkpt lat="43.64487" lon="5.74313">
        <ele>420.39999389648</ele>
        <time>2013-05-04T09:23:43.000Z</time>
      </trkpt>
      <trkpt lat="43.64464" lon="5.74313">
        <ele>421.20001220703</ele>
        <time>2013-05-04T09:23:49.000Z</time>
      </trkpt>
      <trkpt lat="43.64459" lon="5.74314">
        <ele>421.20001220703</ele>
        <time>2013-05-04T09:23:50.000Z</time>
      </trkpt>
      <trkpt lat="43.64417" lon="5.74316">
        <ele>422.60000610352</ele>
        <time>2013-05-04T09:24:00.000Z</time>
      </trkpt>
      <trkpt lat="43.64389" lon="5.74319">
        <ele>423.20001220703</ele>
        <time>2013-05-04T09:24:08.000Z</time>
      </trkpt>
      <trkpt lat="43.64343" lon="5.74323">
        <ele>424</ele>
        <time>2013-05-04T09:24:21.000Z</time>
      </trkpt>
      <trkpt lat="43.643" lon="5.7432">
        <ele>424.60000610352</ele>
        <time>2013-05-04T09:24:34.000Z</time>
      </trkpt>
      <trkpt lat="43.64267" lon="5.74322">
        <ele>425</ele>
        <time>2013-05-04T09:24:45.000Z</time>
      </trkpt>
      <trkpt lat="43.64235" lon="5.74322">
        <ele>424.39999389648</ele>
        <time>2013-05-04T09:24:55.000Z</time>
      </trkpt>
      <trkpt lat="43.64183" lon="5.74323">
        <ele>422</ele>
        <time>2013-05-04T09:25:05.000Z</time>
      </trkpt>
      <trkpt lat="43.64133" lon="5.74328">
        <ele>418.60000610352</ele>
        <time>2013-05-04T09:25:15.000Z</time>
      </trkpt>
      <trkpt lat="43.64096" lon="5.7433">
        <ele>416</ele>
        <time>2013-05-04T09:25:21.000Z</time>
      </trkpt>
      <trkpt lat="43.64024" lon="5.74333">
        <ele>415.60000610352</ele>
        <time>2013-05-04T09:25:33.000Z</time>
      </trkpt>
      <trkpt lat="43.63966" lon="5.74335">
        <ele>418.20001220703</ele>
        <time>2013-05-04T09:25:46.000Z</time>
      </trkpt>
      <trkpt lat="43.63928" lon="5.74338">
        <ele>420.79998779297</ele>
        <time>2013-05-04T09:25:57.000Z</time>
      </trkpt>
      <trkpt lat="43.6391" lon="5.74337">
        <ele>421.20001220703</ele>
        <time>2013-05-04T09:26:04.000Z</time>
      </trkpt>
      <trkpt lat="43.63909" lon="5.74335">
        <ele>421.20001220703</ele>
        <time>2013-05-04T09:26:05.000Z</time>
      </trkpt>
      <trkpt lat="43.63909" lon="5.74333">
        <ele>421.20001220703</ele>
        <time>2013-05-04T09:26:06.000Z</time>
      </trkpt>
      <trkpt lat="43.63909" lon="5.7433">
        <ele>421.20001220703</ele>
        <time>2013-05-04T09:26:15.000Z</time>
      </trkpt>
      <trkpt lat="43.63909" lon="5.74329">
        <ele>421.20001220703</ele>
        <time>2013-05-04T09:26:32.000Z</time>
      </trkpt>
      <trkpt lat="43.63908" lon="5.74331">
        <ele>421.20001220703</ele>
        <time>2013-05-04T09:26:50.000Z</time>
      </trkpt>
      <trkpt lat="43.63909" lon="5.74333">
        <ele>421.20001220703</ele>
        <time>2013-05-04T09:27:12.000Z</time>
      </trkpt>
      <trkpt lat="43.63909" lon="5.74335">
        <ele>421.20001220703</ele>
        <time>2013-05-04T09:27:35.000Z</time>
      </trkpt>
      <trkpt lat="43.63909" lon="5.74333">
        <ele>421.20001220703</ele>
        <time>2013-05-04T09:27:55.000Z</time>
      </trkpt>
      <trkpt lat="43.6391" lon="5.74326">
        <ele>421.39999389648</ele>
        <time>2013-05-04T09:28:19.000Z</time>
      </trkpt>
      <trkpt lat="43.6391" lon="5.74324">
        <ele>421.39999389648</ele>
        <time>2013-05-04T09:28:20.000Z</time>
      </trkpt>
      <trkpt lat="43.6391" lon="5.74321">
        <ele>421.39999389648</ele>
        <time>2013-05-04T09:28:21.000Z</time>
      </trkpt>
      <trkpt lat="43.63911" lon="5.74319">
        <ele>421.60000610352</ele>
        <time>2013-05-04T09:28:22.000Z</time>
      </trkpt>
      <trkpt lat="43.63919" lon="5.74288">
        <ele>422.20001220703</ele>
        <time>2013-05-04T09:28:33.000Z</time>
      </trkpt>
      <trkpt lat="43.63935" lon="5.74241">
        <ele>422.39999389648</ele>
        <time>2013-05-04T09:28:45.000Z</time>
      </trkpt>
      <trkpt lat="43.63954" lon="5.74187">
        <ele>423.60000610352</ele>
        <time>2013-05-04T09:28:57.000Z</time>
      </trkpt>
      <trkpt lat="43.63957" lon="5.74145">
        <ele>425.20001220703</ele>
        <time>2013-05-04T09:29:06.000Z</time>
      </trkpt>
      <trkpt lat="43.63953" lon="5.74107">
        <ele>426.60000610352</ele>
        <time>2013-05-04T09:29:15.000Z</time>
      </trkpt>
      <trkpt lat="43.63961" lon="5.74069">
        <ele>428.39999389648</ele>
        <time>2013-05-04T09:29:24.000Z</time>
      </trkpt>
      <trkpt lat="43.63975" lon="5.74029">
        <ele>431.20001220703</ele>
        <time>2013-05-04T09:29:34.000Z</time>
      </trkpt>
      <trkpt lat="43.63988" lon="5.7398">
        <ele>434.60000610352</ele>
        <time>2013-05-04T09:29:46.000Z</time>
      </trkpt>
      <trkpt lat="43.63996" lon="5.73932">
        <ele>437.60000610352</ele>
        <time>2013-05-04T09:29:58.000Z</time>
      </trkpt>
      <trkpt lat="43.63996" lon="5.73891">
        <ele>440</ele>
        <time>2013-05-04T09:30:09.000Z</time>
      </trkpt>
      <trkpt lat="43.63998" lon="5.73853">
        <ele>442.39999389648</ele>
        <time>2013-05-04T09:30:19.000Z</time>
      </trkpt>
      <trkpt lat="43.64003" lon="5.73815">
        <ele>444.60000610352</ele>
        <time>2013-05-04T09:30:30.000Z</time>
      </trkpt>
      <trkpt lat="43.64012" lon="5.73775">
        <ele>445.60000610352</ele>
        <time>2013-05-04T09:30:41.000Z</time>
      </trkpt>
      <trkpt lat="43.64021" lon="5.73745">
        <ele>446</ele>
        <time>2013-05-04T09:30:50.000Z</time>
      </trkpt>
      <trkpt lat="43.64033" lon="5.73725">
        <ele>445.79998779297</ele>
        <time>2013-05-04T09:30:59.000Z</time>
      </trkpt>
      <trkpt lat="43.6405" lon="5.73698">
        <ele>444.79998779297</ele>
        <time>2013-05-04T09:31:10.000Z</time>
      </trkpt>
      <trkpt lat="43.64056" lon="5.73651">
        <ele>444.60000610352</ele>
        <time>2013-05-04T09:31:23.000Z</time>
      </trkpt>
      <trkpt lat="43.6406" lon="5.73594">
        <ele>442.79998779297</ele>
        <time>2013-05-04T09:31:34.000Z</time>
      </trkpt>
      <trkpt lat="43.64062" lon="5.73557">
        <ele>441.60000610352</ele>
        <time>2013-05-04T09:31:39.000Z</time>
      </trkpt>
      <trkpt lat="43.64063" lon="5.73548">
        <ele>441.20001220703</ele>
        <time>2013-05-04T09:31:40.000Z</time>
      </trkpt>
      <trkpt lat="43.64064" lon="5.7354">
        <ele>440.79998779297</ele>
        <time>2013-05-04T09:31:41.000Z</time>
      </trkpt>
      <trkpt lat="43.64066" lon="5.73521">
        <ele>440</ele>
        <time>2013-05-04T09:31:43.000Z</time>
      </trkpt>
      <trkpt lat="43.64069" lon="5.73482">
        <ele>439.60000610352</ele>
        <time>2013-05-04T09:31:48.000Z</time>
      </trkpt>
      <trkpt lat="43.64078" lon="5.73425">
        <ele>440.39999389648</ele>
        <time>2013-05-04T09:31:57.000Z</time>
      </trkpt>
      <trkpt lat="43.6408" lon="5.73419">
        <ele>440.20001220703</ele>
        <time>2013-05-04T09:31:58.000Z</time>
      </trkpt>
      <trkpt lat="43.64084" lon="5.73414">
        <ele>440.20001220703</ele>
        <time>2013-05-04T09:31:59.000Z</time>
      </trkpt>
      <trkpt lat="43.64096" lon="5.73397">
        <ele>442.79998779297</ele>
        <time>2013-05-04T09:32:03.000Z</time>
      </trkpt>
      <trkpt lat="43.64098" lon="5.73392">
        <ele>443.39999389648</ele>
        <time>2013-05-04T09:32:04.000Z</time>
      </trkpt>
      <trkpt lat="43.641" lon="5.73386">
        <ele>444</ele>
        <time>2013-05-04T09:32:05.000Z</time>
      </trkpt>
      <trkpt lat="43.64101" lon="5.73381">
        <ele>444.60000610352</ele>
        <time>2013-05-04T09:32:06.000Z</time>
      </trkpt>
      <trkpt lat="43.64102" lon="5.73374">
        <ele>445.20001220703</ele>
        <time>2013-05-04T09:32:07.000Z</time>
      </trkpt>
      <trkpt lat="43.64102" lon="5.73368">
        <ele>445.60000610352</ele>
        <time>2013-05-04T09:32:08.000Z</time>
      </trkpt>
      <trkpt lat="43.64102" lon="5.73362">
        <ele>446.20001220703</ele>
        <time>2013-05-04T09:32:09.000Z</time>
      </trkpt>
      <trkpt lat="43.64102" lon="5.73343">
        <ele>447.79998779297</ele>
        <time>2013-05-04T09:32:12.000Z</time>
      </trkpt>
      <trkpt lat="43.64099" lon="5.73324">
        <ele>448.79998779297</ele>
        <time>2013-05-04T09:32:15.000Z</time>
      </trkpt>
      <trkpt lat="43.641" lon="5.73318">
        <ele>448.79998779297</ele>
        <time>2013-05-04T09:32:16.000Z</time>
      </trkpt>
      <trkpt lat="43.64101" lon="5.733">
        <ele>449.39999389648</ele>
        <time>2013-05-04T09:32:19.000Z</time>
      </trkpt>
      <trkpt lat="43.64101" lon="5.73294">
        <ele>449.39999389648</ele>
        <time>2013-05-04T09:32:20.000Z</time>
      </trkpt>
      <trkpt lat="43.64102" lon="5.73288">
        <ele>449.60000610352</ele>
        <time>2013-05-04T09:32:21.000Z</time>
      </trkpt>
      <trkpt lat="43.64103" lon="5.73283">
        <ele>449.79998779297</ele>
        <time>2013-05-04T09:32:22.000Z</time>
      </trkpt>
      <trkpt lat="43.64105" lon="5.73278">
        <ele>449.79998779297</ele>
        <time>2013-05-04T09:32:23.000Z</time>
      </trkpt>
      <trkpt lat="43.64107" lon="5.73273">
        <ele>450</ele>
        <time>2013-05-04T09:32:24.000Z</time>
      </trkpt>
      <trkpt lat="43.64111" lon="5.73263">
        <ele>450</ele>
        <time>2013-05-04T09:32:26.000Z</time>
      </trkpt>
      <trkpt lat="43.64138" lon="5.73206">
        <ele>450.60000610352</ele>
        <time>2013-05-04T09:32:38.000Z</time>
      </trkpt>
      <trkpt lat="43.64163" lon="5.73165">
        <ele>449.39999389648</ele>
        <time>2013-05-04T09:32:48.000Z</time>
      </trkpt>
      <trkpt lat="43.64185" lon="5.73128">
        <ele>454.60000610352</ele>
        <time>2013-05-04T09:33:00.000Z</time>
      </trkpt>
      <trkpt lat="43.64196" lon="5.73101">
        <ele>457.20001220703</ele>
        <time>2013-05-04T09:33:06.000Z</time>
      </trkpt>
      <trkpt lat="43.64197" lon="5.73095">
        <ele>457.60000610352</ele>
        <time>2013-05-04T09:33:07.000Z</time>
      </trkpt>
      <trkpt lat="43.64207" lon="5.73058">
        <ele>459.20001220703</ele>
        <time>2013-05-04T09:33:16.000Z</time>
      </trkpt>
      <trkpt lat="43.64206" lon="5.73056">
        <ele>459.20001220703</ele>
        <time>2013-05-04T09:33:24.000Z</time>
      </trkpt>
      <trkpt lat="43.64207" lon="5.73054">
        <ele>459.20001220703</ele>
        <time>2013-05-04T09:33:44.000Z</time>
      </trkpt>
      <trkpt lat="43.64207" lon="5.73055">
        <ele>459.20001220703</ele>
        <time>2013-05-04T09:34:03.000Z</time>
      </trkpt>
      <trkpt lat="43.64209" lon="5.73053">
        <ele>459.20001220703</ele>
        <time>2013-05-04T09:34:21.000Z</time>
      </trkpt>
      <trkpt lat="43.64208" lon="5.73055">
        <ele>459.20001220703</ele>
        <time>2013-05-04T09:34:45.000Z</time>
      </trkpt>
      <trkpt lat="43.64209" lon="5.73056">
        <ele>459.20001220703</ele>
        <time>2013-05-04T09:35:04.000Z</time>
      </trkpt>
      <trkpt lat="43.64206" lon="5.73052">
        <ele>459.20001220703</ele>
        <time>2013-05-04T09:35:23.000Z</time>
      </trkpt>
      <trkpt lat="43.64202" lon="5.73032">
        <ele>459.39999389648</ele>
        <time>2013-05-04T09:35:31.000Z</time>
      </trkpt>
      <trkpt lat="43.64202" lon="5.7302">
        <ele>459.60000610352</ele>
        <time>2013-05-04T09:35:41.000Z</time>
      </trkpt>
      <trkpt lat="43.642" lon="5.73007">
        <ele>460</ele>
        <time>2013-05-04T09:35:50.000Z</time>
      </trkpt>
      <trkpt lat="43.64201" lon="5.73005">
        <ele>460</ele>
        <time>2013-05-04T09:35:51.000Z</time>
      </trkpt>
      <trkpt lat="43.64202" lon="5.73002">
        <ele>460</ele>
        <time>2013-05-04T09:35:52.000Z</time>
      </trkpt>
      <trkpt lat="43.64214" lon="5.72985">
        <ele>460.20001220703</ele>
        <time>2013-05-04T09:35:58.000Z</time>
      </trkpt>
      <trkpt lat="43.64214" lon="5.7298">
        <ele>460.39999389648</ele>
        <time>2013-05-04T09:35:59.000Z</time>
      </trkpt>
      <trkpt lat="43.64214" lon="5.72976">
        <ele>460.60000610352</ele>
        <time>2013-05-04T09:36:00.000Z</time>
      </trkpt>
      <trkpt lat="43.64213" lon="5.72971">
        <ele>460.79998779297</ele>
        <time>2013-05-04T09:36:01.000Z</time>
      </trkpt>
      <trkpt lat="43.64212" lon="5.72967">
        <ele>461</ele>
        <time>2013-05-04T09:36:02.000Z</time>
      </trkpt>
      <trkpt lat="43.64216" lon="5.72939">
        <ele>461.79998779297</ele>
        <time>2013-05-04T09:36:08.000Z</time>
      </trkpt>
      <trkpt lat="43.64224" lon="5.72908">
        <ele>462.60000610352</ele>
        <time>2013-05-04T09:36:15.000Z</time>
      </trkpt>
      <trkpt lat="43.64225" lon="5.72905">
        <ele>462.60000610352</ele>
        <time>2013-05-04T09:36:16.000Z</time>
      </trkpt>
      <trkpt lat="43.64228" lon="5.72903">
        <ele>462.60000610352</ele>
        <time>2013-05-04T09:36:17.000Z</time>
      </trkpt>
      <trkpt lat="43.64237" lon="5.72894">
        <ele>462.39999389648</ele>
        <time>2013-05-04T09:36:22.000Z</time>
      </trkpt>
      <trkpt lat="43.64236" lon="5.72887">
        <ele>462.79998779297</ele>
        <time>2013-05-04T09:36:24.000Z</time>
      </trkpt>
      <trkpt lat="43.64235" lon="5.72868">
        <ele>463.60000610352</ele>
        <time>2013-05-04T09:36:30.000Z</time>
      </trkpt>
      <trkpt lat="43.64229" lon="5.72858">
        <ele>464.39999389648</ele>
        <time>2013-05-04T09:36:33.000Z</time>
      </trkpt>
      <trkpt lat="43.6423" lon="5.72854">
        <ele>464.60000610352</ele>
        <time>2013-05-04T09:36:34.000Z</time>
      </trkpt>
      <trkpt lat="43.6423" lon="5.7285">
        <ele>464.60000610352</ele>
        <time>2013-05-04T09:36:35.000Z</time>
      </trkpt>
      <trkpt lat="43.64237" lon="5.7281">
        <ele>466</ele>
        <time>2013-05-04T09:36:44.000Z</time>
      </trkpt>
      <trkpt lat="43.64237" lon="5.72807">
        <ele>466.20001220703</ele>
        <time>2013-05-04T09:36:45.000Z</time>
      </trkpt>
      <trkpt lat="43.64238" lon="5.72803">
        <ele>466.39999389648</ele>
        <time>2013-05-04T09:36:46.000Z</time>
      </trkpt>
      <trkpt lat="43.6424" lon="5.72799">
        <ele>466.39999389648</ele>
        <time>2013-05-04T09:36:47.000Z</time>
      </trkpt>
      <trkpt lat="43.64241" lon="5.72795">
        <ele>466.60000610352</ele>
        <time>2013-05-04T09:36:48.000Z</time>
      </trkpt>
      <trkpt lat="43.64241" lon="5.7279">
        <ele>466.79998779297</ele>
        <time>2013-05-04T09:36:49.000Z</time>
      </trkpt>
      <trkpt lat="43.6424" lon="5.72785">
        <ele>467</ele>
        <time>2013-05-04T09:36:50.000Z</time>
      </trkpt>
      <trkpt lat="43.64239" lon="5.72781">
        <ele>467.39999389648</ele>
        <time>2013-05-04T09:36:51.000Z</time>
      </trkpt>
      <trkpt lat="43.64238" lon="5.72776">
        <ele>467.60000610352</ele>
        <time>2013-05-04T09:36:52.000Z</time>
      </trkpt>
      <trkpt lat="43.64237" lon="5.72772">
        <ele>468</ele>
        <time>2013-05-04T09:36:53.000Z</time>
      </trkpt>
      <trkpt lat="43.64234" lon="5.72743">
        <ele>469.79998779297</ele>
        <time>2013-05-04T09:37:00.000Z</time>
      </trkpt>
      <trkpt lat="43.64236" lon="5.72721">
        <ele>470.79998779297</ele>
        <time>2013-05-04T09:37:05.000Z</time>
      </trkpt>
      <trkpt lat="43.64238" lon="5.72718">
        <ele>470.79998779297</ele>
        <time>2013-05-04T09:37:06.000Z</time>
      </trkpt>
      <trkpt lat="43.6424" lon="5.72715">
        <ele>470.79998779297</ele>
        <time>2013-05-04T09:37:07.000Z</time>
      </trkpt>
      <trkpt lat="43.64244" lon="5.72709">
        <ele>470.60000610352</ele>
        <time>2013-05-04T09:37:09.000Z</time>
      </trkpt>
      <trkpt lat="43.64247" lon="5.72707">
        <ele>470.39999389648</ele>
        <time>2013-05-04T09:37:10.000Z</time>
      </trkpt>
      <trkpt lat="43.6425" lon="5.72707">
        <ele>470</ele>
        <time>2013-05-04T09:37:11.000Z</time>
      </trkpt>
      <trkpt lat="43.64253" lon="5.72705">
        <ele>470.60000610352</ele>
        <time>2013-05-04T09:37:12.000Z</time>
      </trkpt>
      <trkpt lat="43.64256" lon="5.72703">
        <ele>471.20001220703</ele>
        <time>2013-05-04T09:37:13.000Z</time>
      </trkpt>
      <trkpt lat="43.64276" lon="5.72683">
        <ele>474.79998779297</ele>
        <time>2013-05-04T09:37:21.000Z</time>
      </trkpt>
      <trkpt lat="43.64276" lon="5.72679">
        <ele>474.79998779297</ele>
        <time>2013-05-04T09:37:22.000Z</time>
      </trkpt>
      <trkpt lat="43.64276" lon="5.72674">
        <ele>475</ele>
        <time>2013-05-04T09:37:23.000Z</time>
      </trkpt>
      <trkpt lat="43.64276" lon="5.7267">
        <ele>475</ele>
        <time>2013-05-04T09:37:24.000Z</time>
      </trkpt>
      <trkpt lat="43.64277" lon="5.72667">
        <ele>475.20001220703</ele>
        <time>2013-05-04T09:37:25.000Z</time>
      </trkpt>
      <trkpt lat="43.64278" lon="5.72663">
        <ele>475.39999389648</ele>
        <time>2013-05-04T09:37:26.000Z</time>
      </trkpt>
      <trkpt lat="43.6428" lon="5.72661">
        <ele>475.79998779297</ele>
        <time>2013-05-04T09:37:27.000Z</time>
      </trkpt>
      <trkpt lat="43.64283" lon="5.7266">
        <ele>476.20001220703</ele>
        <time>2013-05-04T09:37:28.000Z</time>
      </trkpt>
      <trkpt lat="43.64295" lon="5.72651">
        <ele>477.60000610352</ele>
        <time>2013-05-04T09:37:33.000Z</time>
      </trkpt>
      <trkpt lat="43.64297" lon="5.72649">
        <ele>477.79998779297</ele>
        <time>2013-05-04T09:37:34.000Z</time>
      </trkpt>
      <trkpt lat="43.64299" lon="5.72645">
        <ele>478.20001220703</ele>
        <time>2013-05-04T09:37:35.000Z</time>
      </trkpt>
      <trkpt lat="43.643" lon="5.72641">
        <ele>478.20001220703</ele>
        <time>2013-05-04T09:37:36.000Z</time>
      </trkpt>
      <trkpt lat="43.64302" lon="5.72636">
        <ele>478.39999389648</ele>
        <time>2013-05-04T09:37:37.000Z</time>
      </trkpt>
      <trkpt lat="43.64304" lon="5.72599">
        <ele>478.79998779297</ele>
        <time>2013-05-04T09:37:45.000Z</time>
      </trkpt>
      <trkpt lat="43.64304" lon="5.72595">
        <ele>478.79998779297</ele>
        <time>2013-05-04T09:37:46.000Z</time>
      </trkpt>
      <trkpt lat="43.64304" lon="5.72591">
        <ele>479</ele>
        <time>2013-05-04T09:37:47.000Z</time>
      </trkpt>
      <trkpt lat="43.64305" lon="5.72588">
        <ele>478.79998779297</ele>
        <time>2013-05-04T09:37:48.000Z</time>
      </trkpt>
      <trkpt lat="43.64307" lon="5.72585">
        <ele>478.79998779297</ele>
        <time>2013-05-04T09:37:49.000Z</time>
      </trkpt>
      <trkpt lat="43.64309" lon="5.72574">
        <ele>479.20001220703</ele>
        <time>2013-05-04T09:37:52.000Z</time>
      </trkpt>
      <trkpt lat="43.64309" lon="5.72571">
        <ele>479.39999389648</ele>
        <time>2013-05-04T09:37:53.000Z</time>
      </trkpt>
      <trkpt lat="43.64308" lon="5.72567">
        <ele>479.60000610352</ele>
        <time>2013-05-04T09:37:54.000Z</time>
      </trkpt>
      <trkpt lat="43.64307" lon="5.72563">
        <ele>479.79998779297</ele>
        <time>2013-05-04T09:37:55.000Z</time>
      </trkpt>
      <trkpt lat="43.64307" lon="5.7256">
        <ele>479.79998779297</ele>
        <time>2013-05-04T09:37:56.000Z</time>
      </trkpt>
      <trkpt lat="43.64307" lon="5.72556">
        <ele>480</ele>
        <time>2013-05-04T09:37:57.000Z</time>
      </trkpt>
      <trkpt lat="43.64308" lon="5.72553">
        <ele>480.20001220703</ele>
        <time>2013-05-04T09:37:58.000Z</time>
      </trkpt>
      <trkpt lat="43.64306" lon="5.72511">
        <ele>482</ele>
        <time>2013-05-04T09:38:09.000Z</time>
      </trkpt>
      <trkpt lat="43.6429" lon="5.72491">
        <ele>483.60000610352</ele>
        <time>2013-05-04T09:38:16.000Z</time>
      </trkpt>
      <trkpt lat="43.64285" lon="5.7248">
        <ele>484.39999389648</ele>
        <time>2013-05-04T09:38:19.000Z</time>
      </trkpt>
      <trkpt lat="43.64284" lon="5.7245">
        <ele>486.20001220703</ele>
        <time>2013-05-04T09:38:27.000Z</time>
      </trkpt>
      <trkpt lat="43.6429" lon="5.72422">
        <ele>488</ele>
        <time>2013-05-04T09:38:35.000Z</time>
      </trkpt>
      <trkpt lat="43.64289" lon="5.72415">
        <ele>488.39999389648</ele>
        <time>2013-05-04T09:38:37.000Z</time>
      </trkpt>
      <trkpt lat="43.64287" lon="5.72409">
        <ele>488.79998779297</ele>
        <time>2013-05-04T09:38:39.000Z</time>
      </trkpt>
      <trkpt lat="43.64288" lon="5.72406">
        <ele>488.79998779297</ele>
        <time>2013-05-04T09:38:40.000Z</time>
      </trkpt>
      <trkpt lat="43.64293" lon="5.72374">
        <ele>490.39999389648</ele>
        <time>2013-05-04T09:38:49.000Z</time>
      </trkpt>
      <trkpt lat="43.64301" lon="5.72341">
        <ele>492.20001220703</ele>
        <time>2013-05-04T09:38:58.000Z</time>
      </trkpt>
      <trkpt lat="43.64309" lon="5.72303">
        <ele>494</ele>
        <time>2013-05-04T09:39:07.000Z</time>
      </trkpt>
      <trkpt lat="43.6431" lon="5.72268">
        <ele>495.60000610352</ele>
        <time>2013-05-04T09:39:15.000Z</time>
      </trkpt>
      <trkpt lat="43.64311" lon="5.72237">
        <ele>497.39999389648</ele>
        <time>2013-05-04T09:39:23.000Z</time>
      </trkpt>
      <trkpt lat="43.64309" lon="5.72225">
        <ele>498.20001220703</ele>
        <time>2013-05-04T09:39:27.000Z</time>
      </trkpt>
      <trkpt lat="43.64309" lon="5.72222">
        <ele>498.39999389648</ele>
        <time>2013-05-04T09:39:28.000Z</time>
      </trkpt>
      <trkpt lat="43.64309" lon="5.7222">
        <ele>498.60000610352</ele>
        <time>2013-05-04T09:39:29.000Z</time>
      </trkpt>
      <trkpt lat="43.64308" lon="5.72218">
        <ele>498.60000610352</ele>
        <time>2013-05-04T09:39:30.000Z</time>
      </trkpt>
      <trkpt lat="43.64307" lon="5.72215">
        <ele>498.79998779297</ele>
        <time>2013-05-04T09:39:31.000Z</time>
      </trkpt>
      <trkpt lat="43.64299" lon="5.72204">
        <ele>499.39999389648</ele>
        <time>2013-05-04T09:39:36.000Z</time>
      </trkpt>
      <trkpt lat="43.64298" lon="5.722">
        <ele>499.39999389648</ele>
        <time>2013-05-04T09:39:37.000Z</time>
      </trkpt>
      <trkpt lat="43.64292" lon="5.72186">
        <ele>500</ele>
        <time>2013-05-04T09:39:42.000Z</time>
      </trkpt>
      <trkpt lat="43.64292" lon="5.72183">
        <ele>500.20001220703</ele>
        <time>2013-05-04T09:39:43.000Z</time>
      </trkpt>
      <trkpt lat="43.64291" lon="5.72181">
        <ele>500.20001220703</ele>
        <time>2013-05-04T09:39:44.000Z</time>
      </trkpt>
      <trkpt lat="43.6429" lon="5.72179">
        <ele>500.20001220703</ele>
        <time>2013-05-04T09:39:45.000Z</time>
      </trkpt>
      <trkpt lat="43.64289" lon="5.72177">
        <ele>500.20001220703</ele>
        <time>2013-05-04T09:39:46.000Z</time>
      </trkpt>
      <trkpt lat="43.64275" lon="5.72148">
        <ele>501.60000610352</ele>
        <time>2013-05-04T09:39:57.000Z</time>
      </trkpt>
      <trkpt lat="43.64272" lon="5.72133">
        <ele>502.79998779297</ele>
        <time>2013-05-04T09:40:02.000Z</time>
      </trkpt>
      <trkpt lat="43.64271" lon="5.72131">
        <ele>502.79998779297</ele>
        <time>2013-05-04T09:40:03.000Z</time>
      </trkpt>
      <trkpt lat="43.64269" lon="5.72129">
        <ele>502.79998779297</ele>
        <time>2013-05-04T09:40:04.000Z</time>
      </trkpt>
      <trkpt lat="43.64268" lon="5.72127">
        <ele>502.79998779297</ele>
        <time>2013-05-04T09:40:05.000Z</time>
      </trkpt>
      <trkpt lat="43.64267" lon="5.72124">
        <ele>502.79998779297</ele>
        <time>2013-05-04T09:40:06.000Z</time>
      </trkpt>
      <trkpt lat="43.64267" lon="5.72121">
        <ele>503.20001220703</ele>
        <time>2013-05-04T09:40:07.000Z</time>
      </trkpt>
      <trkpt lat="43.64267" lon="5.72118">
        <ele>503.39999389648</ele>
        <time>2013-05-04T09:40:08.000Z</time>
      </trkpt>
      <trkpt lat="43.64267" lon="5.72115">
        <ele>503.60000610352</ele>
        <time>2013-05-04T09:40:09.000Z</time>
      </trkpt>
      <trkpt lat="43.64267" lon="5.72112">
        <ele>503.79998779297</ele>
        <time>2013-05-04T09:40:10.000Z</time>
      </trkpt>
      <trkpt lat="43.64267" lon="5.72109">
        <ele>504.20001220703</ele>
        <time>2013-05-04T09:40:11.000Z</time>
      </trkpt>
      <trkpt lat="43.64267" lon="5.72106">
        <ele>504.39999389648</ele>
        <time>2013-05-04T09:40:12.000Z</time>
      </trkpt>
      <trkpt lat="43.64267" lon="5.72103">
        <ele>504.60000610352</ele>
        <time>2013-05-04T09:40:13.000Z</time>
      </trkpt>
      <trkpt lat="43.64266" lon="5.72098">
        <ele>505</ele>
        <time>2013-05-04T09:40:15.000Z</time>
      </trkpt>
      <trkpt lat="43.64265" lon="5.72095">
        <ele>505</ele>
        <time>2013-05-04T09:40:16.000Z</time>
      </trkpt>
      <trkpt lat="43.64264" lon="5.72093">
        <ele>505</ele>
        <time>2013-05-04T09:40:17.000Z</time>
      </trkpt>
      <trkpt lat="43.64263" lon="5.7209">
        <ele>505</ele>
        <time>2013-05-04T09:40:18.000Z</time>
      </trkpt>
      <trkpt lat="43.64262" lon="5.72088">
        <ele>505</ele>
        <time>2013-05-04T09:40:19.000Z</time>
      </trkpt>
      <trkpt lat="43.64262" lon="5.72086">
        <ele>505.20001220703</ele>
        <time>2013-05-04T09:40:20.000Z</time>
      </trkpt>
      <trkpt lat="43.64262" lon="5.72083">
        <ele>505.20001220703</ele>
        <time>2013-05-04T09:40:21.000Z</time>
      </trkpt>
      <trkpt lat="43.64262" lon="5.72081">
        <ele>505.60000610352</ele>
        <time>2013-05-04T09:40:22.000Z</time>
      </trkpt>
      <trkpt lat="43.64264" lon="5.7208">
        <ele>506</ele>
        <time>2013-05-04T09:40:23.000Z</time>
      </trkpt>
      <trkpt lat="43.64265" lon="5.72078">
        <ele>506.39999389648</ele>
        <time>2013-05-04T09:40:24.000Z</time>
      </trkpt>
      <trkpt lat="43.64267" lon="5.72077">
        <ele>507</ele>
        <time>2013-05-04T09:40:25.000Z</time>
      </trkpt>
      <trkpt lat="43.64269" lon="5.72075">
        <ele>507.39999389648</ele>
        <time>2013-05-04T09:40:26.000Z</time>
      </trkpt>
      <trkpt lat="43.64269" lon="5.72072">
        <ele>507.79998779297</ele>
        <time>2013-05-04T09:40:27.000Z</time>
      </trkpt>
      <trkpt lat="43.64269" lon="5.72069">
        <ele>508</ele>
        <time>2013-05-04T09:40:28.000Z</time>
      </trkpt>
      <trkpt lat="43.64269" lon="5.72066">
        <ele>508.20001220703</ele>
        <time>2013-05-04T09:40:29.000Z</time>
      </trkpt>
      <trkpt lat="43.64264" lon="5.72041">
        <ele>509.20001220703</ele>
        <time>2013-05-04T09:40:38.000Z</time>
      </trkpt>
      <trkpt lat="43.6426" lon="5.72028">
        <ele>509.20001220703</ele>
        <time>2013-05-04T09:40:43.000Z</time>
      </trkpt>
      <trkpt lat="43.64258" lon="5.72026">
        <ele>509</ele>
        <time>2013-05-04T09:40:44.000Z</time>
      </trkpt>
      <trkpt lat="43.64256" lon="5.72024">
        <ele>508.60000610352</ele>
        <time>2013-05-04T09:40:45.000Z</time>
      </trkpt>
      <trkpt lat="43.64242" lon="5.72003">
        <ele>509.79998779297</ele>
        <time>2013-05-04T09:40:54.000Z</time>
      </trkpt>
      <trkpt lat="43.64242" lon="5.72">
        <ele>510</ele>
        <time>2013-05-04T09:40:55.000Z</time>
      </trkpt>
      <trkpt lat="43.64242" lon="5.71997">
        <ele>510.39999389648</ele>
        <time>2013-05-04T09:40:56.000Z</time>
      </trkpt>
      <trkpt lat="43.64242" lon="5.71994">
        <ele>510.79998779297</ele>
        <time>2013-05-04T09:40:57.000Z</time>
      </trkpt>
      <trkpt lat="43.64241" lon="5.71991">
        <ele>511.20001220703</ele>
        <time>2013-05-04T09:40:58.000Z</time>
      </trkpt>
      <trkpt lat="43.64239" lon="5.71989">
        <ele>511.79998779297</ele>
        <time>2013-05-04T09:40:59.000Z</time>
      </trkpt>
      <trkpt lat="43.64227" lon="5.71965">
        <ele>515.59997558594</ele>
        <time>2013-05-04T09:41:09.000Z</time>
      </trkpt>
      <trkpt lat="43.64218" lon="5.71948">
        <ele>517.79998779297</ele>
        <time>2013-05-04T09:41:18.000Z</time>
      </trkpt>
      <trkpt lat="43.64218" lon="5.71945">
        <ele>518</ele>
        <time>2013-05-04T09:41:19.000Z</time>
      </trkpt>
      <trkpt lat="43.64213" lon="5.71931">
        <ele>519.40002441406</ele>
        <time>2013-05-04T09:41:25.000Z</time>
      </trkpt>
      <trkpt lat="43.64212" lon="5.71928">
        <ele>519.59997558594</ele>
        <time>2013-05-04T09:41:26.000Z</time>
      </trkpt>
      <trkpt lat="43.64211" lon="5.71926">
        <ele>519.79998779297</ele>
        <time>2013-05-04T09:41:27.000Z</time>
      </trkpt>
      <trkpt lat="43.64204" lon="5.71916">
        <ele>520.40002441406</ele>
        <time>2013-05-04T09:41:33.000Z</time>
      </trkpt>
      <trkpt lat="43.64205" lon="5.71914">
        <ele>520.79998779297</ele>
        <time>2013-05-04T09:41:34.000Z</time>
      </trkpt>
      <trkpt lat="43.64205" lon="5.71911">
        <ele>521</ele>
        <time>2013-05-04T09:41:35.000Z</time>
      </trkpt>
      <trkpt lat="43.64206" lon="5.71908">
        <ele>521.59997558594</ele>
        <time>2013-05-04T09:41:36.000Z</time>
      </trkpt>
      <trkpt lat="43.64206" lon="5.71904">
        <ele>522</ele>
        <time>2013-05-04T09:41:37.000Z</time>
      </trkpt>
      <trkpt lat="43.64204" lon="5.71902">
        <ele>522.40002441406</ele>
        <time>2013-05-04T09:41:38.000Z</time>
      </trkpt>
      <trkpt lat="43.64203" lon="5.71899">
        <ele>522.59997558594</ele>
        <time>2013-05-04T09:41:39.000Z</time>
      </trkpt>
      <trkpt lat="43.64201" lon="5.71898">
        <ele>522.59997558594</ele>
        <time>2013-05-04T09:41:40.000Z</time>
      </trkpt>
      <trkpt lat="43.642" lon="5.71896">
        <ele>522.79998779297</ele>
        <time>2013-05-04T09:41:41.000Z</time>
      </trkpt>
      <trkpt lat="43.64198" lon="5.71895">
        <ele>522.79998779297</ele>
        <time>2013-05-04T09:41:42.000Z</time>
      </trkpt>
      <trkpt lat="43.64183" lon="5.7187">
        <ele>524</ele>
        <time>2013-05-04T09:41:53.000Z</time>
      </trkpt>
      <trkpt lat="43.6418" lon="5.71857">
        <ele>524.59997558594</ele>
        <time>2013-05-04T09:42:01.000Z</time>
      </trkpt>
      <trkpt lat="43.64178" lon="5.71855">
        <ele>524.40002441406</ele>
        <time>2013-05-04T09:42:02.000Z</time>
      </trkpt>
      <trkpt lat="43.64176" lon="5.71854">
        <ele>524.40002441406</ele>
        <time>2013-05-04T09:42:03.000Z</time>
      </trkpt>
      <trkpt lat="43.64172" lon="5.71848">
        <ele>524.20001220703</ele>
        <time>2013-05-04T09:42:09.000Z</time>
      </trkpt>
      <trkpt lat="43.64173" lon="5.71839">
        <ele>524.79998779297</ele>
        <time>2013-05-04T09:42:16.000Z</time>
      </trkpt>
      <trkpt lat="43.6417" lon="5.71828">
        <ele>525.20001220703</ele>
        <time>2013-05-04T09:42:21.000Z</time>
      </trkpt>
      <trkpt lat="43.64153" lon="5.71808">
        <ele>527.20001220703</ele>
        <time>2013-05-04T09:42:32.000Z</time>
      </trkpt>
      <trkpt lat="43.64149" lon="5.71799">
        <ele>528.40002441406</ele>
        <time>2013-05-04T09:42:37.000Z</time>
      </trkpt>
      <trkpt lat="43.64149" lon="5.71797">
        <ele>528.59997558594</ele>
        <time>2013-05-04T09:42:38.000Z</time>
      </trkpt>
      <trkpt lat="43.64148" lon="5.71795">
        <ele>528.79998779297</ele>
        <time>2013-05-04T09:42:39.000Z</time>
      </trkpt>
      <trkpt lat="43.64148" lon="5.71793">
        <ele>529</ele>
        <time>2013-05-04T09:42:40.000Z</time>
      </trkpt>
      <trkpt lat="43.64147" lon="5.71791">
        <ele>529.40002441406</ele>
        <time>2013-05-04T09:42:41.000Z</time>
      </trkpt>
      <trkpt lat="43.64147" lon="5.71789">
        <ele>529.59997558594</ele>
        <time>2013-05-04T09:42:42.000Z</time>
      </trkpt>
      <trkpt lat="43.64146" lon="5.71787">
        <ele>530</ele>
        <time>2013-05-04T09:42:43.000Z</time>
      </trkpt>
      <trkpt lat="43.64142" lon="5.7178">
        <ele>531</ele>
        <time>2013-05-04T09:42:47.000Z</time>
      </trkpt>
      <trkpt lat="43.6414" lon="5.71779">
        <ele>531.20001220703</ele>
        <time>2013-05-04T09:42:48.000Z</time>
      </trkpt>
      <trkpt lat="43.64139" lon="5.71778">
        <ele>531.40002441406</ele>
        <time>2013-05-04T09:42:49.000Z</time>
      </trkpt>
      <trkpt lat="43.64137" lon="5.71777">
        <ele>531.79998779297</ele>
        <time>2013-05-04T09:42:50.000Z</time>
      </trkpt>
      <trkpt lat="43.64135" lon="5.71775">
        <ele>532</ele>
        <time>2013-05-04T09:42:51.000Z</time>
      </trkpt>
      <trkpt lat="43.64134" lon="5.71774">
        <ele>532.40002441406</ele>
        <time>2013-05-04T09:42:52.000Z</time>
      </trkpt>
      <trkpt lat="43.6413" lon="5.71765">
        <ele>533.79998779297</ele>
        <time>2013-05-04T09:43:01.000Z</time>
      </trkpt>
      <trkpt lat="43.64128" lon="5.71769">
        <ele>533.40002441406</ele>
        <time>2013-05-04T09:43:15.000Z</time>
      </trkpt>
      <trkpt lat="43.64123" lon="5.71772">
        <ele>533.40002441406</ele>
        <time>2013-05-04T09:43:38.000Z</time>
      </trkpt>
      <trkpt lat="43.6412" lon="5.71775">
        <ele>533.20001220703</ele>
        <time>2013-05-04T09:44:01.000Z</time>
      </trkpt>
      <trkpt lat="43.64126" lon="5.7177">
        <ele>533.40002441406</ele>
        <time>2013-05-04T09:44:17.000Z</time>
      </trkpt>
      <trkpt lat="43.64128" lon="5.71768">
        <ele>533.40002441406</ele>
        <time>2013-05-04T09:44:42.000Z</time>
      </trkpt>
      <trkpt lat="43.64129" lon="5.71766">
        <ele>533.59997558594</ele>
        <time>2013-05-04T09:45:07.000Z</time>
      </trkpt>
      <trkpt lat="43.64128" lon="5.71767">
        <ele>533.59997558594</ele>
        <time>2013-05-04T09:45:33.000Z</time>
      </trkpt>
      <trkpt lat="43.64131" lon="5.71766">
        <ele>533.40002441406</ele>
        <time>2013-05-04T09:45:59.000Z</time>
      </trkpt>
      <trkpt lat="43.64129" lon="5.71765">
        <ele>533.79998779297</ele>
        <time>2013-05-04T09:46:21.000Z</time>
      </trkpt>
      <trkpt lat="43.64128" lon="5.71767">
        <ele>533.59997558594</ele>
        <time>2013-05-04T09:46:33.000Z</time>
      </trkpt>
      <trkpt lat="43.64126" lon="5.71767">
        <ele>533.79998779297</ele>
        <time>2013-05-04T09:46:49.000Z</time>
      </trkpt>
      <trkpt lat="43.64126" lon="5.71768">
        <ele>533.59997558594</ele>
        <time>2013-05-04T09:47:13.000Z</time>
      </trkpt>
      <trkpt lat="43.64127" lon="5.71771">
        <ele>533.20001220703</ele>
        <time>2013-05-04T09:47:24.000Z</time>
      </trkpt>
      <trkpt lat="43.64125" lon="5.71773">
        <ele>533</ele>
        <time>2013-05-04T09:47:36.000Z</time>
      </trkpt>
      <trkpt lat="43.64127" lon="5.7177">
        <ele>533.40002441406</ele>
        <time>2013-05-04T09:47:50.000Z</time>
      </trkpt>
      <trkpt lat="43.64124" lon="5.71779">
        <ele>532.59997558594</ele>
        <time>2013-05-04T09:48:01.000Z</time>
      </trkpt>
      <trkpt lat="43.64119" lon="5.7178">
        <ele>532.79998779297</ele>
        <time>2013-05-04T09:48:12.000Z</time>
      </trkpt>
      <trkpt lat="43.64113" lon="5.71781">
        <ele>533.20001220703</ele>
        <time>2013-05-04T09:48:23.000Z</time>
      </trkpt>
      <trkpt lat="43.64108" lon="5.71783">
        <ele>533.20001220703</ele>
        <time>2013-05-04T09:48:34.000Z</time>
      </trkpt>
      <trkpt lat="43.64105" lon="5.71787">
        <ele>533</ele>
        <time>2013-05-04T09:48:44.000Z</time>
      </trkpt>
      <trkpt lat="43.64102" lon="5.71791">
        <ele>532.59997558594</ele>
        <time>2013-05-04T09:48:55.000Z</time>
      </trkpt>
      <trkpt lat="43.64099" lon="5.7179">
        <ele>533</ele>
        <time>2013-05-04T09:49:05.000Z</time>
      </trkpt>
      <trkpt lat="43.64093" lon="5.7179">
        <ele>533.40002441406</ele>
        <time>2013-05-04T09:49:17.000Z</time>
      </trkpt>
      <trkpt lat="43.64088" lon="5.71794">
        <ele>533.20001220703</ele>
        <time>2013-05-04T09:49:26.000Z</time>
      </trkpt>
      <trkpt lat="43.64085" lon="5.71799">
        <ele>532.79998779297</ele>
        <time>2013-05-04T09:49:33.000Z</time>
      </trkpt>
      <trkpt lat="43.64084" lon="5.718">
        <ele>532.59997558594</ele>
        <time>2013-05-04T09:49:34.000Z</time>
      </trkpt>
      <trkpt lat="43.64077" lon="5.71804">
        <ele>530.59997558594</ele>
        <time>2013-05-04T09:49:45.000Z</time>
      </trkpt>
      <trkpt lat="43.64075" lon="5.71809">
        <ele>529.20001220703</ele>
        <time>2013-05-04T09:49:55.000Z</time>
      </trkpt>
      <trkpt lat="43.64074" lon="5.71813">
        <ele>528.40002441406</ele>
        <time>2013-05-04T09:50:09.000Z</time>
      </trkpt>
      <trkpt lat="43.6407" lon="5.71817">
        <ele>526.79998779297</ele>
        <time>2013-05-04T09:50:18.000Z</time>
      </trkpt>
      <trkpt lat="43.64067" lon="5.71824">
        <ele>524.79998779297</ele>
        <time>2013-05-04T09:50:30.000Z</time>
      </trkpt>
      <trkpt lat="43.64064" lon="5.71825">
        <ele>524</ele>
        <time>2013-05-04T09:50:33.000Z</time>
      </trkpt>
      <trkpt lat="43.64063" lon="5.71822">
        <ele>524.20001220703</ele>
        <time>2013-05-04T09:50:40.000Z</time>
      </trkpt>
      <trkpt lat="43.64062" lon="5.7182">
        <ele>524.20001220703</ele>
        <time>2013-05-04T09:50:41.000Z</time>
      </trkpt>
      <trkpt lat="43.64061" lon="5.71819">
        <ele>524.20001220703</ele>
        <time>2013-05-04T09:50:42.000Z</time>
      </trkpt>
      <trkpt lat="43.64058" lon="5.71814">
        <ele>524.20001220703</ele>
        <time>2013-05-04T09:50:49.000Z</time>
      </trkpt>
      <trkpt lat="43.64044" lon="5.71805">
        <ele>522</ele>
        <time>2013-05-04T09:50:56.000Z</time>
      </trkpt>
      <trkpt lat="43.64031" lon="5.71797">
        <ele>520</ele>
        <time>2013-05-04T09:51:03.000Z</time>
      </trkpt>
      <trkpt lat="43.64019" lon="5.7179">
        <ele>518.40002441406</ele>
        <time>2013-05-04T09:51:08.000Z</time>
      </trkpt>
      <trkpt lat="43.64018" lon="5.71789">
        <ele>518.40002441406</ele>
        <time>2013-05-04T09:51:09.000Z</time>
      </trkpt>
      <trkpt lat="43.64015" lon="5.71784">
        <ele>518.40002441406</ele>
        <time>2013-05-04T09:51:18.000Z</time>
      </trkpt>
      <trkpt lat="43.6401" lon="5.71784">
        <ele>517.40002441406</ele>
        <time>2013-05-04T09:51:24.000Z</time>
      </trkpt>
      <trkpt lat="43.64007" lon="5.71785">
        <ele>516.40002441406</ele>
        <time>2013-05-04T09:51:27.000Z</time>
      </trkpt>
      <trkpt lat="43.64007" lon="5.71783">
        <ele>516.79998779297</ele>
        <time>2013-05-04T09:51:36.000Z</time>
      </trkpt>
      <trkpt lat="43.64004" lon="5.71781">
        <ele>516.59997558594</ele>
        <time>2013-05-04T09:51:40.000Z</time>
      </trkpt>
      <trkpt lat="43.64003" lon="5.71779">
        <ele>516.59997558594</ele>
        <time>2013-05-04T09:51:41.000Z</time>
      </trkpt>
      <trkpt lat="43.64001" lon="5.71777">
        <ele>516.40002441406</ele>
        <time>2013-05-04T09:51:42.000Z</time>
      </trkpt>
      <trkpt lat="43.63998" lon="5.71776">
        <ele>516</ele>
        <time>2013-05-04T09:51:43.000Z</time>
      </trkpt>
      <trkpt lat="43.63996" lon="5.71775">
        <ele>515.59997558594</ele>
        <time>2013-05-04T09:51:44.000Z</time>
      </trkpt>
      <trkpt lat="43.63993" lon="5.71773">
        <ele>515.40002441406</ele>
        <time>2013-05-04T09:51:45.000Z</time>
      </trkpt>
      <trkpt lat="43.63991" lon="5.71771">
        <ele>515.40002441406</ele>
        <time>2013-05-04T09:51:46.000Z</time>
      </trkpt>
      <trkpt lat="43.63982" lon="5.71758">
        <ele>515.79998779297</ele>
        <time>2013-05-04T09:51:50.000Z</time>
      </trkpt>
      <trkpt lat="43.63971" lon="5.71746">
        <ele>516</ele>
        <time>2013-05-04T09:51:53.000Z</time>
      </trkpt>
      <trkpt lat="43.63964" lon="5.71741">
        <ele>515.20001220703</ele>
        <time>2013-05-04T09:51:55.000Z</time>
      </trkpt>
      <trkpt lat="43.63959" lon="5.7174">
        <ele>514.40002441406</ele>
        <time>2013-05-04T09:51:56.000Z</time>
      </trkpt>
      <trkpt lat="43.63955" lon="5.71739">
        <ele>513.79998779297</ele>
        <time>2013-05-04T09:51:57.000Z</time>
      </trkpt>
      <trkpt lat="43.63951" lon="5.71737">
        <ele>513.20001220703</ele>
        <time>2013-05-04T09:51:58.000Z</time>
      </trkpt>
      <trkpt lat="43.63947" lon="5.71734">
        <ele>513</ele>
        <time>2013-05-04T09:51:59.000Z</time>
      </trkpt>
      <trkpt lat="43.63945" lon="5.71732">
        <ele>513</ele>
        <time>2013-05-04T09:52:00.000Z</time>
      </trkpt>
      <trkpt lat="43.63943" lon="5.71731">
        <ele>512.79998779297</ele>
        <time>2013-05-04T09:52:01.000Z</time>
      </trkpt>
      <trkpt lat="43.63942" lon="5.71731">
        <ele>512.59997558594</ele>
        <time>2013-05-04T09:52:02.000Z</time>
      </trkpt>
      <trkpt lat="43.63939" lon="5.71729">
        <ele>512.40002441406</ele>
        <time>2013-05-04T09:52:12.000Z</time>
      </trkpt>
      <trkpt lat="43.63925" lon="5.71736">
        <ele>507.39999389648</ele>
        <time>2013-05-04T09:52:16.000Z</time>
      </trkpt>
      <trkpt lat="43.63921" lon="5.71737">
        <ele>506.20001220703</ele>
        <time>2013-05-04T09:52:17.000Z</time>
      </trkpt>
      <trkpt lat="43.63911" lon="5.71744">
        <ele>503.79998779297</ele>
        <time>2013-05-04T09:52:20.000Z</time>
      </trkpt>
      <trkpt lat="43.63908" lon="5.71748">
        <ele>502.60000610352</ele>
        <time>2013-05-04T09:52:21.000Z</time>
      </trkpt>
      <trkpt lat="43.63906" lon="5.71753">
        <ele>501.60000610352</ele>
        <time>2013-05-04T09:52:22.000Z</time>
      </trkpt>
      <trkpt lat="43.63899" lon="5.71767">
        <ele>498.79998779297</ele>
        <time>2013-05-04T09:52:25.000Z</time>
      </trkpt>
      <trkpt lat="43.63891" lon="5.71773">
        <ele>497.60000610352</ele>
        <time>2013-05-04T09:52:27.000Z</time>
      </trkpt>
      <trkpt lat="43.63887" lon="5.71776">
        <ele>497</ele>
        <time>2013-05-04T09:52:28.000Z</time>
      </trkpt>
      <trkpt lat="43.63883" lon="5.7178">
        <ele>496</ele>
        <time>2013-05-04T09:52:29.000Z</time>
      </trkpt>
      <trkpt lat="43.63873" lon="5.71792">
        <ele>493.20001220703</ele>
        <time>2013-05-04T09:52:32.000Z</time>
      </trkpt>
      <trkpt lat="43.63865" lon="5.71799">
        <ele>491.60000610352</ele>
        <time>2013-05-04T09:52:34.000Z</time>
      </trkpt>
      <trkpt lat="43.63861" lon="5.71801">
        <ele>491</ele>
        <time>2013-05-04T09:52:35.000Z</time>
      </trkpt>
      <trkpt lat="43.63844" lon="5.71802">
        <ele>490.79998779297</ele>
        <time>2013-05-04T09:52:41.000Z</time>
      </trkpt>
      <trkpt lat="43.63829" lon="5.71801">
        <ele>491</ele>
        <time>2013-05-04T09:52:46.000Z</time>
      </trkpt>
      <trkpt lat="43.63796" lon="5.71807">
        <ele>489.79998779297</ele>
        <time>2013-05-04T09:52:55.000Z</time>
      </trkpt>
      <trkpt lat="43.63769" lon="5.71815">
        <ele>488</ele>
        <time>2013-05-04T09:53:01.000Z</time>
      </trkpt>
      <trkpt lat="43.63748" lon="5.71826">
        <ele>485.20001220703</ele>
        <time>2013-05-04T09:53:05.000Z</time>
      </trkpt>
      <trkpt lat="43.63742" lon="5.71828">
        <ele>484.39999389648</ele>
        <time>2013-05-04T09:53:06.000Z</time>
      </trkpt>
      <trkpt lat="43.63735" lon="5.71829">
        <ele>484</ele>
        <time>2013-05-04T09:53:07.000Z</time>
      </trkpt>
      <trkpt lat="43.63728" lon="5.71829">
        <ele>484</ele>
        <time>2013-05-04T09:53:08.000Z</time>
      </trkpt>
      <trkpt lat="43.63721" lon="5.71828">
        <ele>484</ele>
        <time>2013-05-04T09:53:09.000Z</time>
      </trkpt>
      <trkpt lat="43.63687" lon="5.71823">
        <ele>484.60000610352</ele>
        <time>2013-05-04T09:53:15.000Z</time>
      </trkpt>
      <trkpt lat="43.63683" lon="5.71822">
        <ele>484.79998779297</ele>
        <time>2013-05-04T09:53:16.000Z</time>
      </trkpt>
      <trkpt lat="43.63678" lon="5.71822">
        <ele>484.79998779297</ele>
        <time>2013-05-04T09:53:17.000Z</time>
      </trkpt>
      <trkpt lat="43.63673" lon="5.71822">
        <ele>484.39999389648</ele>
        <time>2013-05-04T09:53:18.000Z</time>
      </trkpt>
      <trkpt lat="43.63668" lon="5.71824">
        <ele>483.79998779297</ele>
        <time>2013-05-04T09:53:19.000Z</time>
      </trkpt>
      <trkpt lat="43.63663" lon="5.71827">
        <ele>482.79998779297</ele>
        <time>2013-05-04T09:53:20.000Z</time>
      </trkpt>
      <trkpt lat="43.63659" lon="5.71832">
        <ele>481.39999389648</ele>
        <time>2013-05-04T09:53:21.000Z</time>
      </trkpt>
      <trkpt lat="43.63654" lon="5.71836">
        <ele>480.20001220703</ele>
        <time>2013-05-04T09:53:22.000Z</time>
      </trkpt>
      <trkpt lat="43.63649" lon="5.7184">
        <ele>479.20001220703</ele>
        <time>2013-05-04T09:53:23.000Z</time>
      </trkpt>
      <trkpt lat="43.63643" lon="5.71844">
        <ele>478.20001220703</ele>
        <time>2013-05-04T09:53:24.000Z</time>
      </trkpt>
      <trkpt lat="43.63637" lon="5.71847">
        <ele>477.20001220703</ele>
        <time>2013-05-04T09:53:25.000Z</time>
      </trkpt>
      <trkpt lat="43.63633" lon="5.71851">
        <ele>476.20001220703</ele>
        <time>2013-05-04T09:53:26.000Z</time>
      </trkpt>
      <trkpt lat="43.63629" lon="5.71856">
        <ele>475.20001220703</ele>
        <time>2013-05-04T09:53:27.000Z</time>
      </trkpt>
      <trkpt lat="43.63625" lon="5.71861">
        <ele>474.20001220703</ele>
        <time>2013-05-04T09:53:28.000Z</time>
      </trkpt>
      <trkpt lat="43.63621" lon="5.71867">
        <ele>473</ele>
        <time>2013-05-04T09:53:29.000Z</time>
      </trkpt>
      <trkpt lat="43.63619" lon="5.71873">
        <ele>472.20001220703</ele>
        <time>2013-05-04T09:53:30.000Z</time>
      </trkpt>
      <trkpt lat="43.63614" lon="5.71878">
        <ele>471</ele>
        <time>2013-05-04T09:53:32.000Z</time>
      </trkpt>
      <trkpt lat="43.6361" lon="5.71879">
        <ele>470.79998779297</ele>
        <time>2013-05-04T09:53:33.000Z</time>
      </trkpt>
      <trkpt lat="43.63607" lon="5.71877">
        <ele>470.60000610352</ele>
        <time>2013-05-04T09:53:34.000Z</time>
      </trkpt>
      <trkpt lat="43.63603" lon="5.71875">
        <ele>470.60000610352</ele>
        <time>2013-05-04T09:53:35.000Z</time>
      </trkpt>
      <trkpt lat="43.63599" lon="5.71872">
        <ele>470.60000610352</ele>
        <time>2013-05-04T09:53:36.000Z</time>
      </trkpt>
      <trkpt lat="43.63595" lon="5.71872">
        <ele>470.20001220703</ele>
        <time>2013-05-04T09:53:37.000Z</time>
      </trkpt>
      <trkpt lat="43.6359" lon="5.71874">
        <ele>469.60000610352</ele>
        <time>2013-05-04T09:53:38.000Z</time>
      </trkpt>
      <trkpt lat="43.63585" lon="5.71879">
        <ele>468.60000610352</ele>
        <time>2013-05-04T09:53:39.000Z</time>
      </trkpt>
      <trkpt lat="43.63581" lon="5.71885">
        <ele>467.39999389648</ele>
        <time>2013-05-04T09:53:40.000Z</time>
      </trkpt>
      <trkpt lat="43.63577" lon="5.71891">
        <ele>466.39999389648</ele>
        <time>2013-05-04T09:53:41.000Z</time>
      </trkpt>
      <trkpt lat="43.63573" lon="5.71893">
        <ele>465.79998779297</ele>
        <time>2013-05-04T09:53:42.000Z</time>
      </trkpt>
      <trkpt lat="43.6357" lon="5.71893">
        <ele>465.39999389648</ele>
        <time>2013-05-04T09:53:43.000Z</time>
      </trkpt>
      <trkpt lat="43.63566" lon="5.71891">
        <ele>465.39999389648</ele>
        <time>2013-05-04T09:53:44.000Z</time>
      </trkpt>
      <trkpt lat="43.63563" lon="5.71888">
        <ele>465.39999389648</ele>
        <time>2013-05-04T09:53:45.000Z</time>
      </trkpt>
      <trkpt lat="43.63561" lon="5.71883">
        <ele>465.60000610352</ele>
        <time>2013-05-04T09:53:46.000Z</time>
      </trkpt>
      <trkpt lat="43.6356" lon="5.71878">
        <ele>466</ele>
        <time>2013-05-04T09:53:47.000Z</time>
      </trkpt>
      <trkpt lat="43.63559" lon="5.71873">
        <ele>466.39999389648</ele>
        <time>2013-05-04T09:53:48.000Z</time>
      </trkpt>
      <trkpt lat="43.63564" lon="5.71846">
        <ele>469.79998779297</ele>
        <time>2013-05-04T09:53:55.000Z</time>
      </trkpt>
      <trkpt lat="43.63565" lon="5.7184">
        <ele>470.60000610352</ele>
        <time>2013-05-04T09:53:56.000Z</time>
      </trkpt>
      <trkpt lat="43.63565" lon="5.71835">
        <ele>471</ele>
        <time>2013-05-04T09:53:57.000Z</time>
      </trkpt>
      <trkpt lat="43.63563" lon="5.71829">
        <ele>471.79998779297</ele>
        <time>2013-05-04T09:53:58.000Z</time>
      </trkpt>
      <trkpt lat="43.63547" lon="5.71804">
        <ele>473.79998779297</ele>
        <time>2013-05-04T09:54:05.000Z</time>
      </trkpt>
      <trkpt lat="43.63527" lon="5.71787">
        <ele>474</ele>
        <time>2013-05-04T09:54:14.000Z</time>
      </trkpt>
      <trkpt lat="43.63512" lon="5.71774">
        <ele>473.79998779297</ele>
        <time>2013-05-04T09:54:21.000Z</time>
      </trkpt>
      <trkpt lat="43.63499" lon="5.71752">
        <ele>475.39999389648</ele>
        <time>2013-05-04T09:54:27.000Z</time>
      </trkpt>
      <trkpt lat="43.63496" lon="5.71748">
        <ele>476.20001220703</ele>
        <time>2013-05-04T09:54:28.000Z</time>
      </trkpt>
      <trkpt lat="43.63466" lon="5.71717">
        <ele>481</ele>
        <time>2013-05-04T09:54:38.000Z</time>
      </trkpt>
      <trkpt lat="43.63453" lon="5.71697">
        <ele>484.79998779297</ele>
        <time>2013-05-04T09:54:46.000Z</time>
      </trkpt>
      <trkpt lat="43.63451" lon="5.71694">
        <ele>485.20001220703</ele>
        <time>2013-05-04T09:54:47.000Z</time>
      </trkpt>
      <trkpt lat="43.63449" lon="5.71693">
        <ele>485.39999389648</ele>
        <time>2013-05-04T09:54:48.000Z</time>
      </trkpt>
      <trkpt lat="43.63447" lon="5.71693">
        <ele>485.60000610352</ele>
        <time>2013-05-04T09:54:49.000Z</time>
      </trkpt>
      <trkpt lat="43.63445" lon="5.71693">
        <ele>485.60000610352</ele>
        <time>2013-05-04T09:54:50.000Z</time>
      </trkpt>
      <trkpt lat="43.63444" lon="5.71693">
        <ele>485.60000610352</ele>
        <time>2013-05-04T09:54:51.000Z</time>
      </trkpt>
      <trkpt lat="43.63443" lon="5.71692">
        <ele>485.60000610352</ele>
        <time>2013-05-04T09:54:52.000Z</time>
      </trkpt>
      <trkpt lat="43.63442" lon="5.71692">
        <ele>485.79998779297</ele>
        <time>2013-05-04T09:54:53.000Z</time>
      </trkpt>
      <trkpt lat="43.63442" lon="5.71691">
        <ele>486</ele>
        <time>2013-05-04T09:54:54.000Z</time>
      </trkpt>
      <trkpt lat="43.63441" lon="5.71689">
        <ele>486.20001220703</ele>
        <time>2013-05-04T09:54:55.000Z</time>
      </trkpt>
      <trkpt lat="43.63441" lon="5.71687">
        <ele>486.60000610352</ele>
        <time>2013-05-04T09:54:56.000Z</time>
      </trkpt>
      <trkpt lat="43.63442" lon="5.71686">
        <ele>486.79998779297</ele>
        <time>2013-05-04T09:54:57.000Z</time>
      </trkpt>
      <trkpt lat="43.63444" lon="5.71674">
        <ele>489</ele>
        <time>2013-05-04T09:55:05.000Z</time>
      </trkpt>
      <trkpt lat="43.63449" lon="5.71662">
        <ele>490.60000610352</ele>
        <time>2013-05-04T09:55:15.000Z</time>
      </trkpt>
      <trkpt lat="43.63458" lon="5.71643">
        <ele>493</ele>
        <time>2013-05-04T09:55:26.000Z</time>
      </trkpt>
      <trkpt lat="43.63459" lon="5.71641">
        <ele>493.20001220703</ele>
        <time>2013-05-04T09:55:27.000Z</time>
      </trkpt>
      <trkpt lat="43.63467" lon="5.71628">
        <ele>494.79998779297</ele>
        <time>2013-05-04T09:55:37.000Z</time>
      </trkpt>
      <trkpt lat="43.63468" lon="5.71626">
        <ele>495</ele>
        <time>2013-05-04T09:55:38.000Z</time>
      </trkpt>
      <trkpt lat="43.63469" lon="5.71624">
        <ele>495.39999389648</ele>
        <time>2013-05-04T09:55:39.000Z</time>
      </trkpt>
      <trkpt lat="43.63477" lon="5.71602">
        <ele>498.20001220703</ele>
        <time>2013-05-04T09:55:46.000Z</time>
      </trkpt>
      <trkpt lat="43.63477" lon="5.71599">
        <ele>498.79998779297</ele>
        <time>2013-05-04T09:55:47.000Z</time>
      </trkpt>
      <trkpt lat="43.63477" lon="5.71597">
        <ele>499</ele>
        <time>2013-05-04T09:55:48.000Z</time>
      </trkpt>
      <trkpt lat="43.63479" lon="5.7159">
        <ele>500</ele>
        <time>2013-05-04T09:55:52.000Z</time>
      </trkpt>
      <trkpt lat="43.63483" lon="5.71574">
        <ele>502</ele>
        <time>2013-05-04T09:56:03.000Z</time>
      </trkpt>
      <trkpt lat="43.63485" lon="5.7156">
        <ele>503.60000610352</ele>
        <time>2013-05-04T09:56:14.000Z</time>
      </trkpt>
      <trkpt lat="43.63485" lon="5.71557">
        <ele>504</ele>
        <time>2013-05-04T09:56:16.000Z</time>
      </trkpt>
      <trkpt lat="43.63485" lon="5.71543">
        <ele>505.60000610352</ele>
        <time>2013-05-04T09:56:27.000Z</time>
      </trkpt>
      <trkpt lat="43.63486" lon="5.71534">
        <ele>506.60000610352</ele>
        <time>2013-05-04T09:56:38.000Z</time>
      </trkpt>
      <trkpt lat="43.63488" lon="5.71518">
        <ele>508.60000610352</ele>
        <time>2013-05-04T09:56:52.000Z</time>
      </trkpt>
      <trkpt lat="43.6349" lon="5.71505">
        <ele>510.20001220703</ele>
        <time>2013-05-04T09:57:03.000Z</time>
      </trkpt>
      <trkpt lat="43.63492" lon="5.71495">
        <ele>511.60000610352</ele>
        <time>2013-05-04T09:57:13.000Z</time>
      </trkpt>
      <trkpt lat="43.63491" lon="5.71483">
        <ele>512.40002441406</ele>
        <time>2013-05-04T09:57:24.000Z</time>
      </trkpt>
      <trkpt lat="43.63491" lon="5.71482">
        <ele>512.59997558594</ele>
        <time>2013-05-04T09:57:27.000Z</time>
      </trkpt>
      <trkpt lat="43.63491" lon="5.71477">
        <ele>513</ele>
        <time>2013-05-04T09:57:32.000Z</time>
      </trkpt>
      <trkpt lat="43.63491" lon="5.71476">
        <ele>513.20001220703</ele>
        <time>2013-05-04T09:57:33.000Z</time>
      </trkpt>
      <trkpt lat="43.63498" lon="5.71462">
        <ele>514.79998779297</ele>
        <time>2013-05-04T09:57:43.000Z</time>
      </trkpt>
      <trkpt lat="43.63505" lon="5.71449">
        <ele>517.20001220703</ele>
        <time>2013-05-04T09:57:51.000Z</time>
      </trkpt>
      <trkpt lat="43.6351" lon="5.71441">
        <ele>518.59997558594</ele>
        <time>2013-05-04T09:57:55.000Z</time>
      </trkpt>
      <trkpt lat="43.63515" lon="5.71425">
        <ele>520.40002441406</ele>
        <time>2013-05-04T09:58:04.000Z</time>
      </trkpt>
      <trkpt lat="43.63517" lon="5.71423">
        <ele>520.79998779297</ele>
        <time>2013-05-04T09:58:23.000Z</time>
      </trkpt>
      <trkpt lat="43.63517" lon="5.71423">
        <ele>520.79998779297</ele>
        <time>2013-05-04T09:58:43.000Z</time>
      </trkpt>
      <trkpt lat="43.63517" lon="5.71421">
        <ele>520.79998779297</ele>
        <time>2013-05-04T09:59:00.000Z</time>
      </trkpt>
      <trkpt lat="43.63518" lon="5.71421">
        <ele>521</ele>
        <time>2013-05-04T09:59:18.000Z</time>
      </trkpt>
      <trkpt lat="43.63516" lon="5.7142">
        <ele>520.79998779297</ele>
        <time>2013-05-04T09:59:35.000Z</time>
      </trkpt>
      <trkpt lat="43.63514" lon="5.71421">
        <ele>520.40002441406</ele>
        <time>2013-05-04T09:59:51.000Z</time>
      </trkpt>
      <trkpt lat="43.63513" lon="5.7142">
        <ele>520.40002441406</ele>
        <time>2013-05-04T10:00:14.000Z</time>
      </trkpt>
      <trkpt lat="43.63514" lon="5.71422">
        <ele>520.40002441406</ele>
        <time>2013-05-04T10:00:37.000Z</time>
      </trkpt>
      <trkpt lat="43.63516" lon="5.71421">
        <ele>520.79998779297</ele>
        <time>2013-05-04T10:00:56.000Z</time>
      </trkpt>
      <trkpt lat="43.63517" lon="5.71417">
        <ele>521.20001220703</ele>
        <time>2013-05-04T10:01:09.000Z</time>
      </trkpt>
      <trkpt lat="43.63518" lon="5.71416">
        <ele>521.20001220703</ele>
        <time>2013-05-04T10:01:10.000Z</time>
      </trkpt>
      <trkpt lat="43.63526" lon="5.71387">
        <ele>520.79998779297</ele>
        <time>2013-05-04T10:01:17.000Z</time>
      </trkpt>
      <trkpt lat="43.63528" lon="5.7136">
        <ele>519.40002441406</ele>
        <time>2013-05-04T10:01:21.000Z</time>
      </trkpt>
      <trkpt lat="43.63528" lon="5.71352">
        <ele>519</ele>
        <time>2013-05-04T10:01:22.000Z</time>
      </trkpt>
      <trkpt lat="43.63531" lon="5.71338">
        <ele>518.20001220703</ele>
        <time>2013-05-04T10:01:24.000Z</time>
      </trkpt>
      <trkpt lat="43.63534" lon="5.71333">
        <ele>518</ele>
        <time>2013-05-04T10:01:25.000Z</time>
      </trkpt>
      <trkpt lat="43.63538" lon="5.71329">
        <ele>517.59997558594</ele>
        <time>2013-05-04T10:01:26.000Z</time>
      </trkpt>
      <trkpt lat="43.63542" lon="5.71325">
        <ele>517.40002441406</ele>
        <time>2013-05-04T10:01:27.000Z</time>
      </trkpt>
      <trkpt lat="43.63547" lon="5.71321">
        <ele>516.79998779297</ele>
        <time>2013-05-04T10:01:28.000Z</time>
      </trkpt>
      <trkpt lat="43.63552" lon="5.71316">
        <ele>516.20001220703</ele>
        <time>2013-05-04T10:01:29.000Z</time>
      </trkpt>
      <trkpt lat="43.63556" lon="5.7131">
        <ele>515.40002441406</ele>
        <time>2013-05-04T10:01:30.000Z</time>
      </trkpt>
      <trkpt lat="43.6356" lon="5.71302">
        <ele>514.40002441406</ele>
        <time>2013-05-04T10:01:31.000Z</time>
      </trkpt>
      <trkpt lat="43.63563" lon="5.71295">
        <ele>513.40002441406</ele>
        <time>2013-05-04T10:01:32.000Z</time>
      </trkpt>
      <trkpt lat="43.63567" lon="5.71288">
        <ele>512.40002441406</ele>
        <time>2013-05-04T10:01:33.000Z</time>
      </trkpt>
      <trkpt lat="43.63571" lon="5.71281">
        <ele>511.20001220703</ele>
        <time>2013-05-04T10:01:34.000Z</time>
      </trkpt>
      <trkpt lat="43.63586" lon="5.71251">
        <ele>506.60000610352</ele>
        <time>2013-05-04T10:01:38.000Z</time>
      </trkpt>
      <trkpt lat="43.63592" lon="5.71245">
        <ele>506.60000610352</ele>
        <time>2013-05-04T10:01:39.000Z</time>
      </trkpt>
      <trkpt lat="43.63598" lon="5.71238">
        <ele>506.60000610352</ele>
        <time>2013-05-04T10:01:40.000Z</time>
      </trkpt>
      <trkpt lat="43.63616" lon="5.71215">
        <ele>505.39999389648</ele>
        <time>2013-05-04T10:01:43.000Z</time>
      </trkpt>
      <trkpt lat="43.63643" lon="5.7118">
        <ele>501</ele>
        <time>2013-05-04T10:01:47.000Z</time>
      </trkpt>
      <trkpt lat="43.63654" lon="5.71164">
        <ele>498.20001220703</ele>
        <time>2013-05-04T10:01:49.000Z</time>
      </trkpt>
      <trkpt lat="43.63658" lon="5.71156">
        <ele>497.20001220703</ele>
        <time>2013-05-04T10:01:50.000Z</time>
      </trkpt>
      <trkpt lat="43.6366" lon="5.71147">
        <ele>495.79998779297</ele>
        <time>2013-05-04T10:01:51.000Z</time>
      </trkpt>
      <trkpt lat="43.63664" lon="5.71113">
        <ele>491</ele>
        <time>2013-05-04T10:01:54.000Z</time>
      </trkpt>
      <trkpt lat="43.63667" lon="5.71101">
        <ele>489.60000610352</ele>
        <time>2013-05-04T10:01:55.000Z</time>
      </trkpt>
      <trkpt lat="43.63673" lon="5.71081">
        <ele>488.20001220703</ele>
        <time>2013-05-04T10:01:57.000Z</time>
      </trkpt>
      <trkpt lat="43.63678" lon="5.71074">
        <ele>488.79998779297</ele>
        <time>2013-05-04T10:01:58.000Z</time>
      </trkpt>
      <trkpt lat="43.63683" lon="5.71068">
        <ele>489.60000610352</ele>
        <time>2013-05-04T10:01:59.000Z</time>
      </trkpt>
      <trkpt lat="43.63688" lon="5.71065">
        <ele>490.39999389648</ele>
        <time>2013-05-04T10:02:00.000Z</time>
      </trkpt>
      <trkpt lat="43.63692" lon="5.71062">
        <ele>491.20001220703</ele>
        <time>2013-05-04T10:02:01.000Z</time>
      </trkpt>
      <trkpt lat="43.63707" lon="5.71053">
        <ele>493.79998779297</ele>
        <time>2013-05-04T10:02:06.000Z</time>
      </trkpt>
      <trkpt lat="43.63718" lon="5.7104">
        <ele>495.39999389648</ele>
        <time>2013-05-04T10:02:13.000Z</time>
      </trkpt>
      <trkpt lat="43.63718" lon="5.71037">
        <ele>495.20001220703</ele>
        <time>2013-05-04T10:02:14.000Z</time>
      </trkpt>
      <trkpt lat="43.63718" lon="5.71034">
        <ele>495.20001220703</ele>
        <time>2013-05-04T10:02:15.000Z</time>
      </trkpt>
      <trkpt lat="43.63719" lon="5.71031">
        <ele>495</ele>
        <time>2013-05-04T10:02:16.000Z</time>
      </trkpt>
      <trkpt lat="43.63719" lon="5.71028">
        <ele>495</ele>
        <time>2013-05-04T10:02:17.000Z</time>
      </trkpt>
      <trkpt lat="43.63726" lon="5.71002">
        <ele>494.79998779297</ele>
        <time>2013-05-04T10:02:28.000Z</time>
      </trkpt>
      <trkpt lat="43.63742" lon="5.70985">
        <ele>497.20001220703</ele>
        <time>2013-05-04T10:02:39.000Z</time>
      </trkpt>
      <trkpt lat="43.63758" lon="5.70968">
        <ele>499</ele>
        <time>2013-05-04T10:02:49.000Z</time>
      </trkpt>
      <trkpt lat="43.63776" lon="5.70949">
        <ele>501.20001220703</ele>
        <time>2013-05-04T10:02:59.000Z</time>
      </trkpt>
      <trkpt lat="43.63796" lon="5.70925">
        <ele>502.39999389648</ele>
        <time>2013-05-04T10:03:10.000Z</time>
      </trkpt>
      <trkpt lat="43.63816" lon="5.70894">
        <ele>503.39999389648</ele>
        <time>2013-05-04T10:03:20.000Z</time>
      </trkpt>
      <trkpt lat="43.6384" lon="5.70858">
        <ele>503.39999389648</ele>
        <time>2013-05-04T10:03:31.000Z</time>
      </trkpt>
      <trkpt lat="43.63855" lon="5.70833">
        <ele>504.60000610352</ele>
        <time>2013-05-04T10:03:39.000Z</time>
      </trkpt>
      <trkpt lat="43.63869" lon="5.70808">
        <ele>507.60000610352</ele>
        <time>2013-05-04T10:03:48.000Z</time>
      </trkpt>
      <trkpt lat="43.63887" lon="5.70785">
        <ele>509.60000610352</ele>
        <time>2013-05-04T10:04:00.000Z</time>
      </trkpt>
      <trkpt lat="43.63904" lon="5.70755">
        <ele>508.79998779297</ele>
        <time>2013-05-04T10:04:11.000Z</time>
      </trkpt>
      <trkpt lat="43.63923" lon="5.70724">
        <ele>511.20001220703</ele>
        <time>2013-05-04T10:04:22.000Z</time>
      </trkpt>
      <trkpt lat="43.63939" lon="5.70691">
        <ele>514.59997558594</ele>
        <time>2013-05-04T10:04:33.000Z</time>
      </trkpt>
      <trkpt lat="43.63955" lon="5.70664">
        <ele>516.20001220703</ele>
        <time>2013-05-04T10:04:43.000Z</time>
      </trkpt>
      <trkpt lat="43.6396" lon="5.70659">
        <ele>517.20001220703</ele>
        <time>2013-05-04T10:04:46.000Z</time>
      </trkpt>
      <trkpt lat="43.63973" lon="5.70644">
        <ele>519.40002441406</ele>
        <time>2013-05-04T10:04:55.000Z</time>
      </trkpt>
      <trkpt lat="43.63988" lon="5.70625">
        <ele>520.20001220703</ele>
        <time>2013-05-04T10:05:05.000Z</time>
      </trkpt>
      <trkpt lat="43.64001" lon="5.70606">
        <ele>520</ele>
        <time>2013-05-04T10:05:15.000Z</time>
      </trkpt>
      <trkpt lat="43.64014" lon="5.70571">
        <ele>524.59997558594</ele>
        <time>2013-05-04T10:05:28.000Z</time>
      </trkpt>
      <trkpt lat="43.64018" lon="5.70565">
        <ele>526.40002441406</ele>
        <time>2013-05-04T10:05:32.000Z</time>
      </trkpt>
      <trkpt lat="43.64019" lon="5.70564">
        <ele>527</ele>
        <time>2013-05-04T10:05:33.000Z</time>
      </trkpt>
      <trkpt lat="43.64021" lon="5.70562">
        <ele>527.40002441406</ele>
        <time>2013-05-04T10:05:34.000Z</time>
      </trkpt>
      <trkpt lat="43.64022" lon="5.70561">
        <ele>527.79998779297</ele>
        <time>2013-05-04T10:05:35.000Z</time>
      </trkpt>
      <trkpt lat="43.64023" lon="5.7056">
        <ele>528.20001220703</ele>
        <time>2013-05-04T10:05:36.000Z</time>
      </trkpt>
      <trkpt lat="43.64024" lon="5.70559">
        <ele>528.59997558594</ele>
        <time>2013-05-04T10:05:37.000Z</time>
      </trkpt>
      <trkpt lat="43.64025" lon="5.70558">
        <ele>528.79998779297</ele>
        <time>2013-05-04T10:05:38.000Z</time>
      </trkpt>
      <trkpt lat="43.64026" lon="5.70557">
        <ele>529.20001220703</ele>
        <time>2013-05-04T10:05:39.000Z</time>
      </trkpt>
      <trkpt lat="43.64027" lon="5.70555">
        <ele>529.59997558594</ele>
        <time>2013-05-04T10:05:40.000Z</time>
      </trkpt>
      <trkpt lat="43.64028" lon="5.70553">
        <ele>530</ele>
        <time>2013-05-04T10:05:41.000Z</time>
      </trkpt>
      <trkpt lat="43.64037" lon="5.70534">
        <ele>532.59997558594</ele>
        <time>2013-05-04T10:05:50.000Z</time>
      </trkpt>
      <trkpt lat="43.64051" lon="5.70513">
        <ele>534.79998779297</ele>
        <time>2013-05-04T10:06:02.000Z</time>
      </trkpt>
      <trkpt lat="43.64063" lon="5.70494">
        <ele>535.59997558594</ele>
        <time>2013-05-04T10:06:13.000Z</time>
      </trkpt>
      <trkpt lat="43.64078" lon="5.70473">
        <ele>536.40002441406</ele>
        <time>2013-05-04T10:06:25.000Z</time>
      </trkpt>
      <trkpt lat="43.64086" lon="5.7046">
        <ele>537</ele>
        <time>2013-05-04T10:06:32.000Z</time>
      </trkpt>
      <trkpt lat="43.641" lon="5.70441">
        <ele>541</ele>
        <time>2013-05-04T10:06:44.000Z</time>
      </trkpt>
      <trkpt lat="43.64113" lon="5.70424">
        <ele>543.59997558594</ele>
        <time>2013-05-04T10:06:55.000Z</time>
      </trkpt>
      <trkpt lat="43.64116" lon="5.7042">
        <ele>544</ele>
        <time>2013-05-04T10:06:57.000Z</time>
      </trkpt>
      <trkpt lat="43.64117" lon="5.70419">
        <ele>544.20001220703</ele>
        <time>2013-05-04T10:06:58.000Z</time>
      </trkpt>
      <trkpt lat="43.64118" lon="5.70417">
        <ele>544.40002441406</ele>
        <time>2013-05-04T10:06:59.000Z</time>
      </trkpt>
      <trkpt lat="43.64119" lon="5.70415">
        <ele>544.79998779297</ele>
        <time>2013-05-04T10:07:00.000Z</time>
      </trkpt>
      <trkpt lat="43.6412" lon="5.70412">
        <ele>545.40002441406</ele>
        <time>2013-05-04T10:07:01.000Z</time>
      </trkpt>
      <trkpt lat="43.64121" lon="5.7041">
        <ele>545.79998779297</ele>
        <time>2013-05-04T10:07:02.000Z</time>
      </trkpt>
      <trkpt lat="43.64122" lon="5.70408">
        <ele>546.20001220703</ele>
        <time>2013-05-04T10:07:03.000Z</time>
      </trkpt>
      <trkpt lat="43.64134" lon="5.70387">
        <ele>550.20001220703</ele>
        <time>2013-05-04T10:07:15.000Z</time>
      </trkpt>
      <trkpt lat="43.64135" lon="5.70385">
        <ele>550.40002441406</ele>
        <time>2013-05-04T10:07:16.000Z</time>
      </trkpt>
      <trkpt lat="43.64136" lon="5.70383">
        <ele>550.79998779297</ele>
        <time>2013-05-04T10:07:17.000Z</time>
      </trkpt>
      <trkpt lat="43.64137" lon="5.7038">
        <ele>551</ele>
        <time>2013-05-04T10:07:18.000Z</time>
      </trkpt>
      <trkpt lat="43.64137" lon="5.70378">
        <ele>551.20001220703</ele>
        <time>2013-05-04T10:07:19.000Z</time>
      </trkpt>
      <trkpt lat="43.64138" lon="5.70375">
        <ele>551.40002441406</ele>
        <time>2013-05-04T10:07:20.000Z</time>
      </trkpt>
      <trkpt lat="43.64148" lon="5.70349">
        <ele>553.20001220703</ele>
        <time>2013-05-04T10:07:32.000Z</time>
      </trkpt>
      <trkpt lat="43.6416" lon="5.70326">
        <ele>554.40002441406</ele>
        <time>2013-05-04T10:07:44.000Z</time>
      </trkpt>
      <trkpt lat="43.64175" lon="5.7031">
        <ele>558.40002441406</ele>
        <time>2013-05-04T10:07:56.000Z</time>
      </trkpt>
      <trkpt lat="43.64184" lon="5.70301">
        <ele>562</ele>
        <time>2013-05-04T10:08:03.000Z</time>
      </trkpt>
      <trkpt lat="43.6419" lon="5.70293">
        <ele>564</ele>
        <time>2013-05-04T10:08:08.000Z</time>
      </trkpt>
      <trkpt lat="43.64198" lon="5.70281">
        <ele>566.40002441406</ele>
        <time>2013-05-04T10:08:16.000Z</time>
      </trkpt>
      <trkpt lat="43.64209" lon="5.70265">
        <ele>568.59997558594</ele>
        <time>2013-05-04T10:08:27.000Z</time>
      </trkpt>
      <trkpt lat="43.64219" lon="5.70255">
        <ele>569.79998779297</ele>
        <time>2013-05-04T10:08:38.000Z</time>
      </trkpt>
      <trkpt lat="43.64218" lon="5.70231">
        <ele>572.79998779297</ele>
        <time>2013-05-04T10:08:50.000Z</time>
      </trkpt>
      <trkpt lat="43.64225" lon="5.70216">
        <ele>575.40002441406</ele>
        <time>2013-05-04T10:09:02.000Z</time>
      </trkpt>
      <trkpt lat="43.64237" lon="5.70202">
        <ele>577</ele>
        <time>2013-05-04T10:09:14.000Z</time>
      </trkpt>
      <trkpt lat="43.6424" lon="5.70195">
        <ele>577.59997558594</ele>
        <time>2013-05-04T10:09:19.000Z</time>
      </trkpt>
      <trkpt lat="43.64243" lon="5.70193">
        <ele>577.59997558594</ele>
        <time>2013-05-04T10:09:21.000Z</time>
      </trkpt>
      <trkpt lat="43.64249" lon="5.70189">
        <ele>577.40002441406</ele>
        <time>2013-05-04T10:09:26.000Z</time>
      </trkpt>
      <trkpt lat="43.64251" lon="5.70188">
        <ele>577.40002441406</ele>
        <time>2013-05-04T10:09:27.000Z</time>
      </trkpt>
      <trkpt lat="43.64252" lon="5.70187">
        <ele>577.79998779297</ele>
        <time>2013-05-04T10:09:28.000Z</time>
      </trkpt>
      <trkpt lat="43.64253" lon="5.70186">
        <ele>578</ele>
        <time>2013-05-04T10:09:29.000Z</time>
      </trkpt>
      <trkpt lat="43.64254" lon="5.70184">
        <ele>578.40002441406</ele>
        <time>2013-05-04T10:09:30.000Z</time>
      </trkpt>
      <trkpt lat="43.64255" lon="5.70183">
        <ele>578.59997558594</ele>
        <time>2013-05-04T10:09:31.000Z</time>
      </trkpt>
      <trkpt lat="43.64256" lon="5.70182">
        <ele>579</ele>
        <time>2013-05-04T10:09:32.000Z</time>
      </trkpt>
      <trkpt lat="43.64258" lon="5.70181">
        <ele>579.40002441406</ele>
        <time>2013-05-04T10:09:33.000Z</time>
      </trkpt>
      <trkpt lat="43.64259" lon="5.7018">
        <ele>579.59997558594</ele>
        <time>2013-05-04T10:09:34.000Z</time>
      </trkpt>
      <trkpt lat="43.6426" lon="5.70178">
        <ele>579.79998779297</ele>
        <time>2013-05-04T10:09:35.000Z</time>
      </trkpt>
      <trkpt lat="43.64261" lon="5.70176">
        <ele>580.20001220703</ele>
        <time>2013-05-04T10:09:37.000Z</time>
      </trkpt>
      <trkpt lat="43.64265" lon="5.70172">
        <ele>581</ele>
        <time>2013-05-04T10:09:41.000Z</time>
      </trkpt>
      <trkpt lat="43.64266" lon="5.70171">
        <ele>581.20001220703</ele>
        <time>2013-05-04T10:09:42.000Z</time>
      </trkpt>
      <trkpt lat="43.64277" lon="5.70164">
        <ele>583.59997558594</ele>
        <time>2013-05-04T10:09:52.000Z</time>
      </trkpt>
      <trkpt lat="43.64281" lon="5.70164">
        <ele>584.20001220703</ele>
        <time>2013-05-04T10:09:55.000Z</time>
      </trkpt>
      <trkpt lat="43.64282" lon="5.70165">
        <ele>584.20001220703</ele>
        <time>2013-05-04T10:09:56.000Z</time>
      </trkpt>
      <trkpt lat="43.64283" lon="5.70165">
        <ele>584.40002441406</ele>
        <time>2013-05-04T10:09:57.000Z</time>
      </trkpt>
      <trkpt lat="43.64291" lon="5.70169">
        <ele>585.40002441406</ele>
        <time>2013-05-04T10:10:04.000Z</time>
      </trkpt>
      <trkpt lat="43.64294" lon="5.70167">
        <ele>585.79998779297</ele>
        <time>2013-05-04T10:10:07.000Z</time>
      </trkpt>
      <trkpt lat="43.64295" lon="5.70166">
        <ele>586</ele>
        <time>2013-05-04T10:10:08.000Z</time>
      </trkpt>
      <trkpt lat="43.64296" lon="5.70165">
        <ele>586.40002441406</ele>
        <time>2013-05-04T10:10:09.000Z</time>
      </trkpt>
      <trkpt lat="43.64297" lon="5.70163">
        <ele>586.79998779297</ele>
        <time>2013-05-04T10:10:10.000Z</time>
      </trkpt>
      <trkpt lat="43.64297" lon="5.70162">
        <ele>587</ele>
        <time>2013-05-04T10:10:11.000Z</time>
      </trkpt>
      <trkpt lat="43.64298" lon="5.70161">
        <ele>587.20001220703</ele>
        <time>2013-05-04T10:10:12.000Z</time>
      </trkpt>
      <trkpt lat="43.64298" lon="5.70159">
        <ele>587.59997558594</ele>
        <time>2013-05-04T10:10:13.000Z</time>
      </trkpt>
      <trkpt lat="43.64306" lon="5.70147">
        <ele>590.40002441406</ele>
        <time>2013-05-04T10:10:24.000Z</time>
      </trkpt>
      <trkpt lat="43.64312" lon="5.70131">
        <ele>592.79998779297</ele>
        <time>2013-05-04T10:10:35.000Z</time>
      </trkpt>
      <trkpt lat="43.64315" lon="5.70124">
        <ele>593.79998779297</ele>
        <time>2013-05-04T10:10:40.000Z</time>
      </trkpt>
      <trkpt lat="43.64315" lon="5.70122">
        <ele>594</ele>
        <time>2013-05-04T10:10:41.000Z</time>
      </trkpt>
      <trkpt lat="43.64317" lon="5.7011">
        <ele>595.40002441406</ele>
        <time>2013-05-04T10:10:51.000Z</time>
      </trkpt>
      <trkpt lat="43.64319" lon="5.701">
        <ele>596.20001220703</ele>
        <time>2013-05-04T10:11:00.000Z</time>
      </trkpt>
      <trkpt lat="43.64323" lon="5.7009">
        <ele>597</ele>
        <time>2013-05-04T10:11:10.000Z</time>
      </trkpt>
      <trkpt lat="43.64328" lon="5.70089">
        <ele>596.79998779297</ele>
        <time>2013-05-04T10:11:17.000Z</time>
      </trkpt>
      <trkpt lat="43.64329" lon="5.7009">
        <ele>596.59997558594</ele>
        <time>2013-05-04T10:11:18.000Z</time>
      </trkpt>
      <trkpt lat="43.64331" lon="5.70091">
        <ele>596.59997558594</ele>
        <time>2013-05-04T10:11:19.000Z</time>
      </trkpt>
      <trkpt lat="43.64332" lon="5.70091">
        <ele>596.59997558594</ele>
        <time>2013-05-04T10:11:20.000Z</time>
      </trkpt>
      <trkpt lat="43.64333" lon="5.70092">
        <ele>596.40002441406</ele>
        <time>2013-05-04T10:11:21.000Z</time>
      </trkpt>
      <trkpt lat="43.64335" lon="5.70093">
        <ele>596.40002441406</ele>
        <time>2013-05-04T10:11:23.000Z</time>
      </trkpt>
      <trkpt lat="43.64336" lon="5.70094">
        <ele>596.40002441406</ele>
        <time>2013-05-04T10:11:24.000Z</time>
      </trkpt>
      <trkpt lat="43.6434" lon="5.70096">
        <ele>596.20001220703</ele>
        <time>2013-05-04T10:11:28.000Z</time>
      </trkpt>
      <trkpt lat="43.64341" lon="5.70097">
        <ele>596.20001220703</ele>
        <time>2013-05-04T10:11:29.000Z</time>
      </trkpt>
      <trkpt lat="43.64352" lon="5.70103">
        <ele>596</ele>
        <time>2013-05-04T10:11:40.000Z</time>
      </trkpt>
      <trkpt lat="43.64357" lon="5.7011">
        <ele>596</ele>
        <time>2013-05-04T10:11:46.000Z</time>
      </trkpt>
      <trkpt lat="43.64357" lon="5.70111">
        <ele>595.79998779297</ele>
        <time>2013-05-04T10:11:47.000Z</time>
      </trkpt>
      <trkpt lat="43.64357" lon="5.70112">
        <ele>595.79998779297</ele>
        <time>2013-05-04T10:11:48.000Z</time>
      </trkpt>
      <trkpt lat="43.64357" lon="5.70113">
        <ele>595.79998779297</ele>
        <time>2013-05-04T10:11:52.000Z</time>
      </trkpt>
      <trkpt lat="43.6436" lon="5.70113">
        <ele>596</ele>
        <time>2013-05-04T10:12:00.000Z</time>
      </trkpt>
      <trkpt lat="43.64366" lon="5.70108">
        <ele>596.20001220703</ele>
        <time>2013-05-04T10:12:08.000Z</time>
      </trkpt>
      <trkpt lat="43.64375" lon="5.70104">
        <ele>596.59997558594</ele>
        <time>2013-05-04T10:12:19.000Z</time>
      </trkpt>
      <trkpt lat="43.64382" lon="5.70107">
        <ele>596.59997558594</ele>
        <time>2013-05-04T10:12:27.000Z</time>
      </trkpt>
      <trkpt lat="43.64383" lon="5.70108">
        <ele>596.59997558594</ele>
        <time>2013-05-04T10:12:28.000Z</time>
      </trkpt>
      <trkpt lat="43.64386" lon="5.70107">
        <ele>596.79998779297</ele>
        <time>2013-05-04T10:12:34.000Z</time>
      </trkpt>
      <trkpt lat="43.64387" lon="5.70106">
        <ele>596.79998779297</ele>
        <time>2013-05-04T10:12:35.000Z</time>
      </trkpt>
      <trkpt lat="43.64384" lon="5.70104">
        <ele>596.79998779297</ele>
        <time>2013-05-04T10:12:44.000Z</time>
      </trkpt>
      <trkpt lat="43.64383" lon="5.70105">
        <ele>596.59997558594</ele>
        <time>2013-05-04T10:13:08.000Z</time>
      </trkpt>
      <trkpt lat="43.64386" lon="5.70106">
        <ele>596.79998779297</ele>
        <time>2013-05-04T10:13:28.000Z</time>
      </trkpt>
      <trkpt lat="43.64385" lon="5.70106">
        <ele>596.79998779297</ele>
        <time>2013-05-04T10:13:53.000Z</time>
      </trkpt>
      <trkpt lat="43.64386" lon="5.70105">
        <ele>596.79998779297</ele>
        <time>2013-05-04T10:14:15.000Z</time>
      </trkpt>
      <trkpt lat="43.64384" lon="5.70105">
        <ele>596.79998779297</ele>
        <time>2013-05-04T10:14:39.000Z</time>
      </trkpt>
      <trkpt lat="43.64384" lon="5.70103">
        <ele>596.79998779297</ele>
        <time>2013-05-04T10:15:00.000Z</time>
      </trkpt>
      <trkpt lat="43.64383" lon="5.70101">
        <ele>596.79998779297</ele>
        <time>2013-05-04T10:15:21.000Z</time>
      </trkpt>
      <trkpt lat="43.64384" lon="5.70102">
        <ele>596.79998779297</ele>
        <time>2013-05-04T10:15:22.000Z</time>
      </trkpt>
      <trkpt lat="43.64384" lon="5.70102">
        <ele>596.79998779297</ele>
        <time>2013-05-04T10:15:23.000Z</time>
      </trkpt>
      <trkpt lat="43.64386" lon="5.70103">
        <ele>596.79998779297</ele>
        <time>2013-05-04T10:15:40.000Z</time>
      </trkpt>
      <trkpt lat="43.64387" lon="5.70105">
        <ele>596.79998779297</ele>
        <time>2013-05-04T10:16:12.000Z</time>
      </trkpt>
      <trkpt lat="43.64385" lon="5.70104">
        <ele>596.79998779297</ele>
        <time>2013-05-04T10:16:34.000Z</time>
      </trkpt>
      <trkpt lat="43.64385" lon="5.70103">
        <ele>596.79998779297</ele>
        <time>2013-05-04T10:16:55.000Z</time>
      </trkpt>
      <trkpt lat="43.64383" lon="5.70105">
        <ele>596.59997558594</ele>
        <time>2013-05-04T10:17:17.000Z</time>
      </trkpt>
      <trkpt lat="43.64384" lon="5.70104">
        <ele>596.79998779297</ele>
        <time>2013-05-04T10:17:42.000Z</time>
      </trkpt>
      <trkpt lat="43.64385" lon="5.70103">
        <ele>596.79998779297</ele>
        <time>2013-05-04T10:17:59.000Z</time>
      </trkpt>
      <trkpt lat="43.64387" lon="5.70107">
        <ele>596.79998779297</ele>
        <time>2013-05-04T10:18:14.000Z</time>
      </trkpt>
      <trkpt lat="43.64387" lon="5.70109">
        <ele>596.79998779297</ele>
        <time>2013-05-04T10:18:32.000Z</time>
      </trkpt>
      <trkpt lat="43.64388" lon="5.70108">
        <ele>596.79998779297</ele>
        <time>2013-05-04T10:18:52.000Z</time>
      </trkpt>
      <trkpt lat="43.64388" lon="5.7011">
        <ele>596.79998779297</ele>
        <time>2013-05-04T10:18:57.000Z</time>
      </trkpt>
      <trkpt lat="43.64389" lon="5.7011">
        <ele>596.79998779297</ele>
        <time>2013-05-04T10:18:58.000Z</time>
      </trkpt>
      <trkpt lat="43.64389" lon="5.70107">
        <ele>596.79998779297</ele>
        <time>2013-05-04T10:19:00.000Z</time>
      </trkpt>
      <trkpt lat="43.64384" lon="5.70102">
        <ele>596.79998779297</ele>
        <time>2013-05-04T10:19:08.000Z</time>
      </trkpt>
      <trkpt lat="43.64386" lon="5.70099">
        <ele>596.79998779297</ele>
        <time>2013-05-04T10:19:15.000Z</time>
      </trkpt>
      <trkpt lat="43.64384" lon="5.70092">
        <ele>596.79998779297</ele>
        <time>2013-05-04T10:19:27.000Z</time>
      </trkpt>
      <trkpt lat="43.64381" lon="5.70072">
        <ele>599.20001220703</ele>
        <time>2013-05-04T10:19:37.000Z</time>
      </trkpt>
      <trkpt lat="43.64385" lon="5.70054">
        <ele>603</ele>
        <time>2013-05-04T10:19:48.000Z</time>
      </trkpt>
      <trkpt lat="43.64393" lon="5.70036">
        <ele>606.59997558594</ele>
        <time>2013-05-04T10:20:01.000Z</time>
      </trkpt>
      <trkpt lat="43.64393" lon="5.70034">
        <ele>607</ele>
        <time>2013-05-04T10:20:02.000Z</time>
      </trkpt>
      <trkpt lat="43.64393" lon="5.70032">
        <ele>607.40002441406</ele>
        <time>2013-05-04T10:20:03.000Z</time>
      </trkpt>
      <trkpt lat="43.64393" lon="5.7003">
        <ele>607.79998779297</ele>
        <time>2013-05-04T10:20:04.000Z</time>
      </trkpt>
      <trkpt lat="43.644" lon="5.7001">
        <ele>611.79998779297</ele>
        <time>2013-05-04T10:20:17.000Z</time>
      </trkpt>
      <trkpt lat="43.64406" lon="5.69992">
        <ele>614.40002441406</ele>
        <time>2013-05-04T10:20:29.000Z</time>
      </trkpt>
      <trkpt lat="43.64409" lon="5.69986">
        <ele>614.79998779297</ele>
        <time>2013-05-04T10:20:33.000Z</time>
      </trkpt>
      <trkpt lat="43.6441" lon="5.69984">
        <ele>615</ele>
        <time>2013-05-04T10:20:34.000Z</time>
      </trkpt>
      <trkpt lat="43.6441" lon="5.69983">
        <ele>615</ele>
        <time>2013-05-04T10:20:35.000Z</time>
      </trkpt>
      <trkpt lat="43.6441" lon="5.69981">
        <ele>615.20001220703</ele>
        <time>2013-05-04T10:20:36.000Z</time>
      </trkpt>
      <trkpt lat="43.6441" lon="5.6998">
        <ele>615.40002441406</ele>
        <time>2013-05-04T10:20:37.000Z</time>
      </trkpt>
      <trkpt lat="43.64415" lon="5.69957">
        <ele>617.20001220703</ele>
        <time>2013-05-04T10:20:50.000Z</time>
      </trkpt>
      <trkpt lat="43.64415" lon="5.69944">
        <ele>618.59997558594</ele>
        <time>2013-05-04T10:20:57.000Z</time>
      </trkpt>
      <trkpt lat="43.64415" lon="5.69942">
        <ele>618.79998779297</ele>
        <time>2013-05-04T10:20:58.000Z</time>
      </trkpt>
      <trkpt lat="43.64414" lon="5.6994">
        <ele>619</ele>
        <time>2013-05-04T10:20:59.000Z</time>
      </trkpt>
      <trkpt lat="43.64414" lon="5.69938">
        <ele>619.20001220703</ele>
        <time>2013-05-04T10:21:00.000Z</time>
      </trkpt>
      <trkpt lat="43.64413" lon="5.69936">
        <ele>619.59997558594</ele>
        <time>2013-05-04T10:21:01.000Z</time>
      </trkpt>
      <trkpt lat="43.64413" lon="5.69934">
        <ele>619.79998779297</ele>
        <time>2013-05-04T10:21:02.000Z</time>
      </trkpt>
      <trkpt lat="43.64406" lon="5.69915">
        <ele>622.79998779297</ele>
        <time>2013-05-04T10:21:12.000Z</time>
      </trkpt>
      <trkpt lat="43.64399" lon="5.699">
        <ele>624.40002441406</ele>
        <time>2013-05-04T10:21:21.000Z</time>
      </trkpt>
      <trkpt lat="43.64398" lon="5.69898">
        <ele>624.59997558594</ele>
        <time>2013-05-04T10:21:22.000Z</time>
      </trkpt>
      <trkpt lat="43.64397" lon="5.69897">
        <ele>624.79998779297</ele>
        <time>2013-05-04T10:21:23.000Z</time>
      </trkpt>
      <trkpt lat="43.64396" lon="5.69896">
        <ele>625</ele>
        <time>2013-05-04T10:21:24.000Z</time>
      </trkpt>
      <trkpt lat="43.64395" lon="5.69895">
        <ele>625.40002441406</ele>
        <time>2013-05-04T10:21:25.000Z</time>
      </trkpt>
      <trkpt lat="43.64394" lon="5.69894">
        <ele>625.59997558594</ele>
        <time>2013-05-04T10:21:26.000Z</time>
      </trkpt>
      <trkpt lat="43.64393" lon="5.69892">
        <ele>625.79998779297</ele>
        <time>2013-05-04T10:21:27.000Z</time>
      </trkpt>
      <trkpt lat="43.64392" lon="5.69891">
        <ele>626</ele>
        <time>2013-05-04T10:21:28.000Z</time>
      </trkpt>
      <trkpt lat="43.64386" lon="5.69886">
        <ele>627.40002441406</ele>
        <time>2013-05-04T10:21:33.000Z</time>
      </trkpt>
      <trkpt lat="43.64384" lon="5.69885">
        <ele>627.79998779297</ele>
        <time>2013-05-04T10:21:34.000Z</time>
      </trkpt>
      <trkpt lat="43.64383" lon="5.69884">
        <ele>628</ele>
        <time>2013-05-04T10:21:35.000Z</time>
      </trkpt>
      <trkpt lat="43.64382" lon="5.69884">
        <ele>628.40002441406</ele>
        <time>2013-05-04T10:21:36.000Z</time>
      </trkpt>
      <trkpt lat="43.6438" lon="5.69883">
        <ele>628.79998779297</ele>
        <time>2013-05-04T10:21:37.000Z</time>
      </trkpt>
      <trkpt lat="43.64379" lon="5.69882">
        <ele>629</ele>
        <time>2013-05-04T10:21:38.000Z</time>
      </trkpt>
      <trkpt lat="43.64378" lon="5.69881">
        <ele>629.40002441406</ele>
        <time>2013-05-04T10:21:39.000Z</time>
      </trkpt>
      <trkpt lat="43.64376" lon="5.6988">
        <ele>629.79998779297</ele>
        <time>2013-05-04T10:21:40.000Z</time>
      </trkpt>
      <trkpt lat="43.64375" lon="5.69879">
        <ele>630</ele>
        <time>2013-05-04T10:21:41.000Z</time>
      </trkpt>
      <trkpt lat="43.64373" lon="5.69878">
        <ele>630.40002441406</ele>
        <time>2013-05-04T10:21:42.000Z</time>
      </trkpt>
      <trkpt lat="43.64358" lon="5.69872">
        <ele>634</ele>
        <time>2013-05-04T10:21:53.000Z</time>
      </trkpt>
      <trkpt lat="43.64357" lon="5.69872">
        <ele>634.40002441406</ele>
        <time>2013-05-04T10:21:54.000Z</time>
      </trkpt>
      <trkpt lat="43.64348" lon="5.69887">
        <ele>635.40002441406</ele>
        <time>2013-05-04T10:22:03.000Z</time>
      </trkpt>
      <trkpt lat="43.64331" lon="5.69898">
        <ele>637.59997558594</ele>
        <time>2013-05-04T10:22:15.000Z</time>
      </trkpt>
      <trkpt lat="43.64316" lon="5.69909">
        <ele>638.40002441406</ele>
        <time>2013-05-04T10:22:26.000Z</time>
      </trkpt>
      <trkpt lat="43.64299" lon="5.6991">
        <ele>640.20001220703</ele>
        <time>2013-05-04T10:22:38.000Z</time>
      </trkpt>
      <trkpt lat="43.64286" lon="5.69897">
        <ele>641.79998779297</ele>
        <time>2013-05-04T10:22:49.000Z</time>
      </trkpt>
      <trkpt lat="43.64272" lon="5.6989">
        <ele>643.20001220703</ele>
        <time>2013-05-04T10:23:00.000Z</time>
      </trkpt>
      <trkpt lat="43.6427" lon="5.69891">
        <ele>643.40002441406</ele>
        <time>2013-05-04T10:23:01.000Z</time>
      </trkpt>
      <trkpt lat="43.64269" lon="5.6989">
        <ele>643.40002441406</ele>
        <time>2013-05-04T10:23:02.000Z</time>
      </trkpt>
      <trkpt lat="43.64267" lon="5.6989">
        <ele>643.59997558594</ele>
        <time>2013-05-04T10:23:03.000Z</time>
      </trkpt>
      <trkpt lat="43.64265" lon="5.69889">
        <ele>643.59997558594</ele>
        <time>2013-05-04T10:23:04.000Z</time>
      </trkpt>
      <trkpt lat="43.64264" lon="5.6989">
        <ele>643.79998779297</ele>
        <time>2013-05-04T10:23:05.000Z</time>
      </trkpt>
      <trkpt lat="43.64259" lon="5.6989">
        <ele>644.20001220703</ele>
        <time>2013-05-04T10:23:08.000Z</time>
      </trkpt>
      <trkpt lat="43.64258" lon="5.6989">
        <ele>644.40002441406</ele>
        <time>2013-05-04T10:23:09.000Z</time>
      </trkpt>
      <trkpt lat="43.64245" lon="5.69886">
        <ele>643.20001220703</ele>
        <time>2013-05-04T10:23:17.000Z</time>
      </trkpt>
      <trkpt lat="43.64244" lon="5.69883">
        <ele>643</ele>
        <time>2013-05-04T10:23:18.000Z</time>
      </trkpt>
      <trkpt lat="43.64244" lon="5.69878">
        <ele>642.59997558594</ele>
        <time>2013-05-04T10:23:20.000Z</time>
      </trkpt>
      <trkpt lat="43.64244" lon="5.69877">
        <ele>642.59997558594</ele>
        <time>2013-05-04T10:23:21.000Z</time>
      </trkpt>
      <trkpt lat="43.64245" lon="5.69874">
        <ele>642.59997558594</ele>
        <time>2013-05-04T10:23:22.000Z</time>
      </trkpt>
      <trkpt lat="43.64251" lon="5.6985">
        <ele>643.40002441406</ele>
        <time>2013-05-04T10:23:33.000Z</time>
      </trkpt>
      <trkpt lat="43.6425" lon="5.69848">
        <ele>643.40002441406</ele>
        <time>2013-05-04T10:23:34.000Z</time>
      </trkpt>
      <trkpt lat="43.64249" lon="5.69847">
        <ele>643</ele>
        <time>2013-05-04T10:23:35.000Z</time>
      </trkpt>
      <trkpt lat="43.64247" lon="5.69845">
        <ele>642.20001220703</ele>
        <time>2013-05-04T10:23:36.000Z</time>
      </trkpt>
      <trkpt lat="43.64245" lon="5.69845">
        <ele>641.40002441406</ele>
        <time>2013-05-04T10:23:37.000Z</time>
      </trkpt>
      <trkpt lat="43.64244" lon="5.69846">
        <ele>640.79998779297</ele>
        <time>2013-05-04T10:23:38.000Z</time>
      </trkpt>
      <trkpt lat="43.64242" lon="5.69846">
        <ele>640.20001220703</ele>
        <time>2013-05-04T10:23:39.000Z</time>
      </trkpt>
      <trkpt lat="43.64241" lon="5.69845">
        <ele>639.59997558594</ele>
        <time>2013-05-04T10:23:40.000Z</time>
      </trkpt>
      <trkpt lat="43.6424" lon="5.69843">
        <ele>639</ele>
        <time>2013-05-04T10:23:41.000Z</time>
      </trkpt>
      <trkpt lat="43.64239" lon="5.69841">
        <ele>638.59997558594</ele>
        <time>2013-05-04T10:23:42.000Z</time>
      </trkpt>
      <trkpt lat="43.64239" lon="5.69839">
        <ele>638.20001220703</ele>
        <time>2013-05-04T10:23:43.000Z</time>
      </trkpt>
      <trkpt lat="43.64238" lon="5.69838">
        <ele>638</ele>
        <time>2013-05-04T10:23:44.000Z</time>
      </trkpt>
      <trkpt lat="43.64237" lon="5.69836">
        <ele>637.20001220703</ele>
        <time>2013-05-04T10:23:45.000Z</time>
      </trkpt>
      <trkpt lat="43.64235" lon="5.69835">
        <ele>636.20001220703</ele>
        <time>2013-05-04T10:23:46.000Z</time>
      </trkpt>
      <trkpt lat="43.64233" lon="5.69834">
        <ele>635.40002441406</ele>
        <time>2013-05-04T10:23:47.000Z</time>
      </trkpt>
      <trkpt lat="43.64231" lon="5.69832">
        <ele>634.40002441406</ele>
        <time>2013-05-04T10:23:48.000Z</time>
      </trkpt>
      <trkpt lat="43.64223" lon="5.69827">
        <ele>630</ele>
        <time>2013-05-04T10:23:53.000Z</time>
      </trkpt>
      <trkpt lat="43.64217" lon="5.69824">
        <ele>626.79998779297</ele>
        <time>2013-05-04T10:23:57.000Z</time>
      </trkpt>
      <trkpt lat="43.64216" lon="5.69823">
        <ele>626.20001220703</ele>
        <time>2013-05-04T10:23:58.000Z</time>
      </trkpt>
      <trkpt lat="43.64215" lon="5.69822">
        <ele>625.40002441406</ele>
        <time>2013-05-04T10:23:59.000Z</time>
      </trkpt>
      <trkpt lat="43.64214" lon="5.6982">
        <ele>624.79998779297</ele>
        <time>2013-05-04T10:24:00.000Z</time>
      </trkpt>
      <trkpt lat="43.64214" lon="5.69817">
        <ele>624.20001220703</ele>
        <time>2013-05-04T10:24:01.000Z</time>
      </trkpt>
      <trkpt lat="43.64214" lon="5.69815">
        <ele>623.79998779297</ele>
        <time>2013-05-04T10:24:02.000Z</time>
      </trkpt>
      <trkpt lat="43.64214" lon="5.69811">
        <ele>623.59997558594</ele>
        <time>2013-05-04T10:24:03.000Z</time>
      </trkpt>
      <trkpt lat="43.64215" lon="5.69807">
        <ele>623.40002441406</ele>
        <time>2013-05-04T10:24:04.000Z</time>
      </trkpt>
      <trkpt lat="43.64217" lon="5.69801">
        <ele>623.40002441406</ele>
        <time>2013-05-04T10:24:05.000Z</time>
      </trkpt>
      <trkpt lat="43.64224" lon="5.69784">
        <ele>624.59997558594</ele>
        <time>2013-05-04T10:24:08.000Z</time>
      </trkpt>
      <trkpt lat="43.64227" lon="5.69772">
        <ele>624.59997558594</ele>
        <time>2013-05-04T10:24:10.000Z</time>
      </trkpt>
      <trkpt lat="43.64228" lon="5.69761">
        <ele>623.59997558594</ele>
        <time>2013-05-04T10:24:12.000Z</time>
      </trkpt>
      <trkpt lat="43.64229" lon="5.69755">
        <ele>623.40002441406</ele>
        <time>2013-05-04T10:24:13.000Z</time>
      </trkpt>
      <trkpt lat="43.64231" lon="5.6975">
        <ele>623.79998779297</ele>
        <time>2013-05-04T10:24:14.000Z</time>
      </trkpt>
      <trkpt lat="43.64237" lon="5.69737">
        <ele>623.59997558594</ele>
        <time>2013-05-04T10:24:16.000Z</time>
      </trkpt>
      <trkpt lat="43.6424" lon="5.69731">
        <ele>624.20001220703</ele>
        <time>2013-05-04T10:24:17.000Z</time>
      </trkpt>
      <trkpt lat="43.64244" lon="5.69726">
        <ele>625.59997558594</ele>
        <time>2013-05-04T10:24:18.000Z</time>
      </trkpt>
      <trkpt lat="43.64248" lon="5.69723">
        <ele>627.40002441406</ele>
        <time>2013-05-04T10:24:19.000Z</time>
      </trkpt>
      <trkpt lat="43.64257" lon="5.69717">
        <ele>628.40002441406</ele>
        <time>2013-05-04T10:24:21.000Z</time>
      </trkpt>
      <trkpt lat="43.6426" lon="5.69714">
        <ele>628.40002441406</ele>
        <time>2013-05-04T10:24:22.000Z</time>
      </trkpt>
      <trkpt lat="43.6427" lon="5.69695">
        <ele>626.59997558594</ele>
        <time>2013-05-04T10:24:28.000Z</time>
      </trkpt>
      <trkpt lat="43.64271" lon="5.6968">
        <ele>624</ele>
        <time>2013-05-04T10:24:31.000Z</time>
      </trkpt>
      <trkpt lat="43.64274" lon="5.69655">
        <ele>617.79998779297</ele>
        <time>2013-05-04T10:24:36.000Z</time>
      </trkpt>
      <trkpt lat="43.64279" lon="5.69649">
        <ele>617</ele>
        <time>2013-05-04T10:24:38.000Z</time>
      </trkpt>
      <trkpt lat="43.64283" lon="5.69647">
        <ele>617.79998779297</ele>
        <time>2013-05-04T10:24:39.000Z</time>
      </trkpt>
      <trkpt lat="43.64286" lon="5.69645">
        <ele>618.40002441406</ele>
        <time>2013-05-04T10:24:40.000Z</time>
      </trkpt>
      <trkpt lat="43.64288" lon="5.69642">
        <ele>617.79998779297</ele>
        <time>2013-05-04T10:24:41.000Z</time>
      </trkpt>
      <trkpt lat="43.64291" lon="5.69637">
        <ele>617.20001220703</ele>
        <time>2013-05-04T10:24:42.000Z</time>
      </trkpt>
      <trkpt lat="43.64295" lon="5.69634">
        <ele>617.20001220703</ele>
        <time>2013-05-04T10:24:43.000Z</time>
      </trkpt>
      <trkpt lat="43.64298" lon="5.6963">
        <ele>617</ele>
        <time>2013-05-04T10:24:44.000Z</time>
      </trkpt>
      <trkpt lat="43.643" lon="5.69625">
        <ele>616.20001220703</ele>
        <time>2013-05-04T10:24:45.000Z</time>
      </trkpt>
      <trkpt lat="43.64302" lon="5.69621">
        <ele>615.40002441406</ele>
        <time>2013-05-04T10:24:46.000Z</time>
      </trkpt>
      <trkpt lat="43.64304" lon="5.69617">
        <ele>614.79998779297</ele>
        <time>2013-05-04T10:24:47.000Z</time>
      </trkpt>
      <trkpt lat="43.64309" lon="5.69607">
        <ele>613.20001220703</ele>
        <time>2013-05-04T10:24:51.000Z</time>
      </trkpt>
      <trkpt lat="43.64309" lon="5.69602">
        <ele>611.79998779297</ele>
        <time>2013-05-04T10:24:59.000Z</time>
      </trkpt>
      <trkpt lat="43.64309" lon="5.69601">
        <ele>611.59997558594</ele>
        <time>2013-05-04T10:25:00.000Z</time>
      </trkpt>
      <trkpt lat="43.64312" lon="5.69597">
        <ele>611.20001220703</ele>
        <time>2013-05-04T10:25:09.000Z</time>
      </trkpt>
      <trkpt lat="43.64312" lon="5.69593">
        <ele>609.79998779297</ele>
        <time>2013-05-04T10:25:12.000Z</time>
      </trkpt>
      <trkpt lat="43.64311" lon="5.69592">
        <ele>609</ele>
        <time>2013-05-04T10:25:13.000Z</time>
      </trkpt>
      <trkpt lat="43.64311" lon="5.6959">
        <ele>608.59997558594</ele>
        <time>2013-05-04T10:25:14.000Z</time>
      </trkpt>
      <trkpt lat="43.64314" lon="5.69586">
        <ele>608.40002441406</ele>
        <time>2013-05-04T10:25:18.000Z</time>
      </trkpt>
      <trkpt lat="43.64316" lon="5.69585">
        <ele>608.79998779297</ele>
        <time>2013-05-04T10:25:19.000Z</time>
      </trkpt>
      <trkpt lat="43.64318" lon="5.69584">
        <ele>609.20001220703</ele>
        <time>2013-05-04T10:25:20.000Z</time>
      </trkpt>
      <trkpt lat="43.6432" lon="5.69582">
        <ele>609.40002441406</ele>
        <time>2013-05-04T10:25:21.000Z</time>
      </trkpt>
      <trkpt lat="43.64322" lon="5.6958">
        <ele>609.59997558594</ele>
        <time>2013-05-04T10:25:22.000Z</time>
      </trkpt>
      <trkpt lat="43.64325" lon="5.69572">
        <ele>607.79998779297</ele>
        <time>2013-05-04T10:25:26.000Z</time>
      </trkpt>
      <trkpt lat="43.64326" lon="5.69569">
        <ele>607</ele>
        <time>2013-05-04T10:25:27.000Z</time>
      </trkpt>
      <trkpt lat="43.64327" lon="5.69566">
        <ele>606.40002441406</ele>
        <time>2013-05-04T10:25:28.000Z</time>
      </trkpt>
      <trkpt lat="43.64328" lon="5.69562">
        <ele>605.40002441406</ele>
        <time>2013-05-04T10:25:29.000Z</time>
      </trkpt>
      <trkpt lat="43.64329" lon="5.69558">
        <ele>604.59997558594</ele>
        <time>2013-05-04T10:25:30.000Z</time>
      </trkpt>
      <trkpt lat="43.64331" lon="5.69555">
        <ele>604.20001220703</ele>
        <time>2013-05-04T10:25:31.000Z</time>
      </trkpt>
      <trkpt lat="43.64336" lon="5.69545">
        <ele>602.79998779297</ele>
        <time>2013-05-04T10:25:34.000Z</time>
      </trkpt>
      <trkpt lat="43.64338" lon="5.69543">
        <ele>602.79998779297</ele>
        <time>2013-05-04T10:25:35.000Z</time>
      </trkpt>
      <trkpt lat="43.6434" lon="5.69536">
        <ele>601.59997558594</ele>
        <time>2013-05-04T10:25:37.000Z</time>
      </trkpt>
      <trkpt lat="43.64343" lon="5.69529">
        <ele>600.40002441406</ele>
        <time>2013-05-04T10:25:39.000Z</time>
      </trkpt>
      <trkpt lat="43.64347" lon="5.69517">
        <ele>598.40002441406</ele>
        <time>2013-05-04T10:25:42.000Z</time>
      </trkpt>
      <trkpt lat="43.64353" lon="5.69498">
        <ele>594.79998779297</ele>
        <time>2013-05-04T10:25:46.000Z</time>
      </trkpt>
      <trkpt lat="43.64355" lon="5.69488">
        <ele>592.59997558594</ele>
        <time>2013-05-04T10:25:48.000Z</time>
      </trkpt>
      <trkpt lat="43.64356" lon="5.69475">
        <ele>588.59997558594</ele>
        <time>2013-05-04T10:25:51.000Z</time>
      </trkpt>
      <trkpt lat="43.64356" lon="5.69457">
        <ele>583</ele>
        <time>2013-05-04T10:25:55.000Z</time>
      </trkpt>
      <trkpt lat="43.64355" lon="5.6944">
        <ele>576.59997558594</ele>
        <time>2013-05-04T10:25:59.000Z</time>
      </trkpt>
      <trkpt lat="43.64355" lon="5.69435">
        <ele>575</ele>
        <time>2013-05-04T10:26:00.000Z</time>
      </trkpt>
      <trkpt lat="43.64356" lon="5.6943">
        <ele>573.79998779297</ele>
        <time>2013-05-04T10:26:01.000Z</time>
      </trkpt>
      <trkpt lat="43.64358" lon="5.69426">
        <ele>573.20001220703</ele>
        <time>2013-05-04T10:26:02.000Z</time>
      </trkpt>
      <trkpt lat="43.64363" lon="5.69417">
        <ele>572.40002441406</ele>
        <time>2013-05-04T10:26:04.000Z</time>
      </trkpt>
      <trkpt lat="43.64372" lon="5.69402">
        <ele>571.59997558594</ele>
        <time>2013-05-04T10:26:07.000Z</time>
      </trkpt>
      <trkpt lat="43.64381" lon="5.69383">
        <ele>569.79998779297</ele>
        <time>2013-05-04T10:26:10.000Z</time>
      </trkpt>
      <trkpt lat="43.64385" lon="5.69377">
        <ele>569.20001220703</ele>
        <time>2013-05-04T10:26:11.000Z</time>
      </trkpt>
      <trkpt lat="43.64391" lon="5.69355">
        <ele>565.20001220703</ele>
        <time>2013-05-04T10:26:14.000Z</time>
      </trkpt>
      <trkpt lat="43.64394" lon="5.69348">
        <ele>564</ele>
        <time>2013-05-04T10:26:15.000Z</time>
      </trkpt>
      <trkpt lat="43.64399" lon="5.69333">
        <ele>561.79998779297</ele>
        <time>2013-05-04T10:26:17.000Z</time>
      </trkpt>
      <trkpt lat="43.6441" lon="5.69311">
        <ele>561</ele>
        <time>2013-05-04T10:26:21.000Z</time>
      </trkpt>
      <trkpt lat="43.64412" lon="5.69306">
        <ele>561</ele>
        <time>2013-05-04T10:26:22.000Z</time>
      </trkpt>
      <trkpt lat="43.64414" lon="5.69301">
        <ele>560.59997558594</ele>
        <time>2013-05-04T10:26:23.000Z</time>
      </trkpt>
      <trkpt lat="43.64416" lon="5.69295">
        <ele>560.20001220703</ele>
        <time>2013-05-04T10:26:24.000Z</time>
      </trkpt>
      <trkpt lat="43.64417" lon="5.6929">
        <ele>559.59997558594</ele>
        <time>2013-05-04T10:26:25.000Z</time>
      </trkpt>
      <trkpt lat="43.64419" lon="5.69284">
        <ele>559.40002441406</ele>
        <time>2013-05-04T10:26:26.000Z</time>
      </trkpt>
      <trkpt lat="43.64421" lon="5.69278">
        <ele>559</ele>
        <time>2013-05-04T10:26:27.000Z</time>
      </trkpt>
      <trkpt lat="43.64422" lon="5.69272">
        <ele>558.59997558594</ele>
        <time>2013-05-04T10:26:28.000Z</time>
      </trkpt>
      <trkpt lat="43.64425" lon="5.69267">
        <ele>559</ele>
        <time>2013-05-04T10:26:29.000Z</time>
      </trkpt>
      <trkpt lat="43.64428" lon="5.69263">
        <ele>559.40002441406</ele>
        <time>2013-05-04T10:26:30.000Z</time>
      </trkpt>
      <trkpt lat="43.6443" lon="5.69257">
        <ele>559.40002441406</ele>
        <time>2013-05-04T10:26:31.000Z</time>
      </trkpt>
      <trkpt lat="43.64431" lon="5.69251">
        <ele>558.79998779297</ele>
        <time>2013-05-04T10:26:32.000Z</time>
      </trkpt>
      <trkpt lat="43.64432" lon="5.69245">
        <ele>557.79998779297</ele>
        <time>2013-05-04T10:26:33.000Z</time>
      </trkpt>
      <trkpt lat="43.64433" lon="5.69239">
        <ele>556.59997558594</ele>
        <time>2013-05-04T10:26:34.000Z</time>
      </trkpt>
      <trkpt lat="43.64433" lon="5.69234">
        <ele>555.20001220703</ele>
        <time>2013-05-04T10:26:35.000Z</time>
      </trkpt>
      <trkpt lat="43.64434" lon="5.69229">
        <ele>554.20001220703</ele>
        <time>2013-05-04T10:26:36.000Z</time>
      </trkpt>
      <trkpt lat="43.64436" lon="5.69211">
        <ele>550.59997558594</ele>
        <time>2013-05-04T10:26:39.000Z</time>
      </trkpt>
      <trkpt lat="43.64437" lon="5.69207">
        <ele>550.20001220703</ele>
        <time>2013-05-04T10:26:40.000Z</time>
      </trkpt>
      <trkpt lat="43.64437" lon="5.69203">
        <ele>549</ele>
        <time>2013-05-04T10:26:41.000Z</time>
      </trkpt>
      <trkpt lat="43.64437" lon="5.69192">
        <ele>546</ele>
        <time>2013-05-04T10:26:43.000Z</time>
      </trkpt>
      <trkpt lat="43.64438" lon="5.69185">
        <ele>544.59997558594</ele>
        <time>2013-05-04T10:26:44.000Z</time>
      </trkpt>
      <trkpt lat="43.64438" lon="5.69179">
        <ele>543.20001220703</ele>
        <time>2013-05-04T10:26:45.000Z</time>
      </trkpt>
      <trkpt lat="43.64441" lon="5.69174">
        <ele>542.79998779297</ele>
        <time>2013-05-04T10:26:46.000Z</time>
      </trkpt>
      <trkpt lat="43.64443" lon="5.69168">
        <ele>542.79998779297</ele>
        <time>2013-05-04T10:26:47.000Z</time>
      </trkpt>
      <trkpt lat="43.64449" lon="5.69153">
        <ele>542.20001220703</ele>
        <time>2013-05-04T10:26:50.000Z</time>
      </trkpt>
      <trkpt lat="43.6445" lon="5.69148">
        <ele>541.40002441406</ele>
        <time>2013-05-04T10:26:51.000Z</time>
      </trkpt>
      <trkpt lat="43.64451" lon="5.69142">
        <ele>540.59997558594</ele>
        <time>2013-05-04T10:26:52.000Z</time>
      </trkpt>
      <trkpt lat="43.64454" lon="5.69138">
        <ele>540.79998779297</ele>
        <time>2013-05-04T10:26:53.000Z</time>
      </trkpt>
      <trkpt lat="43.64457" lon="5.69135">
        <ele>541.59997558594</ele>
        <time>2013-05-04T10:26:54.000Z</time>
      </trkpt>
      <trkpt lat="43.64459" lon="5.69133">
        <ele>542</ele>
        <time>2013-05-04T10:26:55.000Z</time>
      </trkpt>
      <trkpt lat="43.6446" lon="5.69129">
        <ele>542</ele>
        <time>2013-05-04T10:26:56.000Z</time>
      </trkpt>
      <trkpt lat="43.64462" lon="5.69124">
        <ele>541.79998779297</ele>
        <time>2013-05-04T10:26:57.000Z</time>
      </trkpt>
      <trkpt lat="43.64464" lon="5.69121">
        <ele>542.20001220703</ele>
        <time>2013-05-04T10:26:58.000Z</time>
      </trkpt>
      <trkpt lat="43.64467" lon="5.69117">
        <ele>542.79998779297</ele>
        <time>2013-05-04T10:26:59.000Z</time>
      </trkpt>
      <trkpt lat="43.64469" lon="5.69114">
        <ele>543</ele>
        <time>2013-05-04T10:27:00.000Z</time>
      </trkpt>
      <trkpt lat="43.64473" lon="5.69106">
        <ele>543</ele>
        <time>2013-05-04T10:27:03.000Z</time>
      </trkpt>
      <trkpt lat="43.64473" lon="5.69102">
        <ele>542</ele>
        <time>2013-05-04T10:27:04.000Z</time>
      </trkpt>
      <trkpt lat="43.64473" lon="5.69098">
        <ele>541.59997558594</ele>
        <time>2013-05-04T10:27:05.000Z</time>
      </trkpt>
      <trkpt lat="43.64477" lon="5.69088">
        <ele>541.20001220703</ele>
        <time>2013-05-04T10:27:07.000Z</time>
      </trkpt>
      <trkpt lat="43.6448" lon="5.69084">
        <ele>541.79998779297</ele>
        <time>2013-05-04T10:27:08.000Z</time>
      </trkpt>
      <trkpt lat="43.64483" lon="5.69081">
        <ele>542.40002441406</ele>
        <time>2013-05-04T10:27:09.000Z</time>
      </trkpt>
      <trkpt lat="43.64485" lon="5.69078">
        <ele>542.40002441406</ele>
        <time>2013-05-04T10:27:10.000Z</time>
      </trkpt>
      <trkpt lat="43.64486" lon="5.69075">
        <ele>542.20001220703</ele>
        <time>2013-05-04T10:27:11.000Z</time>
      </trkpt>
      <trkpt lat="43.64487" lon="5.69072">
        <ele>541.59997558594</ele>
        <time>2013-05-04T10:27:12.000Z</time>
      </trkpt>
      <trkpt lat="43.64487" lon="5.69068">
        <ele>541</ele>
        <time>2013-05-04T10:27:13.000Z</time>
      </trkpt>
      <trkpt lat="43.64488" lon="5.69065">
        <ele>539.79998779297</ele>
        <time>2013-05-04T10:27:14.000Z</time>
      </trkpt>
      <trkpt lat="43.64488" lon="5.69054">
        <ele>537.20001220703</ele>
        <time>2013-05-04T10:27:16.000Z</time>
      </trkpt>
      <trkpt lat="43.6449" lon="5.69035">
        <ele>532.20001220703</ele>
        <time>2013-05-04T10:27:19.000Z</time>
      </trkpt>
      <trkpt lat="43.64492" lon="5.69018">
        <ele>527.79998779297</ele>
        <time>2013-05-04T10:27:24.000Z</time>
      </trkpt>
      <trkpt lat="43.64492" lon="5.69007">
        <ele>524.59997558594</ele>
        <time>2013-05-04T10:27:26.000Z</time>
      </trkpt>
      <trkpt lat="43.64492" lon="5.69">
        <ele>522.59997558594</ele>
        <time>2013-05-04T10:27:27.000Z</time>
      </trkpt>
      <trkpt lat="43.64492" lon="5.68995">
        <ele>521.59997558594</ele>
        <time>2013-05-04T10:27:28.000Z</time>
      </trkpt>
      <trkpt lat="43.64493" lon="5.68991">
        <ele>521.20001220703</ele>
        <time>2013-05-04T10:27:29.000Z</time>
      </trkpt>
      <trkpt lat="43.64494" lon="5.68985">
        <ele>520.40002441406</ele>
        <time>2013-05-04T10:27:30.000Z</time>
      </trkpt>
      <trkpt lat="43.64496" lon="5.68979">
        <ele>519.79998779297</ele>
        <time>2013-05-04T10:27:31.000Z</time>
      </trkpt>
      <trkpt lat="43.64497" lon="5.68973">
        <ele>519.20001220703</ele>
        <time>2013-05-04T10:27:32.000Z</time>
      </trkpt>
      <trkpt lat="43.64498" lon="5.68967">
        <ele>518.20001220703</ele>
        <time>2013-05-04T10:27:33.000Z</time>
      </trkpt>
      <trkpt lat="43.64498" lon="5.68962">
        <ele>517.20001220703</ele>
        <time>2013-05-04T10:27:34.000Z</time>
      </trkpt>
      <trkpt lat="43.645" lon="5.68958">
        <ele>517</ele>
        <time>2013-05-04T10:27:35.000Z</time>
      </trkpt>
      <trkpt lat="43.64502" lon="5.68953">
        <ele>517.20001220703</ele>
        <time>2013-05-04T10:27:36.000Z</time>
      </trkpt>
      <trkpt lat="43.64504" lon="5.68948">
        <ele>517.20001220703</ele>
        <time>2013-05-04T10:27:37.000Z</time>
      </trkpt>
      <trkpt lat="43.64506" lon="5.68942">
        <ele>516.79998779297</ele>
        <time>2013-05-04T10:27:38.000Z</time>
      </trkpt>
      <trkpt lat="43.64516" lon="5.68911">
        <ele>514.59997558594</ele>
        <time>2013-05-04T10:27:43.000Z</time>
      </trkpt>
      <trkpt lat="43.64519" lon="5.68904">
        <ele>514.40002441406</ele>
        <time>2013-05-04T10:27:44.000Z</time>
      </trkpt>
      <trkpt lat="43.64521" lon="5.68897">
        <ele>514.20001220703</ele>
        <time>2013-05-04T10:27:45.000Z</time>
      </trkpt>
      <trkpt lat="43.64526" lon="5.68881">
        <ele>513.40002441406</ele>
        <time>2013-05-04T10:27:47.000Z</time>
      </trkpt>
      <trkpt lat="43.64534" lon="5.68859">
        <ele>512.59997558594</ele>
        <time>2013-05-04T10:27:50.000Z</time>
      </trkpt>
      <trkpt lat="43.64536" lon="5.68852">
        <ele>512</ele>
        <time>2013-05-04T10:27:51.000Z</time>
      </trkpt>
      <trkpt lat="43.64537" lon="5.68845">
        <ele>511.20001220703</ele>
        <time>2013-05-04T10:27:52.000Z</time>
      </trkpt>
      <trkpt lat="43.64537" lon="5.68838">
        <ele>510.20001220703</ele>
        <time>2013-05-04T10:27:53.000Z</time>
      </trkpt>
      <trkpt lat="43.6454" lon="5.68831">
        <ele>509.79998779297</ele>
        <time>2013-05-04T10:27:54.000Z</time>
      </trkpt>
      <trkpt lat="43.64543" lon="5.68824">
        <ele>509.79998779297</ele>
        <time>2013-05-04T10:27:55.000Z</time>
      </trkpt>
      <trkpt lat="43.64546" lon="5.68817">
        <ele>510</ele>
        <time>2013-05-04T10:27:56.000Z</time>
      </trkpt>
      <trkpt lat="43.6455" lon="5.6881">
        <ele>510</ele>
        <time>2013-05-04T10:27:57.000Z</time>
      </trkpt>
      <trkpt lat="43.64553" lon="5.68802">
        <ele>510</ele>
        <time>2013-05-04T10:27:58.000Z</time>
      </trkpt>
      <trkpt lat="43.64559" lon="5.68789">
        <ele>510.20001220703</ele>
        <time>2013-05-04T10:28:00.000Z</time>
      </trkpt>
      <trkpt lat="43.64583" lon="5.68725">
        <ele>507.79998779297</ele>
        <time>2013-05-04T10:28:08.000Z</time>
      </trkpt>
      <trkpt lat="43.6459" lon="5.6871">
        <ele>507.79998779297</ele>
        <time>2013-05-04T10:28:10.000Z</time>
      </trkpt>
      <trkpt lat="43.64597" lon="5.68697">
        <ele>508</ele>
        <time>2013-05-04T10:28:12.000Z</time>
      </trkpt>
      <trkpt lat="43.64603" lon="5.68683">
        <ele>507.39999389648</ele>
        <time>2013-05-04T10:28:14.000Z</time>
      </trkpt>
      <trkpt lat="43.64609" lon="5.68669">
        <ele>506.79998779297</ele>
        <time>2013-05-04T10:28:16.000Z</time>
      </trkpt>
      <trkpt lat="43.64611" lon="5.68662">
        <ele>506.20001220703</ele>
        <time>2013-05-04T10:28:17.000Z</time>
      </trkpt>
      <trkpt lat="43.64615" lon="5.68655">
        <ele>506.20001220703</ele>
        <time>2013-05-04T10:28:18.000Z</time>
      </trkpt>
      <trkpt lat="43.64631" lon="5.68628">
        <ele>505.60000610352</ele>
        <time>2013-05-04T10:28:22.000Z</time>
      </trkpt>
      <trkpt lat="43.64644" lon="5.68602">
        <ele>503</ele>
        <time>2013-05-04T10:28:25.000Z</time>
      </trkpt>
      <trkpt lat="43.64652" lon="5.68588">
        <ele>501.39999389648</ele>
        <time>2013-05-04T10:28:27.000Z</time>
      </trkpt>
      <trkpt lat="43.64655" lon="5.68581">
        <ele>500.20001220703</ele>
        <time>2013-05-04T10:28:28.000Z</time>
      </trkpt>
      <trkpt lat="43.64658" lon="5.68573">
        <ele>498.79998779297</ele>
        <time>2013-05-04T10:28:29.000Z</time>
      </trkpt>
      <trkpt lat="43.64666" lon="5.68551">
        <ele>494.60000610352</ele>
        <time>2013-05-04T10:28:32.000Z</time>
      </trkpt>
      <trkpt lat="43.6467" lon="5.68544">
        <ele>493.39999389648</ele>
        <time>2013-05-04T10:28:34.000Z</time>
      </trkpt>
      <trkpt lat="43.64669" lon="5.68542">
        <ele>492.60000610352</ele>
        <time>2013-05-04T10:28:35.000Z</time>
      </trkpt>
      <trkpt lat="43.64667" lon="5.68541">
        <ele>492</ele>
        <time>2013-05-04T10:28:36.000Z</time>
      </trkpt>
      <trkpt lat="43.64665" lon="5.68542">
        <ele>491.79998779297</ele>
        <time>2013-05-04T10:28:37.000Z</time>
      </trkpt>
      <trkpt lat="43.64662" lon="5.68544">
        <ele>491.60000610352</ele>
        <time>2013-05-04T10:28:38.000Z</time>
      </trkpt>
      <trkpt lat="43.64659" lon="5.68546">
        <ele>491.60000610352</ele>
        <time>2013-05-04T10:28:39.000Z</time>
      </trkpt>
      <trkpt lat="43.64655" lon="5.68547">
        <ele>490.79998779297</ele>
        <time>2013-05-04T10:28:40.000Z</time>
      </trkpt>
      <trkpt lat="43.6465" lon="5.68547">
        <ele>490</ele>
        <time>2013-05-04T10:28:41.000Z</time>
      </trkpt>
      <trkpt lat="43.64645" lon="5.68548">
        <ele>489.20001220703</ele>
        <time>2013-05-04T10:28:42.000Z</time>
      </trkpt>
      <trkpt lat="43.64638" lon="5.6855">
        <ele>488.39999389648</ele>
        <time>2013-05-04T10:28:43.000Z</time>
      </trkpt>
      <trkpt lat="43.64632" lon="5.68554">
        <ele>487.79998779297</ele>
        <time>2013-05-04T10:28:44.000Z</time>
      </trkpt>
      <trkpt lat="43.64627" lon="5.68558">
        <ele>487.79998779297</ele>
        <time>2013-05-04T10:28:45.000Z</time>
      </trkpt>
      <trkpt lat="43.64622" lon="5.68563">
        <ele>487.79998779297</ele>
        <time>2013-05-04T10:28:46.000Z</time>
      </trkpt>
      <trkpt lat="43.64617" lon="5.68567">
        <ele>487.39999389648</ele>
        <time>2013-05-04T10:28:47.000Z</time>
      </trkpt>
      <trkpt lat="43.64611" lon="5.68567">
        <ele>486.39999389648</ele>
        <time>2013-05-04T10:28:48.000Z</time>
      </trkpt>
      <trkpt lat="43.64606" lon="5.68566">
        <ele>485</ele>
        <time>2013-05-04T10:28:49.000Z</time>
      </trkpt>
      <trkpt lat="43.64601" lon="5.68565">
        <ele>483.60000610352</ele>
        <time>2013-05-04T10:28:50.000Z</time>
      </trkpt>
      <trkpt lat="43.64596" lon="5.68565">
        <ele>482.20001220703</ele>
        <time>2013-05-04T10:28:51.000Z</time>
      </trkpt>
      <trkpt lat="43.64591" lon="5.68565">
        <ele>481</ele>
        <time>2013-05-04T10:28:52.000Z</time>
      </trkpt>
      <trkpt lat="43.64587" lon="5.68564">
        <ele>480.20001220703</ele>
        <time>2013-05-04T10:28:53.000Z</time>
      </trkpt>
      <trkpt lat="43.64585" lon="5.68562">
        <ele>479.20001220703</ele>
        <time>2013-05-04T10:28:54.000Z</time>
      </trkpt>
      <trkpt lat="43.64583" lon="5.6856">
        <ele>478.39999389648</ele>
        <time>2013-05-04T10:28:55.000Z</time>
      </trkpt>
      <trkpt lat="43.64583" lon="5.68557">
        <ele>477.79998779297</ele>
        <time>2013-05-04T10:28:56.000Z</time>
      </trkpt>
      <trkpt lat="43.64585" lon="5.68552">
        <ele>477.39999389648</ele>
        <time>2013-05-04T10:28:57.000Z</time>
      </trkpt>
      <trkpt lat="43.64587" lon="5.68547">
        <ele>476.79998779297</ele>
        <time>2013-05-04T10:28:58.000Z</time>
      </trkpt>
      <trkpt lat="43.6459" lon="5.68542">
        <ele>476.39999389648</ele>
        <time>2013-05-04T10:28:59.000Z</time>
      </trkpt>
      <trkpt lat="43.64594" lon="5.68537">
        <ele>476.20001220703</ele>
        <time>2013-05-04T10:29:00.000Z</time>
      </trkpt>
      <trkpt lat="43.64597" lon="5.68533">
        <ele>475.79998779297</ele>
        <time>2013-05-04T10:29:01.000Z</time>
      </trkpt>
      <trkpt lat="43.64599" lon="5.68527">
        <ele>474.79998779297</ele>
        <time>2013-05-04T10:29:02.000Z</time>
      </trkpt>
      <trkpt lat="43.646" lon="5.68519">
        <ele>473.60000610352</ele>
        <time>2013-05-04T10:29:03.000Z</time>
      </trkpt>
      <trkpt lat="43.64602" lon="5.68512">
        <ele>472.39999389648</ele>
        <time>2013-05-04T10:29:04.000Z</time>
      </trkpt>
      <trkpt lat="43.64603" lon="5.68506">
        <ele>471.20001220703</ele>
        <time>2013-05-04T10:29:05.000Z</time>
      </trkpt>
      <trkpt lat="43.64603" lon="5.68501">
        <ele>470.20001220703</ele>
        <time>2013-05-04T10:29:06.000Z</time>
      </trkpt>
      <trkpt lat="43.64602" lon="5.68497">
        <ele>469.20001220703</ele>
        <time>2013-05-04T10:29:07.000Z</time>
      </trkpt>
      <trkpt lat="43.646" lon="5.68495">
        <ele>468.60000610352</ele>
        <time>2013-05-04T10:29:08.000Z</time>
      </trkpt>
      <trkpt lat="43.64597" lon="5.68494">
        <ele>468</ele>
        <time>2013-05-04T10:29:09.000Z</time>
      </trkpt>
      <trkpt lat="43.64595" lon="5.68491">
        <ele>467</ele>
        <time>2013-05-04T10:29:10.000Z</time>
      </trkpt>
      <trkpt lat="43.64593" lon="5.68486">
        <ele>465.79998779297</ele>
        <time>2013-05-04T10:29:11.000Z</time>
      </trkpt>
      <trkpt lat="43.64592" lon="5.6848">
        <ele>464.60000610352</ele>
        <time>2013-05-04T10:29:12.000Z</time>
      </trkpt>
      <trkpt lat="43.6459" lon="5.68475">
        <ele>463.39999389648</ele>
        <time>2013-05-04T10:29:13.000Z</time>
      </trkpt>
      <trkpt lat="43.6459" lon="5.6847">
        <ele>462.60000610352</ele>
        <time>2013-05-04T10:29:14.000Z</time>
      </trkpt>
      <trkpt lat="43.64592" lon="5.68465">
        <ele>461.79998779297</ele>
        <time>2013-05-04T10:29:15.000Z</time>
      </trkpt>
      <trkpt lat="43.64593" lon="5.6846">
        <ele>461</ele>
        <time>2013-05-04T10:29:16.000Z</time>
      </trkpt>
      <trkpt lat="43.64593" lon="5.68454">
        <ele>460</ele>
        <time>2013-05-04T10:29:17.000Z</time>
      </trkpt>
      <trkpt lat="43.64593" lon="5.68449">
        <ele>459</ele>
        <time>2013-05-04T10:29:18.000Z</time>
      </trkpt>
      <trkpt lat="43.64593" lon="5.68438">
        <ele>457</ele>
        <time>2013-05-04T10:29:20.000Z</time>
      </trkpt>
      <trkpt lat="43.64592" lon="5.68432">
        <ele>455.79998779297</ele>
        <time>2013-05-04T10:29:21.000Z</time>
      </trkpt>
      <trkpt lat="43.64591" lon="5.68427">
        <ele>454.60000610352</ele>
        <time>2013-05-04T10:29:22.000Z</time>
      </trkpt>
      <trkpt lat="43.6459" lon="5.6842">
        <ele>453.20001220703</ele>
        <time>2013-05-04T10:29:23.000Z</time>
      </trkpt>
      <trkpt lat="43.64588" lon="5.68414">
        <ele>452.20001220703</ele>
        <time>2013-05-04T10:29:24.000Z</time>
      </trkpt>
      <trkpt lat="43.64586" lon="5.68408">
        <ele>451.20001220703</ele>
        <time>2013-05-04T10:29:25.000Z</time>
      </trkpt>
      <trkpt lat="43.64583" lon="5.68402">
        <ele>450.39999389648</ele>
        <time>2013-05-04T10:29:26.000Z</time>
      </trkpt>
      <trkpt lat="43.64581" lon="5.68396">
        <ele>449.39999389648</ele>
        <time>2013-05-04T10:29:27.000Z</time>
      </trkpt>
      <trkpt lat="43.64575" lon="5.68382">
        <ele>447.60000610352</ele>
        <time>2013-05-04T10:29:29.000Z</time>
      </trkpt>
      <trkpt lat="43.64573" lon="5.68374">
        <ele>446.60000610352</ele>
        <time>2013-05-04T10:29:30.000Z</time>
      </trkpt>
      <trkpt lat="43.64571" lon="5.68367">
        <ele>445.79998779297</ele>
        <time>2013-05-04T10:29:31.000Z</time>
      </trkpt>
      <trkpt lat="43.64571" lon="5.6836">
        <ele>445</ele>
        <time>2013-05-04T10:29:32.000Z</time>
      </trkpt>
      <trkpt lat="43.64569" lon="5.68337">
        <ele>442.39999389648</ele>
        <time>2013-05-04T10:29:35.000Z</time>
      </trkpt>
      <trkpt lat="43.64569" lon="5.6833">
        <ele>441.60000610352</ele>
        <time>2013-05-04T10:29:36.000Z</time>
      </trkpt>
      <trkpt lat="43.6457" lon="5.68321">
        <ele>440.79998779297</ele>
        <time>2013-05-04T10:29:37.000Z</time>
      </trkpt>
      <trkpt lat="43.64575" lon="5.68294">
        <ele>437.79998779297</ele>
        <time>2013-05-04T10:29:40.000Z</time>
      </trkpt>
      <trkpt lat="43.64578" lon="5.68275">
        <ele>435.60000610352</ele>
        <time>2013-05-04T10:29:42.000Z</time>
      </trkpt>
      <trkpt lat="43.64579" lon="5.68244">
        <ele>432.39999389648</ele>
        <time>2013-05-04T10:29:45.000Z</time>
      </trkpt>
      <trkpt lat="43.6458" lon="5.68222">
        <ele>430.79998779297</ele>
        <time>2013-05-04T10:29:47.000Z</time>
      </trkpt>
      <trkpt lat="43.64583" lon="5.68189">
        <ele>428.39999389648</ele>
        <time>2013-05-04T10:29:50.000Z</time>
      </trkpt>
      <trkpt lat="43.64584" lon="5.68166">
        <ele>426.79998779297</ele>
        <time>2013-05-04T10:29:52.000Z</time>
      </trkpt>
      <trkpt lat="43.64585" lon="5.68154">
        <ele>426.20001220703</ele>
        <time>2013-05-04T10:29:53.000Z</time>
      </trkpt>
      <trkpt lat="43.64587" lon="5.68142">
        <ele>425.39999389648</ele>
        <time>2013-05-04T10:29:54.000Z</time>
      </trkpt>
      <trkpt lat="43.64589" lon="5.68106">
        <ele>423.20001220703</ele>
        <time>2013-05-04T10:29:57.000Z</time>
      </trkpt>
      <trkpt lat="43.6459" lon="5.68095">
        <ele>422.39999389648</ele>
        <time>2013-05-04T10:29:58.000Z</time>
      </trkpt>
      <trkpt lat="43.64591" lon="5.68086">
        <ele>421.79998779297</ele>
        <time>2013-05-04T10:29:59.000Z</time>
      </trkpt>
      <trkpt lat="43.64593" lon="5.68078">
        <ele>421.20001220703</ele>
        <time>2013-05-04T10:30:00.000Z</time>
      </trkpt>
      <trkpt lat="43.64593" lon="5.68069">
        <ele>420.60000610352</ele>
        <time>2013-05-04T10:30:01.000Z</time>
      </trkpt>
      <trkpt lat="43.64592" lon="5.6806">
        <ele>420</ele>
        <time>2013-05-04T10:30:02.000Z</time>
      </trkpt>
      <trkpt lat="43.64589" lon="5.68052">
        <ele>419.39999389648</ele>
        <time>2013-05-04T10:30:03.000Z</time>
      </trkpt>
      <trkpt lat="43.64586" lon="5.68043">
        <ele>419</ele>
        <time>2013-05-04T10:30:04.000Z</time>
      </trkpt>
      <trkpt lat="43.64583" lon="5.68036">
        <ele>418.39999389648</ele>
        <time>2013-05-04T10:30:05.000Z</time>
      </trkpt>
      <trkpt lat="43.6458" lon="5.68032">
        <ele>418.20001220703</ele>
        <time>2013-05-04T10:30:06.000Z</time>
      </trkpt>
      <trkpt lat="43.64577" lon="5.68029">
        <ele>418</ele>
        <time>2013-05-04T10:30:07.000Z</time>
      </trkpt>
      <trkpt lat="43.64575" lon="5.68027">
        <ele>417.79998779297</ele>
        <time>2013-05-04T10:30:08.000Z</time>
      </trkpt>
      <trkpt lat="43.64574" lon="5.68024">
        <ele>417.60000610352</ele>
        <time>2013-05-04T10:30:09.000Z</time>
      </trkpt>
      <trkpt lat="43.64573" lon="5.68024">
        <ele>417.60000610352</ele>
        <time>2013-05-04T10:30:16.000Z</time>
      </trkpt>
      <trkpt lat="43.64574" lon="5.68025">
        <ele>417.60000610352</ele>
        <time>2013-05-04T10:30:28.000Z</time>
      </trkpt>
      <trkpt lat="43.64574" lon="5.68024">
        <ele>417.60000610352</ele>
        <time>2013-05-04T10:30:40.000Z</time>
      </trkpt>
      <trkpt lat="43.64573" lon="5.68023">
        <ele>417.60000610352</ele>
        <time>2013-05-04T10:30:57.000Z</time>
      </trkpt>
      <trkpt lat="43.64572" lon="5.68022">
        <ele>417.39999389648</ele>
        <time>2013-05-04T10:31:13.000Z</time>
      </trkpt>
      <trkpt lat="43.64572" lon="5.68023">
        <ele>417.60000610352</ele>
        <time>2013-05-04T10:31:29.000Z</time>
      </trkpt>
      <trkpt lat="43.64573" lon="5.68024">
        <ele>417.60000610352</ele>
        <time>2013-05-04T10:31:50.000Z</time>
      </trkpt>
      <trkpt lat="43.64573" lon="5.68024">
        <ele>417.60000610352</ele>
        <time>2013-05-04T10:32:07.000Z</time>
      </trkpt>
      <trkpt lat="43.64573" lon="5.68026">
        <ele>417.79998779297</ele>
        <time>2013-05-04T10:32:21.000Z</time>
      </trkpt>
      <trkpt lat="43.64574" lon="5.68025">
        <ele>417.60000610352</ele>
        <time>2013-05-04T10:32:38.000Z</time>
      </trkpt>
      <trkpt lat="43.64574" lon="5.68025">
        <ele>417.60000610352</ele>
        <time>2013-05-04T10:32:50.000Z</time>
      </trkpt>
      <trkpt lat="43.64574" lon="5.68025">
        <ele>417.60000610352</ele>
        <time>2013-05-04T10:33:08.000Z</time>
      </trkpt>
      <trkpt lat="43.64575" lon="5.68026">
        <ele>417.79998779297</ele>
        <time>2013-05-04T10:33:27.000Z</time>
      </trkpt>
      <trkpt lat="43.64575" lon="5.68025">
        <ele>417.60000610352</ele>
        <time>2013-05-04T10:33:49.000Z</time>
      </trkpt>
      <trkpt lat="43.64574" lon="5.68024">
        <ele>417.60000610352</ele>
        <time>2013-05-04T10:34:06.000Z</time>
      </trkpt>
      <trkpt lat="43.64573" lon="5.68024">
        <ele>417.60000610352</ele>
        <time>2013-05-04T10:34:23.000Z</time>
      </trkpt>
      <trkpt lat="43.64574" lon="5.68025">
        <ele>417.60000610352</ele>
        <time>2013-05-04T10:34:41.000Z</time>
      </trkpt>
      <trkpt lat="43.64574" lon="5.68022">
        <ele>417.39999389648</ele>
        <time>2013-05-04T10:34:54.000Z</time>
      </trkpt>
      <trkpt lat="43.64575" lon="5.6802">
        <ele>417.20001220703</ele>
        <time>2013-05-04T10:34:55.000Z</time>
      </trkpt>
      <trkpt lat="43.64575" lon="5.68017">
        <ele>417.20001220703</ele>
        <time>2013-05-04T10:34:56.000Z</time>
      </trkpt>
      <trkpt lat="43.64571" lon="5.67988">
        <ele>414.60000610352</ele>
        <time>2013-05-04T10:35:02.000Z</time>
      </trkpt>
      <trkpt lat="43.64566" lon="5.67967">
        <ele>412.60000610352</ele>
        <time>2013-05-04T10:35:05.000Z</time>
      </trkpt>
      <trkpt lat="43.64557" lon="5.67916">
        <ele>407.60000610352</ele>
        <time>2013-05-04T10:35:11.000Z</time>
      </trkpt>
      <trkpt lat="43.64555" lon="5.67906">
        <ele>407.39999389648</ele>
        <time>2013-05-04T10:35:12.000Z</time>
      </trkpt>
      <trkpt lat="43.64546" lon="5.67838">
        <ele>405.20001220703</ele>
        <time>2013-05-04T10:35:19.000Z</time>
      </trkpt>
      <trkpt lat="43.64554" lon="5.67768">
        <ele>402.60000610352</ele>
        <time>2013-05-04T10:35:26.000Z</time>
      </trkpt>
      <trkpt lat="43.64574" lon="5.67689">
        <ele>400</ele>
        <time>2013-05-04T10:35:34.000Z</time>
      </trkpt>
      <trkpt lat="43.64576" lon="5.67668">
        <ele>399</ele>
        <time>2013-05-04T10:35:36.000Z</time>
      </trkpt>
      <trkpt lat="43.64576" lon="5.67658">
        <ele>398.79998779297</ele>
        <time>2013-05-04T10:35:37.000Z</time>
      </trkpt>
      <trkpt lat="43.64575" lon="5.67647">
        <ele>398.60000610352</ele>
        <time>2013-05-04T10:35:38.000Z</time>
      </trkpt>
      <trkpt lat="43.64572" lon="5.67615">
        <ele>397.79998779297</ele>
        <time>2013-05-04T10:35:41.000Z</time>
      </trkpt>
      <trkpt lat="43.64569" lon="5.67605">
        <ele>397.60000610352</ele>
        <time>2013-05-04T10:35:42.000Z</time>
      </trkpt>
      <trkpt lat="43.64565" lon="5.67596">
        <ele>397.39999389648</ele>
        <time>2013-05-04T10:35:43.000Z</time>
      </trkpt>
      <trkpt lat="43.64553" lon="5.67569">
        <ele>396.60000610352</ele>
        <time>2013-05-04T10:35:46.000Z</time>
      </trkpt>
      <trkpt lat="43.64546" lon="5.6755">
        <ele>396</ele>
        <time>2013-05-04T10:35:48.000Z</time>
      </trkpt>
      <trkpt lat="43.64535" lon="5.67513">
        <ele>394.60000610352</ele>
        <time>2013-05-04T10:35:52.000Z</time>
      </trkpt>
      <trkpt lat="43.64524" lon="5.6742">
        <ele>388.79998779297</ele>
        <time>2013-05-04T10:36:01.000Z</time>
      </trkpt>
      <trkpt lat="43.64523" lon="5.67382">
        <ele>386.79998779297</ele>
        <time>2013-05-04T10:36:04.000Z</time>
      </trkpt>
      <trkpt lat="43.64522" lon="5.67344">
        <ele>385</ele>
        <time>2013-05-04T10:36:07.000Z</time>
      </trkpt>
      <trkpt lat="43.64519" lon="5.67332">
        <ele>384.20001220703</ele>
        <time>2013-05-04T10:36:08.000Z</time>
      </trkpt>
      <trkpt lat="43.64513" lon="5.6731">
        <ele>383</ele>
        <time>2013-05-04T10:36:10.000Z</time>
      </trkpt>
      <trkpt lat="43.64511" lon="5.67298">
        <ele>382.20001220703</ele>
        <time>2013-05-04T10:36:11.000Z</time>
      </trkpt>
      <trkpt lat="43.6451" lon="5.67286">
        <ele>381.60000610352</ele>
        <time>2013-05-04T10:36:12.000Z</time>
      </trkpt>
      <trkpt lat="43.64511" lon="5.67275">
        <ele>381</ele>
        <time>2013-05-04T10:36:13.000Z</time>
      </trkpt>
      <trkpt lat="43.64512" lon="5.67265">
        <ele>380.39999389648</ele>
        <time>2013-05-04T10:36:14.000Z</time>
      </trkpt>
      <trkpt lat="43.64515" lon="5.67256">
        <ele>380.20001220703</ele>
        <time>2013-05-04T10:36:15.000Z</time>
      </trkpt>
      <trkpt lat="43.64517" lon="5.67248">
        <ele>379.79998779297</ele>
        <time>2013-05-04T10:36:16.000Z</time>
      </trkpt>
      <trkpt lat="43.6452" lon="5.6724">
        <ele>379.39999389648</ele>
        <time>2013-05-04T10:36:17.000Z</time>
      </trkpt>
      <trkpt lat="43.64531" lon="5.67207">
        <ele>378.39999389648</ele>
        <time>2013-05-04T10:36:22.000Z</time>
      </trkpt>
      <trkpt lat="43.64532" lon="5.67201">
        <ele>378.20001220703</ele>
        <time>2013-05-04T10:36:23.000Z</time>
      </trkpt>
      <trkpt lat="43.64531" lon="5.67186">
        <ele>377.20001220703</ele>
        <time>2013-05-04T10:36:26.000Z</time>
      </trkpt>
      <trkpt lat="43.64528" lon="5.67183">
        <ele>376.79998779297</ele>
        <time>2013-05-04T10:36:27.000Z</time>
      </trkpt>
      <trkpt lat="43.64526" lon="5.6718">
        <ele>376.39999389648</ele>
        <time>2013-05-04T10:36:28.000Z</time>
      </trkpt>
      <trkpt lat="43.64525" lon="5.67178">
        <ele>376.20001220703</ele>
        <time>2013-05-04T10:36:29.000Z</time>
      </trkpt>
      <trkpt lat="43.64526" lon="5.67176">
        <ele>376.20001220703</ele>
        <time>2013-05-04T10:36:30.000Z</time>
      </trkpt>
      <trkpt lat="43.64526" lon="5.67172">
        <ele>376</ele>
        <time>2013-05-04T10:36:32.000Z</time>
      </trkpt>
      <trkpt lat="43.64527" lon="5.67165">
        <ele>375.60000610352</ele>
        <time>2013-05-04T10:36:34.000Z</time>
      </trkpt>
      <trkpt lat="43.64526" lon="5.67161">
        <ele>375.39999389648</ele>
        <time>2013-05-04T10:36:35.000Z</time>
      </trkpt>
      <trkpt lat="43.64525" lon="5.67157">
        <ele>375</ele>
        <time>2013-05-04T10:36:36.000Z</time>
      </trkpt>
      <trkpt lat="43.64524" lon="5.67152">
        <ele>374.60000610352</ele>
        <time>2013-05-04T10:36:37.000Z</time>
      </trkpt>
      <trkpt lat="43.64525" lon="5.67146">
        <ele>374.20001220703</ele>
        <time>2013-05-04T10:36:38.000Z</time>
      </trkpt>
      <trkpt lat="43.64525" lon="5.67141">
        <ele>374</ele>
        <time>2013-05-04T10:36:39.000Z</time>
      </trkpt>
      <trkpt lat="43.64527" lon="5.67125">
        <ele>373.39999389648</ele>
        <time>2013-05-04T10:36:42.000Z</time>
      </trkpt>
      <trkpt lat="43.6453" lon="5.67114">
        <ele>373</ele>
        <time>2013-05-04T10:36:44.000Z</time>
      </trkpt>
      <trkpt lat="43.64535" lon="5.67093">
        <ele>372.39999389648</ele>
        <time>2013-05-04T10:36:49.000Z</time>
      </trkpt>
      <trkpt lat="43.64536" lon="5.67089">
        <ele>372.39999389648</ele>
        <time>2013-05-04T10:36:50.000Z</time>
      </trkpt>
      <trkpt lat="43.64537" lon="5.67084">
        <ele>372.20001220703</ele>
        <time>2013-05-04T10:36:51.000Z</time>
      </trkpt>
      <trkpt lat="43.64538" lon="5.67078">
        <ele>372.20001220703</ele>
        <time>2013-05-04T10:36:52.000Z</time>
      </trkpt>
      <trkpt lat="43.64539" lon="5.67072">
        <ele>372.20001220703</ele>
        <time>2013-05-04T10:36:53.000Z</time>
      </trkpt>
      <trkpt lat="43.64539" lon="5.67066">
        <ele>372.20001220703</ele>
        <time>2013-05-04T10:36:54.000Z</time>
      </trkpt>
      <trkpt lat="43.6454" lon="5.67059">
        <ele>372.20001220703</ele>
        <time>2013-05-04T10:36:55.000Z</time>
      </trkpt>
      <trkpt lat="43.64541" lon="5.67053">
        <ele>372.20001220703</ele>
        <time>2013-05-04T10:36:56.000Z</time>
      </trkpt>
      <trkpt lat="43.64542" lon="5.67047">
        <ele>372.39999389648</ele>
        <time>2013-05-04T10:36:57.000Z</time>
      </trkpt>
      <trkpt lat="43.64543" lon="5.67043">
        <ele>372.39999389648</ele>
        <time>2013-05-04T10:36:58.000Z</time>
      </trkpt>
      <trkpt lat="43.64544" lon="5.67038">
        <ele>372.39999389648</ele>
        <time>2013-05-04T10:36:59.000Z</time>
      </trkpt>
      <trkpt lat="43.64544" lon="5.67032">
        <ele>372.20001220703</ele>
        <time>2013-05-04T10:37:00.000Z</time>
      </trkpt>
      <trkpt lat="43.64544" lon="5.67025">
        <ele>372.20001220703</ele>
        <time>2013-05-04T10:37:01.000Z</time>
      </trkpt>
      <trkpt lat="43.64545" lon="5.67019">
        <ele>372.20001220703</ele>
        <time>2013-05-04T10:37:02.000Z</time>
      </trkpt>
      <trkpt lat="43.64545" lon="5.67012">
        <ele>372</ele>
        <time>2013-05-04T10:37:03.000Z</time>
      </trkpt>
      <trkpt lat="43.64544" lon="5.67005">
        <ele>371.79998779297</ele>
        <time>2013-05-04T10:37:04.000Z</time>
      </trkpt>
      <trkpt lat="43.64543" lon="5.66994">
        <ele>371.39999389648</ele>
        <time>2013-05-04T10:37:07.000Z</time>
      </trkpt>
      <trkpt lat="43.6454" lon="5.66992">
        <ele>371</ele>
        <time>2013-05-04T10:37:08.000Z</time>
      </trkpt>
      <trkpt lat="43.64537" lon="5.66989">
        <ele>370.60000610352</ele>
        <time>2013-05-04T10:37:09.000Z</time>
      </trkpt>
      <trkpt lat="43.64534" lon="5.66984">
        <ele>370.20001220703</ele>
        <time>2013-05-04T10:37:10.000Z</time>
      </trkpt>
      <trkpt lat="43.6453" lon="5.66978">
        <ele>369.60000610352</ele>
        <time>2013-05-04T10:37:11.000Z</time>
      </trkpt>
      <trkpt lat="43.64526" lon="5.66973">
        <ele>369.20001220703</ele>
        <time>2013-05-04T10:37:12.000Z</time>
      </trkpt>
      <trkpt lat="43.64522" lon="5.66968">
        <ele>369</ele>
        <time>2013-05-04T10:37:13.000Z</time>
      </trkpt>
      <trkpt lat="43.64517" lon="5.66963">
        <ele>368.60000610352</ele>
        <time>2013-05-04T10:37:14.000Z</time>
      </trkpt>
      <trkpt lat="43.64504" lon="5.66946">
        <ele>368</ele>
        <time>2013-05-04T10:37:17.000Z</time>
      </trkpt>
      <trkpt lat="43.645" lon="5.6694">
        <ele>368</ele>
        <time>2013-05-04T10:37:18.000Z</time>
      </trkpt>
      <trkpt lat="43.64497" lon="5.66934">
        <ele>367.60000610352</ele>
        <time>2013-05-04T10:37:19.000Z</time>
      </trkpt>
      <trkpt lat="43.64486" lon="5.66912">
        <ele>366.39999389648</ele>
        <time>2013-05-04T10:37:22.000Z</time>
      </trkpt>
      <trkpt lat="43.64451" lon="5.66861">
        <ele>361</ele>
        <time>2013-05-04T10:37:30.000Z</time>
      </trkpt>
      <trkpt lat="43.64447" lon="5.66856">
        <ele>360.60000610352</ele>
        <time>2013-05-04T10:37:31.000Z</time>
      </trkpt>
      <trkpt lat="43.64439" lon="5.66842">
        <ele>360.20001220703</ele>
        <time>2013-05-04T10:37:33.000Z</time>
      </trkpt>
      <trkpt lat="43.64431" lon="5.66828">
        <ele>360</ele>
        <time>2013-05-04T10:37:35.000Z</time>
      </trkpt>
      <trkpt lat="43.64404" lon="5.66788">
        <ele>357.39999389648</ele>
        <time>2013-05-04T10:37:41.000Z</time>
      </trkpt>
      <trkpt lat="43.64401" lon="5.66781">
        <ele>356.79998779297</ele>
        <time>2013-05-04T10:37:42.000Z</time>
      </trkpt>
      <trkpt lat="43.64371" lon="5.66718">
        <ele>354.20001220703</ele>
        <time>2013-05-04T10:37:50.000Z</time>
      </trkpt>
      <trkpt lat="43.64358" lon="5.66699">
        <ele>354.20001220703</ele>
        <time>2013-05-04T10:37:53.000Z</time>
      </trkpt>
      <trkpt lat="43.64353" lon="5.66695">
        <ele>354.20001220703</ele>
        <time>2013-05-04T10:37:54.000Z</time>
      </trkpt>
      <trkpt lat="43.64347" lon="5.66691">
        <ele>354.20001220703</ele>
        <time>2013-05-04T10:37:55.000Z</time>
      </trkpt>
      <trkpt lat="43.64342" lon="5.66688">
        <ele>354.20001220703</ele>
        <time>2013-05-04T10:37:56.000Z</time>
      </trkpt>
      <trkpt lat="43.64337" lon="5.66684">
        <ele>354.39999389648</ele>
        <time>2013-05-04T10:37:57.000Z</time>
      </trkpt>
      <trkpt lat="43.64334" lon="5.66679">
        <ele>354.79998779297</ele>
        <time>2013-05-04T10:37:58.000Z</time>
      </trkpt>
      <trkpt lat="43.64332" lon="5.66674">
        <ele>355</ele>
        <time>2013-05-04T10:37:59.000Z</time>
      </trkpt>
      <trkpt lat="43.64329" lon="5.66664">
        <ele>355.39999389648</ele>
        <time>2013-05-04T10:38:01.000Z</time>
      </trkpt>
      <trkpt lat="43.64329" lon="5.66658">
        <ele>355.39999389648</ele>
        <time>2013-05-04T10:38:02.000Z</time>
      </trkpt>
      <trkpt lat="43.64327" lon="5.66653">
        <ele>355.20001220703</ele>
        <time>2013-05-04T10:38:03.000Z</time>
      </trkpt>
      <trkpt lat="43.64324" lon="5.66649">
        <ele>354.79998779297</ele>
        <time>2013-05-04T10:38:04.000Z</time>
      </trkpt>
      <trkpt lat="43.64321" lon="5.66646">
        <ele>354.60000610352</ele>
        <time>2013-05-04T10:38:05.000Z</time>
      </trkpt>
      <trkpt lat="43.64319" lon="5.66642">
        <ele>354.39999389648</ele>
        <time>2013-05-04T10:38:06.000Z</time>
      </trkpt>
      <trkpt lat="43.64319" lon="5.66619">
        <ele>354.79998779297</ele>
        <time>2013-05-04T10:38:11.000Z</time>
      </trkpt>
      <trkpt lat="43.64318" lon="5.66615">
        <ele>355</ele>
        <time>2013-05-04T10:38:12.000Z</time>
      </trkpt>
      <trkpt lat="43.64317" lon="5.66612">
        <ele>355</ele>
        <time>2013-05-04T10:38:13.000Z</time>
      </trkpt>
      <trkpt lat="43.64315" lon="5.66604">
        <ele>355</ele>
        <time>2013-05-04T10:38:15.000Z</time>
      </trkpt>
      <trkpt lat="43.64312" lon="5.666">
        <ele>354.79998779297</ele>
        <time>2013-05-04T10:38:16.000Z</time>
      </trkpt>
      <trkpt lat="43.64311" lon="5.66596">
        <ele>354.79998779297</ele>
        <time>2013-05-04T10:38:17.000Z</time>
      </trkpt>
      <trkpt lat="43.64309" lon="5.66592">
        <ele>354.79998779297</ele>
        <time>2013-05-04T10:38:18.000Z</time>
      </trkpt>
      <trkpt lat="43.64308" lon="5.66587">
        <ele>355</ele>
        <time>2013-05-04T10:38:19.000Z</time>
      </trkpt>
      <trkpt lat="43.64307" lon="5.66584">
        <ele>355</ele>
        <time>2013-05-04T10:38:20.000Z</time>
      </trkpt>
      <trkpt lat="43.64308" lon="5.6658">
        <ele>355</ele>
        <time>2013-05-04T10:38:21.000Z</time>
      </trkpt>
      <trkpt lat="43.64309" lon="5.66576">
        <ele>355</ele>
        <time>2013-05-04T10:38:22.000Z</time>
      </trkpt>
      <trkpt lat="43.64307" lon="5.66572">
        <ele>354.79998779297</ele>
        <time>2013-05-04T10:38:23.000Z</time>
      </trkpt>
      <trkpt lat="43.64306" lon="5.66568">
        <ele>354.60000610352</ele>
        <time>2013-05-04T10:38:24.000Z</time>
      </trkpt>
      <trkpt lat="43.64304" lon="5.66564">
        <ele>354.39999389648</ele>
        <time>2013-05-04T10:38:25.000Z</time>
      </trkpt>
      <trkpt lat="43.64303" lon="5.66561">
        <ele>354.20001220703</ele>
        <time>2013-05-04T10:38:26.000Z</time>
      </trkpt>
      <trkpt lat="43.64301" lon="5.66558">
        <ele>354</ele>
        <time>2013-05-04T10:38:27.000Z</time>
      </trkpt>
      <trkpt lat="43.643" lon="5.66555">
        <ele>354</ele>
        <time>2013-05-04T10:38:28.000Z</time>
      </trkpt>
      <trkpt lat="43.643" lon="5.66552">
        <ele>354</ele>
        <time>2013-05-04T10:38:29.000Z</time>
      </trkpt>
      <trkpt lat="43.643" lon="5.66549">
        <ele>353.79998779297</ele>
        <time>2013-05-04T10:38:30.000Z</time>
      </trkpt>
      <trkpt lat="43.64299" lon="5.66547">
        <ele>353.60000610352</ele>
        <time>2013-05-04T10:38:31.000Z</time>
      </trkpt>
      <trkpt lat="43.6429" lon="5.6652">
        <ele>352.60000610352</ele>
        <time>2013-05-04T10:38:37.000Z</time>
      </trkpt>
      <trkpt lat="43.64283" lon="5.665">
        <ele>352</ele>
        <time>2013-05-04T10:38:43.000Z</time>
      </trkpt>
      <trkpt lat="43.64281" lon="5.66465">
        <ele>351.60000610352</ele>
        <time>2013-05-04T10:38:50.000Z</time>
      </trkpt>
      <trkpt lat="43.64283" lon="5.6646">
        <ele>351.60000610352</ele>
        <time>2013-05-04T10:38:51.000Z</time>
      </trkpt>
      <trkpt lat="43.64285" lon="5.6645">
        <ele>351.60000610352</ele>
        <time>2013-05-04T10:38:53.000Z</time>
      </trkpt>
      <trkpt lat="43.64282" lon="5.66436">
        <ele>351.39999389648</ele>
        <time>2013-05-04T10:38:56.000Z</time>
      </trkpt>
      <trkpt lat="43.64272" lon="5.66425">
        <ele>351.20001220703</ele>
        <time>2013-05-04T10:38:59.000Z</time>
      </trkpt>
      <trkpt lat="43.64268" lon="5.66421">
        <ele>351.20001220703</ele>
        <time>2013-05-04T10:39:00.000Z</time>
      </trkpt>
      <trkpt lat="43.64264" lon="5.66418">
        <ele>351</ele>
        <time>2013-05-04T10:39:01.000Z</time>
      </trkpt>
      <trkpt lat="43.64252" lon="5.66409">
        <ele>350.60000610352</ele>
        <time>2013-05-04T10:39:05.000Z</time>
      </trkpt>
      <trkpt lat="43.64249" lon="5.66409">
        <ele>350.60000610352</ele>
        <time>2013-05-04T10:39:06.000Z</time>
      </trkpt>
      <trkpt lat="43.64233" lon="5.66416">
        <ele>348.20001220703</ele>
        <time>2013-05-04T10:39:11.000Z</time>
      </trkpt>
      <trkpt lat="43.64232" lon="5.66416">
        <ele>348</ele>
        <time>2013-05-04T10:39:12.000Z</time>
      </trkpt>
      <trkpt lat="43.64226" lon="5.66424">
        <ele>347</ele>
        <time>2013-05-04T10:39:16.000Z</time>
      </trkpt>
      <trkpt lat="43.64226" lon="5.66426">
        <ele>346.79998779297</ele>
        <time>2013-05-04T10:39:17.000Z</time>
      </trkpt>
      <trkpt lat="43.64223" lon="5.66435">
        <ele>346</ele>
        <time>2013-05-04T10:39:20.000Z</time>
      </trkpt>
      <trkpt lat="43.6422" lon="5.66436">
        <ele>345.39999389648</ele>
        <time>2013-05-04T10:39:21.000Z</time>
      </trkpt>
      <trkpt lat="43.64217" lon="5.66436">
        <ele>344.79998779297</ele>
        <time>2013-05-04T10:39:22.000Z</time>
      </trkpt>
      <trkpt lat="43.64211" lon="5.66434">
        <ele>343.79998779297</ele>
        <time>2013-05-04T10:39:24.000Z</time>
      </trkpt>
      <trkpt lat="43.64209" lon="5.66432">
        <ele>343.60000610352</ele>
        <time>2013-05-04T10:39:25.000Z</time>
      </trkpt>
      <trkpt lat="43.64208" lon="5.66428">
        <ele>343.60000610352</ele>
        <time>2013-05-04T10:39:26.000Z</time>
      </trkpt>
      <trkpt lat="43.64208" lon="5.66424">
        <ele>343.79998779297</ele>
        <time>2013-05-04T10:39:27.000Z</time>
      </trkpt>
      <trkpt lat="43.64207" lon="5.66421">
        <ele>343.79998779297</ele>
        <time>2013-05-04T10:39:28.000Z</time>
      </trkpt>
      <trkpt lat="43.64204" lon="5.66418">
        <ele>343.60000610352</ele>
        <time>2013-05-04T10:39:29.000Z</time>
      </trkpt>
      <trkpt lat="43.64203" lon="5.66413">
        <ele>343.39999389648</ele>
        <time>2013-05-04T10:39:30.000Z</time>
      </trkpt>
      <trkpt lat="43.64203" lon="5.66408">
        <ele>343.39999389648</ele>
        <time>2013-05-04T10:39:31.000Z</time>
      </trkpt>
      <trkpt lat="43.64202" lon="5.66403">
        <ele>343.39999389648</ele>
        <time>2013-05-04T10:39:32.000Z</time>
      </trkpt>
      <trkpt lat="43.64202" lon="5.66398">
        <ele>343.20001220703</ele>
        <time>2013-05-04T10:39:33.000Z</time>
      </trkpt>
      <trkpt lat="43.64201" lon="5.66393">
        <ele>343</ele>
        <time>2013-05-04T10:39:34.000Z</time>
      </trkpt>
      <trkpt lat="43.64201" lon="5.66388">
        <ele>343</ele>
        <time>2013-05-04T10:39:35.000Z</time>
      </trkpt>
      <trkpt lat="43.64203" lon="5.66383">
        <ele>343.20001220703</ele>
        <time>2013-05-04T10:39:36.000Z</time>
      </trkpt>
      <trkpt lat="43.64206" lon="5.66379">
        <ele>343.60000610352</ele>
        <time>2013-05-04T10:39:37.000Z</time>
      </trkpt>
      <trkpt lat="43.64213" lon="5.66361">
        <ele>344.20001220703</ele>
        <time>2013-05-04T10:39:42.000Z</time>
      </trkpt>
      <trkpt lat="43.64213" lon="5.66358">
        <ele>344.39999389648</ele>
        <time>2013-05-04T10:39:43.000Z</time>
      </trkpt>
      <trkpt lat="43.64214" lon="5.66356">
        <ele>344.39999389648</ele>
        <time>2013-05-04T10:39:44.000Z</time>
      </trkpt>
      <trkpt lat="43.64213" lon="5.66352">
        <ele>344.20001220703</ele>
        <time>2013-05-04T10:39:45.000Z</time>
      </trkpt>
      <trkpt lat="43.64213" lon="5.66348">
        <ele>344</ele>
        <time>2013-05-04T10:39:46.000Z</time>
      </trkpt>
      <trkpt lat="43.64212" lon="5.66344">
        <ele>344</ele>
        <time>2013-05-04T10:39:47.000Z</time>
      </trkpt>
      <trkpt lat="43.64211" lon="5.66341">
        <ele>343.79998779297</ele>
        <time>2013-05-04T10:39:48.000Z</time>
      </trkpt>
      <trkpt lat="43.6421" lon="5.66337">
        <ele>343.60000610352</ele>
        <time>2013-05-04T10:39:49.000Z</time>
      </trkpt>
      <trkpt lat="43.64189" lon="5.663">
        <ele>341</ele>
        <time>2013-05-04T10:39:58.000Z</time>
      </trkpt>
      <trkpt lat="43.64179" lon="5.66281">
        <ele>340.20001220703</ele>
        <time>2013-05-04T10:40:02.000Z</time>
      </trkpt>
      <trkpt lat="43.64177" lon="5.66276">
        <ele>340</ele>
        <time>2013-05-04T10:40:03.000Z</time>
      </trkpt>
      <trkpt lat="43.64175" lon="5.6627">
        <ele>340</ele>
        <time>2013-05-04T10:40:04.000Z</time>
      </trkpt>
      <trkpt lat="43.64175" lon="5.66263">
        <ele>340</ele>
        <time>2013-05-04T10:40:05.000Z</time>
      </trkpt>
      <trkpt lat="43.64175" lon="5.66257">
        <ele>340</ele>
        <time>2013-05-04T10:40:06.000Z</time>
      </trkpt>
      <trkpt lat="43.64176" lon="5.66251">
        <ele>340.20001220703</ele>
        <time>2013-05-04T10:40:07.000Z</time>
      </trkpt>
      <trkpt lat="43.64177" lon="5.66244">
        <ele>340.20001220703</ele>
        <time>2013-05-04T10:40:08.000Z</time>
      </trkpt>
      <trkpt lat="43.64177" lon="5.66238">
        <ele>340.20001220703</ele>
        <time>2013-05-04T10:40:09.000Z</time>
      </trkpt>
      <trkpt lat="43.64177" lon="5.66232">
        <ele>340.20001220703</ele>
        <time>2013-05-04T10:40:10.000Z</time>
      </trkpt>
      <trkpt lat="43.64175" lon="5.66226">
        <ele>340.20001220703</ele>
        <time>2013-05-04T10:40:11.000Z</time>
      </trkpt>
      <trkpt lat="43.64174" lon="5.66221">
        <ele>340.39999389648</ele>
        <time>2013-05-04T10:40:12.000Z</time>
      </trkpt>
      <trkpt lat="43.64172" lon="5.66215">
        <ele>340.39999389648</ele>
        <time>2013-05-04T10:40:13.000Z</time>
      </trkpt>
      <trkpt lat="43.6417" lon="5.66211">
        <ele>340.39999389648</ele>
        <time>2013-05-04T10:40:14.000Z</time>
      </trkpt>
      <trkpt lat="43.64166" lon="5.66206">
        <ele>340.39999389648</ele>
        <time>2013-05-04T10:40:15.000Z</time>
      </trkpt>
      <trkpt lat="43.64162" lon="5.66202">
        <ele>339.60000610352</ele>
        <time>2013-05-04T10:40:16.000Z</time>
      </trkpt>
      <trkpt lat="43.64153" lon="5.66191">
        <ele>338</ele>
        <time>2013-05-04T10:40:18.000Z</time>
      </trkpt>
      <trkpt lat="43.64148" lon="5.66185">
        <ele>337.39999389648</ele>
        <time>2013-05-04T10:40:19.000Z</time>
      </trkpt>
      <trkpt lat="43.64142" lon="5.6618">
        <ele>336.60000610352</ele>
        <time>2013-05-04T10:40:20.000Z</time>
      </trkpt>
      <trkpt lat="43.64125" lon="5.66166">
        <ele>334.39999389648</ele>
        <time>2013-05-04T10:40:23.000Z</time>
      </trkpt>
      <trkpt lat="43.6412" lon="5.66159">
        <ele>333.79998779297</ele>
        <time>2013-05-04T10:40:24.000Z</time>
      </trkpt>
      <trkpt lat="43.64117" lon="5.66151">
        <ele>333.39999389648</ele>
        <time>2013-05-04T10:40:25.000Z</time>
      </trkpt>
      <trkpt lat="43.64107" lon="5.66125">
        <ele>332.60000610352</ele>
        <time>2013-05-04T10:40:28.000Z</time>
      </trkpt>
      <trkpt lat="43.64102" lon="5.6612">
        <ele>332</ele>
        <time>2013-05-04T10:40:29.000Z</time>
      </trkpt>
      <trkpt lat="43.64096" lon="5.66116">
        <ele>331.39999389648</ele>
        <time>2013-05-04T10:40:30.000Z</time>
      </trkpt>
      <trkpt lat="43.64091" lon="5.66112">
        <ele>330.79998779297</ele>
        <time>2013-05-04T10:40:31.000Z</time>
      </trkpt>
      <trkpt lat="43.64086" lon="5.66107">
        <ele>330.39999389648</ele>
        <time>2013-05-04T10:40:32.000Z</time>
      </trkpt>
      <trkpt lat="43.64083" lon="5.66102">
        <ele>330.20001220703</ele>
        <time>2013-05-04T10:40:33.000Z</time>
      </trkpt>
      <trkpt lat="43.6408" lon="5.66097">
        <ele>329.79998779297</ele>
        <time>2013-05-04T10:40:34.000Z</time>
      </trkpt>
      <trkpt lat="43.64078" lon="5.66092">
        <ele>329.60000610352</ele>
        <time>2013-05-04T10:40:35.000Z</time>
      </trkpt>
      <trkpt lat="43.64076" lon="5.66086">
        <ele>329.60000610352</ele>
        <time>2013-05-04T10:40:36.000Z</time>
      </trkpt>
      <trkpt lat="43.64076" lon="5.6608">
        <ele>329.39999389648</ele>
        <time>2013-05-04T10:40:37.000Z</time>
      </trkpt>
      <trkpt lat="43.64076" lon="5.66074">
        <ele>329.20001220703</ele>
        <time>2013-05-04T10:40:38.000Z</time>
      </trkpt>
      <trkpt lat="43.64077" lon="5.66067">
        <ele>329.20001220703</ele>
        <time>2013-05-04T10:40:39.000Z</time>
      </trkpt>
      <trkpt lat="43.64078" lon="5.66059">
        <ele>329.20001220703</ele>
        <time>2013-05-04T10:40:40.000Z</time>
      </trkpt>
      <trkpt lat="43.64089" lon="5.65983">
        <ele>327.20001220703</ele>
        <time>2013-05-04T10:40:48.000Z</time>
      </trkpt>
      <trkpt lat="43.64092" lon="5.65964">
        <ele>326.20001220703</ele>
        <time>2013-05-04T10:40:50.000Z</time>
      </trkpt>
      <trkpt lat="43.64092" lon="5.65955">
        <ele>325.60000610352</ele>
        <time>2013-05-04T10:40:51.000Z</time>
      </trkpt>
      <trkpt lat="43.6409" lon="5.65946">
        <ele>325</ele>
        <time>2013-05-04T10:40:52.000Z</time>
      </trkpt>
      <trkpt lat="43.64087" lon="5.65939">
        <ele>324.39999389648</ele>
        <time>2013-05-04T10:40:53.000Z</time>
      </trkpt>
      <trkpt lat="43.64084" lon="5.65932">
        <ele>323.79998779297</ele>
        <time>2013-05-04T10:40:54.000Z</time>
      </trkpt>
      <trkpt lat="43.64068" lon="5.65904">
        <ele>321</ele>
        <time>2013-05-04T10:40:58.000Z</time>
      </trkpt>
      <trkpt lat="43.64064" lon="5.65896">
        <ele>320.20001220703</ele>
        <time>2013-05-04T10:40:59.000Z</time>
      </trkpt>
      <trkpt lat="43.64063" lon="5.65891">
        <ele>319.79998779297</ele>
        <time>2013-05-04T10:41:00.000Z</time>
      </trkpt>
      <trkpt lat="43.64063" lon="5.65887">
        <ele>319.60000610352</ele>
        <time>2013-05-04T10:41:01.000Z</time>
      </trkpt>
      <trkpt lat="43.64065" lon="5.65884">
        <ele>319.60000610352</ele>
        <time>2013-05-04T10:41:09.000Z</time>
      </trkpt>
      <trkpt lat="43.64066" lon="5.65884">
        <ele>319.60000610352</ele>
        <time>2013-05-04T10:41:29.000Z</time>
      </trkpt>
      <trkpt lat="43.64065" lon="5.65883">
        <ele>319.39999389648</ele>
        <time>2013-05-04T10:41:51.000Z</time>
      </trkpt>
      <trkpt lat="43.64064" lon="5.65859">
        <ele>318</ele>
        <time>2013-05-04T10:41:56.000Z</time>
      </trkpt>
      <trkpt lat="43.64063" lon="5.65853">
        <ele>317.60000610352</ele>
        <time>2013-05-04T10:41:57.000Z</time>
      </trkpt>
      <trkpt lat="43.64061" lon="5.65847">
        <ele>317.20001220703</ele>
        <time>2013-05-04T10:41:58.000Z</time>
      </trkpt>
      <trkpt lat="43.64058" lon="5.65832">
        <ele>316.20001220703</ele>
        <time>2013-05-04T10:42:00.000Z</time>
      </trkpt>
      <trkpt lat="43.64057" lon="5.65824">
        <ele>315.79998779297</ele>
        <time>2013-05-04T10:42:01.000Z</time>
      </trkpt>
      <trkpt lat="43.64059" lon="5.65817">
        <ele>315.60000610352</ele>
        <time>2013-05-04T10:42:02.000Z</time>
      </trkpt>
      <trkpt lat="43.64062" lon="5.65811">
        <ele>315.39999389648</ele>
        <time>2013-05-04T10:42:03.000Z</time>
      </trkpt>
      <trkpt lat="43.64065" lon="5.65807">
        <ele>315.39999389648</ele>
        <time>2013-05-04T10:42:04.000Z</time>
      </trkpt>
      <trkpt lat="43.64069" lon="5.65799">
        <ele>315</ele>
        <time>2013-05-04T10:42:06.000Z</time>
      </trkpt>
      <trkpt lat="43.6407" lon="5.65792">
        <ele>314.79998779297</ele>
        <time>2013-05-04T10:42:07.000Z</time>
      </trkpt>
      <trkpt lat="43.64069" lon="5.65785">
        <ele>314.39999389648</ele>
        <time>2013-05-04T10:42:08.000Z</time>
      </trkpt>
      <trkpt lat="43.64069" lon="5.65777">
        <ele>314.20001220703</ele>
        <time>2013-05-04T10:42:09.000Z</time>
      </trkpt>
      <trkpt lat="43.64071" lon="5.65771">
        <ele>313.79998779297</ele>
        <time>2013-05-04T10:42:10.000Z</time>
      </trkpt>
      <trkpt lat="43.64074" lon="5.65766">
        <ele>313.60000610352</ele>
        <time>2013-05-04T10:42:11.000Z</time>
      </trkpt>
      <trkpt lat="43.64078" lon="5.65763">
        <ele>313.39999389648</ele>
        <time>2013-05-04T10:42:12.000Z</time>
      </trkpt>
      <trkpt lat="43.64082" lon="5.65758">
        <ele>313.39999389648</ele>
        <time>2013-05-04T10:42:13.000Z</time>
      </trkpt>
      <trkpt lat="43.64085" lon="5.65754">
        <ele>313.20001220703</ele>
        <time>2013-05-04T10:42:14.000Z</time>
      </trkpt>
      <trkpt lat="43.64088" lon="5.65748">
        <ele>313.60000610352</ele>
        <time>2013-05-04T10:42:15.000Z</time>
      </trkpt>
      <trkpt lat="43.6409" lon="5.65741">
        <ele>314.20001220703</ele>
        <time>2013-05-04T10:42:16.000Z</time>
      </trkpt>
      <trkpt lat="43.6409" lon="5.65735">
        <ele>314.79998779297</ele>
        <time>2013-05-04T10:42:17.000Z</time>
      </trkpt>
      <trkpt lat="43.64088" lon="5.65728">
        <ele>315</ele>
        <time>2013-05-04T10:42:18.000Z</time>
      </trkpt>
      <trkpt lat="43.64085" lon="5.65722">
        <ele>315</ele>
        <time>2013-05-04T10:42:19.000Z</time>
      </trkpt>
      <trkpt lat="43.6408" lon="5.65718">
        <ele>315.20001220703</ele>
        <time>2013-05-04T10:42:20.000Z</time>
      </trkpt>
      <trkpt lat="43.64075" lon="5.65714">
        <ele>315.20001220703</ele>
        <time>2013-05-04T10:42:21.000Z</time>
      </trkpt>
      <trkpt lat="43.6407" lon="5.6571">
        <ele>315.20001220703</ele>
        <time>2013-05-04T10:42:22.000Z</time>
      </trkpt>
      <trkpt lat="43.64064" lon="5.65706">
        <ele>315</ele>
        <time>2013-05-04T10:42:23.000Z</time>
      </trkpt>
      <trkpt lat="43.64059" lon="5.65702">
        <ele>315</ele>
        <time>2013-05-04T10:42:24.000Z</time>
      </trkpt>
      <trkpt lat="43.6405" lon="5.65694">
        <ele>314.79998779297</ele>
        <time>2013-05-04T10:42:26.000Z</time>
      </trkpt>
      <trkpt lat="43.64047" lon="5.65689">
        <ele>314.79998779297</ele>
        <time>2013-05-04T10:42:27.000Z</time>
      </trkpt>
      <trkpt lat="43.64046" lon="5.65684">
        <ele>314.79998779297</ele>
        <time>2013-05-04T10:42:28.000Z</time>
      </trkpt>
      <trkpt lat="43.64045" lon="5.6568">
        <ele>314.79998779297</ele>
        <time>2013-05-04T10:42:29.000Z</time>
      </trkpt>
      <trkpt lat="43.64043" lon="5.65675">
        <ele>314.79998779297</ele>
        <time>2013-05-04T10:42:30.000Z</time>
      </trkpt>
      <trkpt lat="43.6404" lon="5.6567">
        <ele>314.60000610352</ele>
        <time>2013-05-04T10:42:31.000Z</time>
      </trkpt>
      <trkpt lat="43.64036" lon="5.65666">
        <ele>314.39999389648</ele>
        <time>2013-05-04T10:42:32.000Z</time>
      </trkpt>
      <trkpt lat="43.64031" lon="5.65661">
        <ele>314.20001220703</ele>
        <time>2013-05-04T10:42:33.000Z</time>
      </trkpt>
      <trkpt lat="43.6401" lon="5.65639">
        <ele>313.20001220703</ele>
        <time>2013-05-04T10:42:37.000Z</time>
      </trkpt>
      <trkpt lat="43.63988" lon="5.65616">
        <ele>312.79998779297</ele>
        <time>2013-05-04T10:42:41.000Z</time>
      </trkpt>
      <trkpt lat="43.63984" lon="5.65608">
        <ele>313</ele>
        <time>2013-05-04T10:42:42.000Z</time>
      </trkpt>
      <trkpt lat="43.6398" lon="5.656">
        <ele>313</ele>
        <time>2013-05-04T10:42:43.000Z</time>
      </trkpt>
      <trkpt lat="43.63968" lon="5.65573">
        <ele>313.39999389648</ele>
        <time>2013-05-04T10:42:46.000Z</time>
      </trkpt>
      <trkpt lat="43.63945" lon="5.65529">
        <ele>311.79998779297</ele>
        <time>2013-05-04T10:42:51.000Z</time>
      </trkpt>
      <trkpt lat="43.63938" lon="5.65521">
        <ele>310.79998779297</ele>
        <time>2013-05-04T10:42:52.000Z</time>
      </trkpt>
      <trkpt lat="43.63931" lon="5.65516">
        <ele>309.79998779297</ele>
        <time>2013-05-04T10:42:53.000Z</time>
      </trkpt>
      <trkpt lat="43.63923" lon="5.65514">
        <ele>308.60000610352</ele>
        <time>2013-05-04T10:42:54.000Z</time>
      </trkpt>
      <trkpt lat="43.63916" lon="5.65513">
        <ele>307.60000610352</ele>
        <time>2013-05-04T10:42:55.000Z</time>
      </trkpt>
      <trkpt lat="43.63899" lon="5.65511">
        <ele>307.79998779297</ele>
        <time>2013-05-04T10:42:57.000Z</time>
      </trkpt>
      <trkpt lat="43.63891" lon="5.65508">
        <ele>307.60000610352</ele>
        <time>2013-05-04T10:42:58.000Z</time>
      </trkpt>
      <trkpt lat="43.63876" lon="5.65502">
        <ele>307.20001220703</ele>
        <time>2013-05-04T10:43:00.000Z</time>
      </trkpt>
      <trkpt lat="43.63835" lon="5.65482">
        <ele>305.39999389648</ele>
        <time>2013-05-04T10:43:05.000Z</time>
      </trkpt>
      <trkpt lat="43.63811" lon="5.65465">
        <ele>304.60000610352</ele>
        <time>2013-05-04T10:43:08.000Z</time>
      </trkpt>
      <trkpt lat="43.63804" lon="5.65457">
        <ele>304.20001220703</ele>
        <time>2013-05-04T10:43:09.000Z</time>
      </trkpt>
      <trkpt lat="43.63797" lon="5.65449">
        <ele>303.79998779297</ele>
        <time>2013-05-04T10:43:10.000Z</time>
      </trkpt>
      <trkpt lat="43.63791" lon="5.6544">
        <ele>303.39999389648</ele>
        <time>2013-05-04T10:43:11.000Z</time>
      </trkpt>
      <trkpt lat="43.63787" lon="5.6543">
        <ele>303</ele>
        <time>2013-05-04T10:43:12.000Z</time>
      </trkpt>
      <trkpt lat="43.63783" lon="5.6542">
        <ele>302.60000610352</ele>
        <time>2013-05-04T10:43:13.000Z</time>
      </trkpt>
      <trkpt lat="43.63767" lon="5.65376">
        <ele>301.79998779297</ele>
        <time>2013-05-04T10:43:17.000Z</time>
      </trkpt>
      <trkpt lat="43.63765" lon="5.65364">
        <ele>301.39999389648</ele>
        <time>2013-05-04T10:43:18.000Z</time>
      </trkpt>
      <trkpt lat="43.63764" lon="5.65352">
        <ele>300.79998779297</ele>
        <time>2013-05-04T10:43:19.000Z</time>
      </trkpt>
      <trkpt lat="43.63763" lon="5.65339">
        <ele>300.39999389648</ele>
        <time>2013-05-04T10:43:20.000Z</time>
      </trkpt>
      <trkpt lat="43.63762" lon="5.65326">
        <ele>300.20001220703</ele>
        <time>2013-05-04T10:43:21.000Z</time>
      </trkpt>
      <trkpt lat="43.6376" lon="5.65315">
        <ele>300.39999389648</ele>
        <time>2013-05-04T10:43:22.000Z</time>
      </trkpt>
      <trkpt lat="43.63757" lon="5.65304">
        <ele>300.20001220703</ele>
        <time>2013-05-04T10:43:23.000Z</time>
      </trkpt>
      <trkpt lat="43.63754" lon="5.65293">
        <ele>300</ele>
        <time>2013-05-04T10:43:24.000Z</time>
      </trkpt>
      <trkpt lat="43.6375" lon="5.65284">
        <ele>299.60000610352</ele>
        <time>2013-05-04T10:43:25.000Z</time>
      </trkpt>
      <trkpt lat="43.63744" lon="5.65275">
        <ele>299.60000610352</ele>
        <time>2013-05-04T10:43:26.000Z</time>
      </trkpt>
      <trkpt lat="43.63727" lon="5.65257">
        <ele>299.39999389648</ele>
        <time>2013-05-04T10:43:28.000Z</time>
      </trkpt>
      <trkpt lat="43.63716" lon="5.6523">
        <ele>300.60000610352</ele>
        <time>2013-05-04T10:43:30.000Z</time>
      </trkpt>
      <trkpt lat="43.63713" lon="5.65216">
        <ele>301.20001220703</ele>
        <time>2013-05-04T10:43:31.000Z</time>
      </trkpt>
      <trkpt lat="43.6371" lon="5.65203">
        <ele>302</ele>
        <time>2013-05-04T10:43:32.000Z</time>
      </trkpt>
      <trkpt lat="43.6371" lon="5.65188">
        <ele>302.79998779297</ele>
        <time>2013-05-04T10:43:33.000Z</time>
      </trkpt>
      <trkpt lat="43.6371" lon="5.65174">
        <ele>303.79998779297</ele>
        <time>2013-05-04T10:43:34.000Z</time>
      </trkpt>
      <trkpt lat="43.63712" lon="5.6516">
        <ele>303.79998779297</ele>
        <time>2013-05-04T10:43:35.000Z</time>
      </trkpt>
      <trkpt lat="43.63713" lon="5.65146">
        <ele>303</ele>
        <time>2013-05-04T10:43:36.000Z</time>
      </trkpt>
      <trkpt lat="43.63707" lon="5.65063">
        <ele>296.79998779297</ele>
        <time>2013-05-04T10:43:42.000Z</time>
      </trkpt>
      <trkpt lat="43.63701" lon="5.65037">
        <ele>295</ele>
        <time>2013-05-04T10:43:44.000Z</time>
      </trkpt>
      <trkpt lat="43.63692" lon="5.65029">
        <ele>293.20001220703</ele>
        <time>2013-05-04T10:43:45.000Z</time>
      </trkpt>
      <trkpt lat="43.63681" lon="5.65024">
        <ele>291</ele>
        <time>2013-05-04T10:43:46.000Z</time>
      </trkpt>
      <trkpt lat="43.63671" lon="5.6502">
        <ele>289.20001220703</ele>
        <time>2013-05-04T10:43:47.000Z</time>
      </trkpt>
      <trkpt lat="43.63663" lon="5.65015">
        <ele>288.39999389648</ele>
        <time>2013-05-04T10:43:48.000Z</time>
      </trkpt>
      <trkpt lat="43.63656" lon="5.65008">
        <ele>288.39999389648</ele>
        <time>2013-05-04T10:43:49.000Z</time>
      </trkpt>
      <trkpt lat="43.63649" lon="5.64998">
        <ele>288.39999389648</ele>
        <time>2013-05-04T10:43:50.000Z</time>
      </trkpt>
      <trkpt lat="43.63645" lon="5.64986">
        <ele>289</ele>
        <time>2013-05-04T10:43:51.000Z</time>
      </trkpt>
      <trkpt lat="43.63642" lon="5.64973">
        <ele>289.60000610352</ele>
        <time>2013-05-04T10:43:52.000Z</time>
      </trkpt>
      <trkpt lat="43.6364" lon="5.64959">
        <ele>290</ele>
        <time>2013-05-04T10:43:53.000Z</time>
      </trkpt>
      <trkpt lat="43.63639" lon="5.64946">
        <ele>290.20001220703</ele>
        <time>2013-05-04T10:43:54.000Z</time>
      </trkpt>
      <trkpt lat="43.63637" lon="5.64932">
        <ele>290.39999389648</ele>
        <time>2013-05-04T10:43:55.000Z</time>
      </trkpt>
      <trkpt lat="43.63633" lon="5.64919">
        <ele>290.20001220703</ele>
        <time>2013-05-04T10:43:56.000Z</time>
      </trkpt>
      <trkpt lat="43.63626" lon="5.64909">
        <ele>290</ele>
        <time>2013-05-04T10:43:57.000Z</time>
      </trkpt>
      <trkpt lat="43.63618" lon="5.64901">
        <ele>289</ele>
        <time>2013-05-04T10:43:58.000Z</time>
      </trkpt>
      <trkpt lat="43.63609" lon="5.64897">
        <ele>287.60000610352</ele>
        <time>2013-05-04T10:43:59.000Z</time>
      </trkpt>
      <trkpt lat="43.63599" lon="5.64894">
        <ele>286</ele>
        <time>2013-05-04T10:44:00.000Z</time>
      </trkpt>
      <trkpt lat="43.63591" lon="5.6489">
        <ele>284.39999389648</ele>
        <time>2013-05-04T10:44:01.000Z</time>
      </trkpt>
      <trkpt lat="43.63584" lon="5.64882">
        <ele>283.20001220703</ele>
        <time>2013-05-04T10:44:02.000Z</time>
      </trkpt>
      <trkpt lat="43.63578" lon="5.64872">
        <ele>284.39999389648</ele>
        <time>2013-05-04T10:44:03.000Z</time>
      </trkpt>
      <trkpt lat="43.63575" lon="5.6486">
        <ele>285.39999389648</ele>
        <time>2013-05-04T10:44:04.000Z</time>
      </trkpt>
      <trkpt lat="43.63573" lon="5.64847">
        <ele>285.79998779297</ele>
        <time>2013-05-04T10:44:05.000Z</time>
      </trkpt>
      <trkpt lat="43.63573" lon="5.64833">
        <ele>286</ele>
        <time>2013-05-04T10:44:06.000Z</time>
      </trkpt>
      <trkpt lat="43.63572" lon="5.6482">
        <ele>286</ele>
        <time>2013-05-04T10:44:07.000Z</time>
      </trkpt>
      <trkpt lat="43.63567" lon="5.64741">
        <ele>285.79998779297</ele>
        <time>2013-05-04T10:44:13.000Z</time>
      </trkpt>
      <trkpt lat="43.63557" lon="5.64626">
        <ele>285.20001220703</ele>
        <time>2013-05-04T10:44:22.000Z</time>
      </trkpt>
      <trkpt lat="43.63557" lon="5.64613">
        <ele>285.20001220703</ele>
        <time>2013-05-04T10:44:23.000Z</time>
      </trkpt>
      <trkpt lat="43.63559" lon="5.64601">
        <ele>285</ele>
        <time>2013-05-04T10:44:24.000Z</time>
      </trkpt>
      <trkpt lat="43.63561" lon="5.64589">
        <ele>285</ele>
        <time>2013-05-04T10:44:25.000Z</time>
      </trkpt>
      <trkpt lat="43.63564" lon="5.64577">
        <ele>284.60000610352</ele>
        <time>2013-05-04T10:44:26.000Z</time>
      </trkpt>
      <trkpt lat="43.63568" lon="5.64567">
        <ele>283.79998779297</ele>
        <time>2013-05-04T10:44:27.000Z</time>
      </trkpt>
      <trkpt lat="43.63573" lon="5.64557">
        <ele>282.79998779297</ele>
        <time>2013-05-04T10:44:28.000Z</time>
      </trkpt>
      <trkpt lat="43.63577" lon="5.64547">
        <ele>281.79998779297</ele>
        <time>2013-05-04T10:44:29.000Z</time>
      </trkpt>
      <trkpt lat="43.63582" lon="5.64538">
        <ele>280.60000610352</ele>
        <time>2013-05-04T10:44:30.000Z</time>
      </trkpt>
      <trkpt lat="43.63597" lon="5.645">
        <ele>279.39999389648</ele>
        <time>2013-05-04T10:44:34.000Z</time>
      </trkpt>
      <trkpt lat="43.63603" lon="5.64481">
        <ele>278.20001220703</ele>
        <time>2013-05-04T10:44:36.000Z</time>
      </trkpt>
      <trkpt lat="43.63611" lon="5.64466">
        <ele>277</ele>
        <time>2013-05-04T10:44:38.000Z</time>
      </trkpt>
      <trkpt lat="43.63615" lon="5.64459">
        <ele>276.60000610352</ele>
        <time>2013-05-04T10:44:39.000Z</time>
      </trkpt>
      <trkpt lat="43.63621" lon="5.64453">
        <ele>276.39999389648</ele>
        <time>2013-05-04T10:44:40.000Z</time>
      </trkpt>
      <trkpt lat="43.63627" lon="5.64448">
        <ele>276.20001220703</ele>
        <time>2013-05-04T10:44:41.000Z</time>
      </trkpt>
      <trkpt lat="43.63634" lon="5.64444">
        <ele>276</ele>
        <time>2013-05-04T10:44:42.000Z</time>
      </trkpt>
      <trkpt lat="43.63683" lon="5.6441">
        <ele>273.60000610352</ele>
        <time>2013-05-04T10:44:50.000Z</time>
      </trkpt>
      <trkpt lat="43.63688" lon="5.64404">
        <ele>273.79998779297</ele>
        <time>2013-05-04T10:44:51.000Z</time>
      </trkpt>
      <trkpt lat="43.63692" lon="5.64397">
        <ele>274</ele>
        <time>2013-05-04T10:44:52.000Z</time>
      </trkpt>
      <trkpt lat="43.63695" lon="5.64389">
        <ele>274.20001220703</ele>
        <time>2013-05-04T10:44:53.000Z</time>
      </trkpt>
      <trkpt lat="43.63698" lon="5.64381">
        <ele>274.20001220703</ele>
        <time>2013-05-04T10:44:54.000Z</time>
      </trkpt>
      <trkpt lat="43.637" lon="5.64374">
        <ele>274</ele>
        <time>2013-05-04T10:44:55.000Z</time>
      </trkpt>
      <trkpt lat="43.63707" lon="5.64333">
        <ele>273.60000610352</ele>
        <time>2013-05-04T10:45:01.000Z</time>
      </trkpt>
      <trkpt lat="43.63707" lon="5.64304">
        <ele>273.20001220703</ele>
        <time>2013-05-04T10:45:07.000Z</time>
      </trkpt>
      <trkpt lat="43.63705" lon="5.64301">
        <ele>272.79998779297</ele>
        <time>2013-05-04T10:45:08.000Z</time>
      </trkpt>
      <trkpt lat="43.63699" lon="5.64294">
        <ele>271.79998779297</ele>
        <time>2013-05-04T10:45:10.000Z</time>
      </trkpt>
      <trkpt lat="43.63695" lon="5.64291">
        <ele>271</ele>
        <time>2013-05-04T10:45:11.000Z</time>
      </trkpt>
      <trkpt lat="43.6369" lon="5.64286">
        <ele>270.39999389648</ele>
        <time>2013-05-04T10:45:12.000Z</time>
      </trkpt>
      <trkpt lat="43.63687" lon="5.64279">
        <ele>270</ele>
        <time>2013-05-04T10:45:13.000Z</time>
      </trkpt>
      <trkpt lat="43.63686" lon="5.64272">
        <ele>269.60000610352</ele>
        <time>2013-05-04T10:45:14.000Z</time>
      </trkpt>
      <trkpt lat="43.63686" lon="5.64264">
        <ele>269.60000610352</ele>
        <time>2013-05-04T10:45:15.000Z</time>
      </trkpt>
      <trkpt lat="43.63687" lon="5.64256">
        <ele>269.60000610352</ele>
        <time>2013-05-04T10:45:16.000Z</time>
      </trkpt>
      <trkpt lat="43.63689" lon="5.64248">
        <ele>269.79998779297</ele>
        <time>2013-05-04T10:45:17.000Z</time>
      </trkpt>
      <trkpt lat="43.6369" lon="5.64241">
        <ele>270</ele>
        <time>2013-05-04T10:45:18.000Z</time>
      </trkpt>
      <trkpt lat="43.63691" lon="5.64234">
        <ele>270</ele>
        <time>2013-05-04T10:45:19.000Z</time>
      </trkpt>
      <trkpt lat="43.63699" lon="5.64194">
        <ele>271</ele>
        <time>2013-05-04T10:45:25.000Z</time>
      </trkpt>
      <trkpt lat="43.63716" lon="5.64115">
        <ele>273.20001220703</ele>
        <time>2013-05-04T10:45:38.000Z</time>
      </trkpt>
      <trkpt lat="43.63725" lon="5.64043">
        <ele>274.20001220703</ele>
        <time>2013-05-04T10:45:50.000Z</time>
      </trkpt>
      <trkpt lat="43.63725" lon="5.6401">
        <ele>274.20001220703</ele>
        <time>2013-05-04T10:45:57.000Z</time>
      </trkpt>
      <trkpt lat="43.63724" lon="5.63998">
        <ele>274.20001220703</ele>
        <time>2013-05-04T10:46:01.000Z</time>
      </trkpt>
      <trkpt lat="43.63722" lon="5.63997">
        <ele>274</ele>
        <time>2013-05-04T10:46:02.000Z</time>
      </trkpt>
      <trkpt lat="43.63719" lon="5.63996">
        <ele>273.39999389648</ele>
        <time>2013-05-04T10:46:03.000Z</time>
      </trkpt>
      <trkpt lat="43.63716" lon="5.63996">
        <ele>273</ele>
        <time>2013-05-04T10:46:04.000Z</time>
      </trkpt>
      <trkpt lat="43.63713" lon="5.63997">
        <ele>272.60000610352</ele>
        <time>2013-05-04T10:46:05.000Z</time>
      </trkpt>
      <trkpt lat="43.63709" lon="5.63998">
        <ele>272</ele>
        <time>2013-05-04T10:46:06.000Z</time>
      </trkpt>
      <trkpt lat="43.63704" lon="5.63998">
        <ele>271.20001220703</ele>
        <time>2013-05-04T10:46:07.000Z</time>
      </trkpt>
      <trkpt lat="43.63655" lon="5.63997">
        <ele>266</ele>
        <time>2013-05-04T10:46:15.000Z</time>
      </trkpt>
      <trkpt lat="43.63648" lon="5.63996">
        <ele>266</ele>
        <time>2013-05-04T10:46:16.000Z</time>
      </trkpt>
      <trkpt lat="43.63642" lon="5.63996">
        <ele>266</ele>
        <time>2013-05-04T10:46:17.000Z</time>
      </trkpt>
      <trkpt lat="43.63636" lon="5.63997">
        <ele>266</ele>
        <time>2013-05-04T10:46:18.000Z</time>
      </trkpt>
      <trkpt lat="43.63629" lon="5.64">
        <ele>266</ele>
        <time>2013-05-04T10:46:19.000Z</time>
      </trkpt>
      <trkpt lat="43.63624" lon="5.64002">
        <ele>265.79998779297</ele>
        <time>2013-05-04T10:46:20.000Z</time>
      </trkpt>
      <trkpt lat="43.63607" lon="5.6401">
        <ele>265.79998779297</ele>
        <time>2013-05-04T10:46:23.000Z</time>
      </trkpt>
      <trkpt lat="43.63601" lon="5.6401">
        <ele>265.79998779297</ele>
        <time>2013-05-04T10:46:24.000Z</time>
      </trkpt>
      <trkpt lat="43.63595" lon="5.6401">
        <ele>265.79998779297</ele>
        <time>2013-05-04T10:46:25.000Z</time>
      </trkpt>
      <trkpt lat="43.6358" lon="5.64008">
        <ele>266</ele>
        <time>2013-05-04T10:46:28.000Z</time>
      </trkpt>
      <trkpt lat="43.63576" lon="5.64003">
        <ele>266.20001220703</ele>
        <time>2013-05-04T10:46:29.000Z</time>
      </trkpt>
      <trkpt lat="43.63575" lon="5.63995">
        <ele>266.39999389648</ele>
        <time>2013-05-04T10:46:30.000Z</time>
      </trkpt>
      <trkpt lat="43.63576" lon="5.63987">
        <ele>266.39999389648</ele>
        <time>2013-05-04T10:46:31.000Z</time>
      </trkpt>
      <trkpt lat="43.63576" lon="5.63978">
        <ele>266.39999389648</ele>
        <time>2013-05-04T10:46:32.000Z</time>
      </trkpt>
    </trkseg>
  </trk>
</gpx>